<?xml version="1.0" encoding="UTF-8" standalone="no" ?>
<gpx xmlns="http://www.topografix.com/GPX/1/1" xmlns:xsi="http://www.w3.org/2001/XMLSchema-instance" xsi:schemaLocation="http://www.topografix.com/GPX/1/1 http://www.topografix.com/GPX/1/1/gpx.xsd" version="1.1" creator="VisuGPX - https://www.visugpx.com">
  <metadata>
    <name>Le Mesle dextre</name>
    <desc><![CDATA[On change le tour de la Ducambanderie, pour aller jusqu\'au Mesle pour y laisser Néo.
]]></desc>
  </metadata>
  <trk>
    <name><![CDATA[Saint-Léger-en-Yvelines Autre]]></name>
    <trkseg>
      <trkpt lat="48.7082" lon="1.75192">
        <ele>175</ele>
        <time>2015-07-11T08:28:27.000Z</time>
      </trkpt>
      <trkpt lat="48.70814" lon="1.752">
        <ele>175</ele>
        <time>2015-07-11T08:28:28.000Z</time>
      </trkpt>
      <trkpt lat="48.70814" lon="1.752">
        <ele>175</ele>
        <time>2015-07-11T08:28:28.000Z</time>
      </trkpt>
      <trkpt lat="48.70814" lon="1.752">
        <ele>175</ele>
        <time>2015-07-11T08:28:31.000Z</time>
      </trkpt>
      <trkpt lat="48.70816" lon="1.75195">
        <ele>175</ele>
        <time>2015-07-11T08:28:35.000Z</time>
      </trkpt>
      <trkpt lat="48.70823" lon="1.75185">
        <ele>175</ele>
        <time>2015-07-11T08:28:41.000Z</time>
      </trkpt>
      <trkpt lat="48.70829" lon="1.75175">
        <ele>175</ele>
        <time>2015-07-11T08:28:48.000Z</time>
      </trkpt>
      <trkpt lat="48.70838" lon="1.7516">
        <ele>175</ele>
        <time>2015-07-11T08:28:56.000Z</time>
      </trkpt>
      <trkpt lat="48.70845" lon="1.75147">
        <ele>175</ele>
        <time>2015-07-11T08:29:04.000Z</time>
      </trkpt>
      <trkpt lat="48.70851" lon="1.75134">
        <ele>175</ele>
        <time>2015-07-11T08:29:13.000Z</time>
      </trkpt>
      <trkpt lat="48.70856" lon="1.75124">
        <ele>175</ele>
        <time>2015-07-11T08:29:21.000Z</time>
      </trkpt>
      <trkpt lat="48.70862" lon="1.75108">
        <ele>175</ele>
        <time>2015-07-11T08:29:30.000Z</time>
      </trkpt>
      <trkpt lat="48.70866" lon="1.75099">
        <ele>175</ele>
        <time>2015-07-11T08:29:37.000Z</time>
      </trkpt>
      <trkpt lat="48.7087" lon="1.75089">
        <ele>175</ele>
        <time>2015-07-11T08:29:44.000Z</time>
      </trkpt>
      <trkpt lat="48.70874" lon="1.75079">
        <ele>175</ele>
        <time>2015-07-11T08:29:51.000Z</time>
      </trkpt>
      <trkpt lat="48.7088" lon="1.75065">
        <ele>175</ele>
        <time>2015-07-11T08:29:59.000Z</time>
      </trkpt>
      <trkpt lat="48.70884" lon="1.75054">
        <ele>175</ele>
        <time>2015-07-11T08:30:07.000Z</time>
      </trkpt>
      <trkpt lat="48.70885" lon="1.75047">
        <ele>175</ele>
        <time>2015-07-11T08:30:12.000Z</time>
      </trkpt>
      <trkpt lat="48.70891" lon="1.75036">
        <ele>175.1</ele>
        <time>2015-07-11T08:30:19.000Z</time>
      </trkpt>
      <trkpt lat="48.70898" lon="1.75025">
        <ele>175.3</ele>
        <time>2015-07-11T08:30:26.000Z</time>
      </trkpt>
      <trkpt lat="48.70903" lon="1.75016">
        <ele>175.3</ele>
        <time>2015-07-11T08:30:32.000Z</time>
      </trkpt>
      <trkpt lat="48.70906" lon="1.75009">
        <ele>175.2</ele>
        <time>2015-07-11T08:30:36.000Z</time>
      </trkpt>
      <trkpt lat="48.70912" lon="1.74996">
        <ele>175</ele>
        <time>2015-07-11T08:30:44.000Z</time>
      </trkpt>
      <trkpt lat="48.70917" lon="1.74986">
        <ele>175</ele>
        <time>2015-07-11T08:30:50.000Z</time>
      </trkpt>
      <trkpt lat="48.70923" lon="1.74978">
        <ele>175.2</ele>
        <time>2015-07-11T08:30:57.000Z</time>
      </trkpt>
      <trkpt lat="48.70927" lon="1.74977">
        <ele>175.4</ele>
        <time>2015-07-11T08:31:00.000Z</time>
      </trkpt>
      <trkpt lat="48.70931" lon="1.74966">
        <ele>175.6</ele>
        <time>2015-07-11T08:31:07.000Z</time>
      </trkpt>
      <trkpt lat="48.70934" lon="1.74957">
        <ele>175.8</ele>
        <time>2015-07-11T08:31:12.000Z</time>
      </trkpt>
      <trkpt lat="48.70937" lon="1.74949">
        <ele>176</ele>
        <time>2015-07-11T08:31:17.000Z</time>
      </trkpt>
      <trkpt lat="48.70939" lon="1.74942">
        <ele>176</ele>
        <time>2015-07-11T08:31:22.000Z</time>
      </trkpt>
      <trkpt lat="48.70941" lon="1.74938">
        <ele>176</ele>
        <time>2015-07-11T08:31:24.000Z</time>
      </trkpt>
      <trkpt lat="48.70946" lon="1.74929">
        <ele>176</ele>
        <time>2015-07-11T08:31:30.000Z</time>
      </trkpt>
      <trkpt lat="48.70949" lon="1.7492">
        <ele>176</ele>
        <time>2015-07-11T08:31:37.000Z</time>
      </trkpt>
      <trkpt lat="48.70953" lon="1.74911">
        <ele>176</ele>
        <time>2015-07-11T08:31:43.000Z</time>
      </trkpt>
      <trkpt lat="48.70956" lon="1.74907">
        <ele>176</ele>
        <time>2015-07-11T08:31:47.000Z</time>
      </trkpt>
      <trkpt lat="48.70961" lon="1.74901">
        <ele>176</ele>
        <time>2015-07-11T08:31:52.000Z</time>
      </trkpt>
      <trkpt lat="48.70968" lon="1.74893">
        <ele>176</ele>
        <time>2015-07-11T08:31:56.000Z</time>
      </trkpt>
      <trkpt lat="48.70972" lon="1.74888">
        <ele>176</ele>
        <time>2015-07-11T08:32:00.000Z</time>
      </trkpt>
      <trkpt lat="48.70978" lon="1.74882">
        <ele>176</ele>
        <time>2015-07-11T08:32:06.000Z</time>
      </trkpt>
      <trkpt lat="48.70981" lon="1.74875">
        <ele>176</ele>
        <time>2015-07-11T08:32:10.000Z</time>
      </trkpt>
      <trkpt lat="48.70987" lon="1.74868">
        <ele>176</ele>
        <time>2015-07-11T08:32:16.000Z</time>
      </trkpt>
      <trkpt lat="48.70992" lon="1.74865">
        <ele>176</ele>
        <time>2015-07-11T08:32:20.000Z</time>
      </trkpt>
      <trkpt lat="48.70997" lon="1.74861">
        <ele>176</ele>
        <time>2015-07-11T08:32:24.000Z</time>
      </trkpt>
      <trkpt lat="48.71005" lon="1.7485">
        <ele>176</ele>
        <time>2015-07-11T08:32:32.000Z</time>
      </trkpt>
      <trkpt lat="48.71007" lon="1.74848">
        <ele>176</ele>
        <time>2015-07-11T08:32:34.000Z</time>
      </trkpt>
      <trkpt lat="48.71009" lon="1.74838">
        <ele>176</ele>
        <time>2015-07-11T08:32:39.000Z</time>
      </trkpt>
      <trkpt lat="48.71006" lon="1.74828">
        <ele>176</ele>
        <time>2015-07-11T08:32:45.000Z</time>
      </trkpt>
      <trkpt lat="48.71006" lon="1.74823">
        <ele>176</ele>
        <time>2015-07-11T08:32:50.000Z</time>
      </trkpt>
      <trkpt lat="48.71006" lon="1.7482">
        <ele>176</ele>
        <time>2015-07-11T08:33:14.000Z</time>
      </trkpt>
      <trkpt lat="48.71005" lon="1.7482">
        <ele>176</ele>
        <time>2015-07-11T08:33:20.000Z</time>
      </trkpt>
      <trkpt lat="48.71001" lon="1.74815">
        <ele>176</ele>
        <time>2015-07-11T08:33:24.000Z</time>
      </trkpt>
      <trkpt lat="48.70994" lon="1.74807">
        <ele>176</ele>
        <time>2015-07-11T08:33:32.000Z</time>
      </trkpt>
      <trkpt lat="48.70988" lon="1.74791">
        <ele>176</ele>
        <time>2015-07-11T08:33:40.000Z</time>
      </trkpt>
      <trkpt lat="48.70982" lon="1.74784">
        <ele>176</ele>
        <time>2015-07-11T08:33:47.000Z</time>
      </trkpt>
      <trkpt lat="48.70976" lon="1.74774">
        <ele>176</ele>
        <time>2015-07-11T08:33:54.000Z</time>
      </trkpt>
      <trkpt lat="48.70969" lon="1.74771">
        <ele>176</ele>
        <time>2015-07-11T08:34:01.000Z</time>
      </trkpt>
      <trkpt lat="48.70965" lon="1.74765">
        <ele>176</ele>
        <time>2015-07-11T08:34:05.000Z</time>
      </trkpt>
      <trkpt lat="48.70959" lon="1.74759">
        <ele>176</ele>
        <time>2015-07-11T08:34:11.000Z</time>
      </trkpt>
      <trkpt lat="48.70955" lon="1.74756">
        <ele>176</ele>
        <time>2015-07-11T08:34:14.000Z</time>
      </trkpt>
      <trkpt lat="48.70948" lon="1.74743">
        <ele>176</ele>
        <time>2015-07-11T08:34:22.000Z</time>
      </trkpt>
      <trkpt lat="48.7094" lon="1.74739">
        <ele>176</ele>
        <time>2015-07-11T08:34:29.000Z</time>
      </trkpt>
      <trkpt lat="48.70933" lon="1.74735">
        <ele>176</ele>
        <time>2015-07-11T08:34:36.000Z</time>
      </trkpt>
      <trkpt lat="48.70926" lon="1.74724">
        <ele>176</ele>
        <time>2015-07-11T08:34:44.000Z</time>
      </trkpt>
      <trkpt lat="48.7092" lon="1.74708">
        <ele>175.6</ele>
        <time>2015-07-11T08:34:52.000Z</time>
      </trkpt>
      <trkpt lat="48.70913" lon="1.74698">
        <ele>175.2</ele>
        <time>2015-07-11T08:34:59.000Z</time>
      </trkpt>
      <trkpt lat="48.70907" lon="1.74689">
        <ele>175.4</ele>
        <time>2015-07-11T08:35:07.000Z</time>
      </trkpt>
      <trkpt lat="48.70901" lon="1.74681">
        <ele>175.5</ele>
        <time>2015-07-11T08:35:13.000Z</time>
      </trkpt>
      <trkpt lat="48.70893" lon="1.74675">
        <ele>175.4</ele>
        <time>2015-07-11T08:35:19.000Z</time>
      </trkpt>
      <trkpt lat="48.70887" lon="1.74668">
        <ele>175.1</ele>
        <time>2015-07-11T08:35:25.000Z</time>
      </trkpt>
      <trkpt lat="48.70881" lon="1.74661">
        <ele>175.4</ele>
        <time>2015-07-11T08:35:32.000Z</time>
      </trkpt>
      <trkpt lat="48.70875" lon="1.74653">
        <ele>175.5</ele>
        <time>2015-07-11T08:35:39.000Z</time>
      </trkpt>
      <trkpt lat="48.7087" lon="1.74647">
        <ele>175.4</ele>
        <time>2015-07-11T08:35:44.000Z</time>
      </trkpt>
      <trkpt lat="48.70864" lon="1.74637">
        <ele>175.1</ele>
        <time>2015-07-11T08:35:51.000Z</time>
      </trkpt>
      <trkpt lat="48.70856" lon="1.74631">
        <ele>175.4</ele>
        <time>2015-07-11T08:35:58.000Z</time>
      </trkpt>
      <trkpt lat="48.7085" lon="1.74626">
        <ele>175.7</ele>
        <time>2015-07-11T08:36:03.000Z</time>
      </trkpt>
      <trkpt lat="48.70847" lon="1.74622">
        <ele>175.8</ele>
        <time>2015-07-11T08:36:09.000Z</time>
      </trkpt>
      <trkpt lat="48.7084" lon="1.74611">
        <ele>176</ele>
        <time>2015-07-11T08:36:18.000Z</time>
      </trkpt>
      <trkpt lat="48.70832" lon="1.74597">
        <ele>176</ele>
        <time>2015-07-11T08:36:26.000Z</time>
      </trkpt>
      <trkpt lat="48.70825" lon="1.74584">
        <ele>176</ele>
        <time>2015-07-11T08:36:33.000Z</time>
      </trkpt>
      <trkpt lat="48.70815" lon="1.74574">
        <ele>176</ele>
        <time>2015-07-11T08:36:42.000Z</time>
      </trkpt>
      <trkpt lat="48.70807" lon="1.74564">
        <ele>176</ele>
        <time>2015-07-11T08:36:50.000Z</time>
      </trkpt>
      <trkpt lat="48.708" lon="1.74557">
        <ele>176.2</ele>
        <time>2015-07-11T08:36:58.000Z</time>
      </trkpt>
      <trkpt lat="48.70793" lon="1.74551">
        <ele>176.4</ele>
        <time>2015-07-11T08:37:06.000Z</time>
      </trkpt>
      <trkpt lat="48.70785" lon="1.74544">
        <ele>176.4</ele>
        <time>2015-07-11T08:37:13.000Z</time>
      </trkpt>
      <trkpt lat="48.70778" lon="1.74535">
        <ele>176.3</ele>
        <time>2015-07-11T08:37:21.000Z</time>
      </trkpt>
      <trkpt lat="48.7077" lon="1.74528">
        <ele>176</ele>
        <time>2015-07-11T08:37:28.000Z</time>
      </trkpt>
      <trkpt lat="48.70761" lon="1.74516">
        <ele>176</ele>
        <time>2015-07-11T08:37:37.000Z</time>
      </trkpt>
      <trkpt lat="48.70753" lon="1.74506">
        <ele>176</ele>
        <time>2015-07-11T08:37:46.000Z</time>
      </trkpt>
      <trkpt lat="48.70746" lon="1.74494">
        <ele>176</ele>
        <time>2015-07-11T08:37:54.000Z</time>
      </trkpt>
      <trkpt lat="48.7074" lon="1.74485">
        <ele>176</ele>
        <time>2015-07-11T08:38:01.000Z</time>
      </trkpt>
      <trkpt lat="48.70733" lon="1.74476">
        <ele>176</ele>
        <time>2015-07-11T08:38:09.000Z</time>
      </trkpt>
      <trkpt lat="48.70726" lon="1.74466">
        <ele>176</ele>
        <time>2015-07-11T08:38:16.000Z</time>
      </trkpt>
      <trkpt lat="48.70726" lon="1.74464">
        <ele>176</ele>
        <time>2015-07-11T08:38:17.000Z</time>
      </trkpt>
      <trkpt lat="48.70726" lon="1.74455">
        <ele>176</ele>
        <time>2015-07-11T08:38:21.000Z</time>
      </trkpt>
      <trkpt lat="48.70723" lon="1.7445">
        <ele>176</ele>
        <time>2015-07-11T08:38:26.000Z</time>
      </trkpt>
      <trkpt lat="48.7072" lon="1.7445">
        <ele>176</ele>
        <time>2015-07-11T08:38:33.000Z</time>
      </trkpt>
      <trkpt lat="48.70834" lon="1.74377">
        <ele>176</ele>
        <time>2015-07-11T08:40:52.000Z</time>
      </trkpt>
      <trkpt lat="48.70837" lon="1.74373">
        <ele>176</ele>
        <time>2015-07-11T08:40:55.000Z</time>
      </trkpt>
      <trkpt lat="48.70837" lon="1.74372">
        <ele>176</ele>
        <time>2015-07-11T08:40:56.000Z</time>
      </trkpt>
      <trkpt lat="48.70845" lon="1.74359">
        <ele>176</ele>
        <time>2015-07-11T08:41:05.000Z</time>
      </trkpt>
      <trkpt lat="48.70855" lon="1.74344">
        <ele>176</ele>
        <time>2015-07-11T08:41:16.000Z</time>
      </trkpt>
      <trkpt lat="48.70859" lon="1.74336">
        <ele>176</ele>
        <time>2015-07-11T08:41:22.000Z</time>
      </trkpt>
      <trkpt lat="48.70864" lon="1.74326">
        <ele>176</ele>
        <time>2015-07-11T08:41:29.000Z</time>
      </trkpt>
      <trkpt lat="48.70869" lon="1.74316">
        <ele>176</ele>
        <time>2015-07-11T08:41:37.000Z</time>
      </trkpt>
      <trkpt lat="48.70871" lon="1.74312">
        <ele>176</ele>
        <time>2015-07-11T08:41:40.000Z</time>
      </trkpt>
      <trkpt lat="48.70874" lon="1.74299">
        <ele>176.1</ele>
        <time>2015-07-11T08:41:48.000Z</time>
      </trkpt>
      <trkpt lat="48.70876" lon="1.74298">
        <ele>176.1</ele>
        <time>2015-07-11T08:41:49.000Z</time>
      </trkpt>
      <trkpt lat="48.70883" lon="1.74294">
        <ele>176.1</ele>
        <time>2015-07-11T08:41:54.000Z</time>
      </trkpt>
      <trkpt lat="48.70885" lon="1.74287">
        <ele>176.1</ele>
        <time>2015-07-11T08:42:03.000Z</time>
      </trkpt>
      <trkpt lat="48.70889" lon="1.74278">
        <ele>176</ele>
        <time>2015-07-11T08:42:10.000Z</time>
      </trkpt>
      <trkpt lat="48.70896" lon="1.74271">
        <ele>176.2</ele>
        <time>2015-07-11T08:42:16.000Z</time>
      </trkpt>
      <trkpt lat="48.70901" lon="1.74263">
        <ele>176.3</ele>
        <time>2015-07-11T08:42:22.000Z</time>
      </trkpt>
      <trkpt lat="48.70905" lon="1.74257">
        <ele>176.3</ele>
        <time>2015-07-11T08:42:26.000Z</time>
      </trkpt>
      <trkpt lat="48.70906" lon="1.74247">
        <ele>176.4</ele>
        <time>2015-07-11T08:42:32.000Z</time>
      </trkpt>
      <trkpt lat="48.70905" lon="1.74238">
        <ele>176.7</ele>
        <time>2015-07-11T08:42:38.000Z</time>
      </trkpt>
      <trkpt lat="48.70901" lon="1.74234">
        <ele>176.8</ele>
        <time>2015-07-11T08:42:44.000Z</time>
      </trkpt>
      <trkpt lat="48.70907" lon="1.74224">
        <ele>177</ele>
        <time>2015-07-11T08:44:04.000Z</time>
      </trkpt>
      <trkpt lat="48.7091" lon="1.74223">
        <ele>177</ele>
        <time>2015-07-11T08:44:06.000Z</time>
      </trkpt>
      <trkpt lat="48.70914" lon="1.74219">
        <ele>177</ele>
        <time>2015-07-11T08:44:10.000Z</time>
      </trkpt>
      <trkpt lat="48.70918" lon="1.74206">
        <ele>177</ele>
        <time>2015-07-11T08:44:17.000Z</time>
      </trkpt>
      <trkpt lat="48.70918" lon="1.74197">
        <ele>177</ele>
        <time>2015-07-11T08:44:21.000Z</time>
      </trkpt>
      <trkpt lat="48.70919" lon="1.74188">
        <ele>177</ele>
        <time>2015-07-11T08:44:25.000Z</time>
      </trkpt>
      <trkpt lat="48.7092" lon="1.74183">
        <ele>177</ele>
        <time>2015-07-11T08:44:28.000Z</time>
      </trkpt>
      <trkpt lat="48.7092" lon="1.74173">
        <ele>177</ele>
        <time>2015-07-11T08:44:32.000Z</time>
      </trkpt>
      <trkpt lat="48.70921" lon="1.74162">
        <ele>177</ele>
        <time>2015-07-11T08:44:37.000Z</time>
      </trkpt>
      <trkpt lat="48.70923" lon="1.74152">
        <ele>177</ele>
        <time>2015-07-11T08:44:41.000Z</time>
      </trkpt>
      <trkpt lat="48.70925" lon="1.74148">
        <ele>177</ele>
        <time>2015-07-11T08:44:43.000Z</time>
      </trkpt>
      <trkpt lat="48.70927" lon="1.74133">
        <ele>177</ele>
        <time>2015-07-11T08:44:49.000Z</time>
      </trkpt>
      <trkpt lat="48.70927" lon="1.74131">
        <ele>177</ele>
        <time>2015-07-11T08:44:50.000Z</time>
      </trkpt>
      <trkpt lat="48.7093" lon="1.74124">
        <ele>177</ele>
        <time>2015-07-11T08:44:55.000Z</time>
      </trkpt>
      <trkpt lat="48.7093" lon="1.74122">
        <ele>177</ele>
        <time>2015-07-11T08:44:56.000Z</time>
      </trkpt>
      <trkpt lat="48.70934" lon="1.74109">
        <ele>177</ele>
        <time>2015-07-11T08:45:02.000Z</time>
      </trkpt>
      <trkpt lat="48.70935" lon="1.74107">
        <ele>177.1</ele>
        <time>2015-07-11T08:45:03.000Z</time>
      </trkpt>
      <trkpt lat="48.70937" lon="1.74094">
        <ele>177.2</ele>
        <time>2015-07-11T08:45:09.000Z</time>
      </trkpt>
      <trkpt lat="48.7094" lon="1.74078">
        <ele>177.2</ele>
        <time>2015-07-11T08:45:17.000Z</time>
      </trkpt>
      <trkpt lat="48.70942" lon="1.74067">
        <ele>177.1</ele>
        <time>2015-07-11T08:45:23.000Z</time>
      </trkpt>
      <trkpt lat="48.70944" lon="1.74062">
        <ele>177</ele>
        <time>2015-07-11T08:45:26.000Z</time>
      </trkpt>
      <trkpt lat="48.70949" lon="1.74045">
        <ele>177.5</ele>
        <time>2015-07-11T08:45:35.000Z</time>
      </trkpt>
      <trkpt lat="48.7095" lon="1.7404">
        <ele>177.7</ele>
        <time>2015-07-11T08:45:38.000Z</time>
      </trkpt>
      <trkpt lat="48.70954" lon="1.74025">
        <ele>178</ele>
        <time>2015-07-11T08:45:45.000Z</time>
      </trkpt>
      <trkpt lat="48.70955" lon="1.74021">
        <ele>178</ele>
        <time>2015-07-11T08:45:47.000Z</time>
      </trkpt>
      <trkpt lat="48.70959" lon="1.74009">
        <ele>178</ele>
        <time>2015-07-11T08:45:53.000Z</time>
      </trkpt>
      <trkpt lat="48.70963" lon="1.73989">
        <ele>178</ele>
        <time>2015-07-11T08:46:03.000Z</time>
      </trkpt>
      <trkpt lat="48.70966" lon="1.73973">
        <ele>178</ele>
        <time>2015-07-11T08:46:10.000Z</time>
      </trkpt>
      <trkpt lat="48.70969" lon="1.73955">
        <ele>177.4</ele>
        <time>2015-07-11T08:46:18.000Z</time>
      </trkpt>
      <trkpt lat="48.70972" lon="1.7394">
        <ele>177.2</ele>
        <time>2015-07-11T08:46:25.000Z</time>
      </trkpt>
      <trkpt lat="48.70975" lon="1.73932">
        <ele>177.5</ele>
        <time>2015-07-11T08:46:29.000Z</time>
      </trkpt>
      <trkpt lat="48.70978" lon="1.73923">
        <ele>177.8</ele>
        <time>2015-07-11T08:46:33.000Z</time>
      </trkpt>
      <trkpt lat="48.70982" lon="1.7391">
        <ele>178</ele>
        <time>2015-07-11T08:46:40.000Z</time>
      </trkpt>
      <trkpt lat="48.70983" lon="1.73906">
        <ele>178</ele>
        <time>2015-07-11T08:46:44.000Z</time>
      </trkpt>
      <trkpt lat="48.70986" lon="1.7389">
        <ele>178</ele>
        <time>2015-07-11T08:48:10.000Z</time>
      </trkpt>
      <trkpt lat="48.70987" lon="1.73877">
        <ele>178</ele>
        <time>2015-07-11T08:48:15.000Z</time>
      </trkpt>
      <trkpt lat="48.70988" lon="1.73869">
        <ele>178</ele>
        <time>2015-07-11T08:48:20.000Z</time>
      </trkpt>
      <trkpt lat="48.70989" lon="1.73856">
        <ele>178</ele>
        <time>2015-07-11T08:48:25.000Z</time>
      </trkpt>
      <trkpt lat="48.7099" lon="1.73853">
        <ele>178</ele>
        <time>2015-07-11T08:48:26.000Z</time>
      </trkpt>
      <trkpt lat="48.70997" lon="1.73839">
        <ele>178</ele>
        <time>2015-07-11T08:48:33.000Z</time>
      </trkpt>
      <trkpt lat="48.71004" lon="1.73822">
        <ele>177.9</ele>
        <time>2015-07-11T08:48:43.000Z</time>
      </trkpt>
      <trkpt lat="48.7101" lon="1.73807">
        <ele>178</ele>
        <time>2015-07-11T08:48:50.000Z</time>
      </trkpt>
      <trkpt lat="48.71015" lon="1.73801">
        <ele>178</ele>
        <time>2015-07-11T08:48:55.000Z</time>
      </trkpt>
      <trkpt lat="48.71022" lon="1.73791">
        <ele>178</ele>
        <time>2015-07-11T08:49:01.000Z</time>
      </trkpt>
      <trkpt lat="48.71023" lon="1.73789">
        <ele>178</ele>
        <time>2015-07-11T08:49:02.000Z</time>
      </trkpt>
      <trkpt lat="48.71028" lon="1.73781">
        <ele>178</ele>
        <time>2015-07-11T08:49:06.000Z</time>
      </trkpt>
      <trkpt lat="48.71037" lon="1.73771">
        <ele>177.7</ele>
        <time>2015-07-11T08:49:13.000Z</time>
      </trkpt>
      <trkpt lat="48.71044" lon="1.73762">
        <ele>177.4</ele>
        <time>2015-07-11T08:49:19.000Z</time>
      </trkpt>
      <trkpt lat="48.7105" lon="1.73751">
        <ele>177.2</ele>
        <time>2015-07-11T08:49:26.000Z</time>
      </trkpt>
      <trkpt lat="48.71058" lon="1.73742">
        <ele>177.3</ele>
        <time>2015-07-11T08:49:35.000Z</time>
      </trkpt>
      <trkpt lat="48.71059" lon="1.73741">
        <ele>177.3</ele>
        <time>2015-07-11T08:49:36.000Z</time>
      </trkpt>
      <trkpt lat="48.71072" lon="1.73731">
        <ele>177.3</ele>
        <time>2015-07-11T08:49:45.000Z</time>
      </trkpt>
      <trkpt lat="48.71077" lon="1.73726">
        <ele>177.2</ele>
        <time>2015-07-11T08:49:50.000Z</time>
      </trkpt>
      <trkpt lat="48.71085" lon="1.73718">
        <ele>177.1</ele>
        <time>2015-07-11T08:49:57.000Z</time>
      </trkpt>
      <trkpt lat="48.71091" lon="1.73714">
        <ele>177.3</ele>
        <time>2015-07-11T08:50:01.000Z</time>
      </trkpt>
      <trkpt lat="48.71093" lon="1.73712">
        <ele>177.4</ele>
        <time>2015-07-11T08:50:03.000Z</time>
      </trkpt>
      <trkpt lat="48.71102" lon="1.73705">
        <ele>177.6</ele>
        <time>2015-07-11T08:50:10.000Z</time>
      </trkpt>
      <trkpt lat="48.71113" lon="1.73694">
        <ele>178</ele>
        <time>2015-07-11T08:50:18.000Z</time>
      </trkpt>
      <trkpt lat="48.71117" lon="1.73689">
        <ele>178</ele>
        <time>2015-07-11T08:50:22.000Z</time>
      </trkpt>
      <trkpt lat="48.71124" lon="1.73682">
        <ele>178</ele>
        <time>2015-07-11T08:50:28.000Z</time>
      </trkpt>
      <trkpt lat="48.71129" lon="1.73676">
        <ele>178</ele>
        <time>2015-07-11T08:50:33.000Z</time>
      </trkpt>
      <trkpt lat="48.71134" lon="1.73671">
        <ele>178</ele>
        <time>2015-07-11T08:50:38.000Z</time>
      </trkpt>
      <trkpt lat="48.7114" lon="1.73665">
        <ele>178</ele>
        <time>2015-07-11T08:50:43.000Z</time>
      </trkpt>
      <trkpt lat="48.71144" lon="1.73659">
        <ele>178</ele>
        <time>2015-07-11T08:50:48.000Z</time>
      </trkpt>
      <trkpt lat="48.71154" lon="1.73653">
        <ele>178</ele>
        <time>2015-07-11T08:50:55.000Z</time>
      </trkpt>
      <trkpt lat="48.7116" lon="1.73649">
        <ele>178</ele>
        <time>2015-07-11T08:51:00.000Z</time>
      </trkpt>
      <trkpt lat="48.71165" lon="1.73644">
        <ele>178</ele>
        <time>2015-07-11T08:51:05.000Z</time>
      </trkpt>
      <trkpt lat="48.71171" lon="1.73631">
        <ele>178</ele>
        <time>2015-07-11T08:51:11.000Z</time>
      </trkpt>
      <trkpt lat="48.71178" lon="1.73623">
        <ele>178</ele>
        <time>2015-07-11T08:51:17.000Z</time>
      </trkpt>
      <trkpt lat="48.71183" lon="1.73617">
        <ele>178</ele>
        <time>2015-07-11T08:51:22.000Z</time>
      </trkpt>
      <trkpt lat="48.71185" lon="1.73613">
        <ele>178</ele>
        <time>2015-07-11T08:51:25.000Z</time>
      </trkpt>
      <trkpt lat="48.7119" lon="1.73604">
        <ele>178</ele>
        <time>2015-07-11T08:51:30.000Z</time>
      </trkpt>
      <trkpt lat="48.71195" lon="1.73599">
        <ele>178</ele>
        <time>2015-07-11T08:51:34.000Z</time>
      </trkpt>
      <trkpt lat="48.71205" lon="1.73599">
        <ele>178</ele>
        <time>2015-07-11T08:51:39.000Z</time>
      </trkpt>
      <trkpt lat="48.71213" lon="1.73608">
        <ele>178</ele>
        <time>2015-07-11T08:51:45.000Z</time>
      </trkpt>
      <trkpt lat="48.71221" lon="1.7361">
        <ele>178</ele>
        <time>2015-07-11T08:51:50.000Z</time>
      </trkpt>
      <trkpt lat="48.71224" lon="1.73611">
        <ele>177.9</ele>
        <time>2015-07-11T08:51:54.000Z</time>
      </trkpt>
      <trkpt lat="48.71231" lon="1.73612">
        <ele>177.7</ele>
        <time>2015-07-11T08:51:58.000Z</time>
      </trkpt>
      <trkpt lat="48.71237" lon="1.73611">
        <ele>177.5</ele>
        <time>2015-07-11T08:52:02.000Z</time>
      </trkpt>
      <trkpt lat="48.71246" lon="1.73606">
        <ele>177.1</ele>
        <time>2015-07-11T08:52:07.000Z</time>
      </trkpt>
      <trkpt lat="48.71251" lon="1.73605">
        <ele>177</ele>
        <time>2015-07-11T08:52:10.000Z</time>
      </trkpt>
      <trkpt lat="48.71258" lon="1.73603">
        <ele>176.5</ele>
        <time>2015-07-11T08:52:15.000Z</time>
      </trkpt>
      <trkpt lat="48.71268" lon="1.73598">
        <ele>176</ele>
        <time>2015-07-11T08:52:23.000Z</time>
      </trkpt>
      <trkpt lat="48.71273" lon="1.73595">
        <ele>175.8</ele>
        <time>2015-07-11T08:52:29.000Z</time>
      </trkpt>
      <trkpt lat="48.71274" lon="1.73594">
        <ele>175.8</ele>
        <time>2015-07-11T08:52:30.000Z</time>
      </trkpt>
      <trkpt lat="48.71283" lon="1.73584">
        <ele>174.8</ele>
        <time>2015-07-11T08:52:38.000Z</time>
      </trkpt>
      <trkpt lat="48.7129" lon="1.73577">
        <ele>173.5</ele>
        <time>2015-07-11T08:52:43.000Z</time>
      </trkpt>
      <trkpt lat="48.71293" lon="1.73576">
        <ele>172.9</ele>
        <time>2015-07-11T08:52:45.000Z</time>
      </trkpt>
      <trkpt lat="48.71299" lon="1.73571">
        <ele>172</ele>
        <time>2015-07-11T08:52:50.000Z</time>
      </trkpt>
      <trkpt lat="48.71303" lon="1.73564">
        <ele>171.8</ele>
        <time>2015-07-11T08:52:55.000Z</time>
      </trkpt>
      <trkpt lat="48.71304" lon="1.73561">
        <ele>171.9</ele>
        <time>2015-07-11T08:52:57.000Z</time>
      </trkpt>
      <trkpt lat="48.71307" lon="1.7355">
        <ele>171.8</ele>
        <time>2015-07-11T08:53:02.000Z</time>
      </trkpt>
      <trkpt lat="48.71312" lon="1.73539">
        <ele>171.3</ele>
        <time>2015-07-11T08:53:09.000Z</time>
      </trkpt>
      <trkpt lat="48.7132" lon="1.73532">
        <ele>170.1</ele>
        <time>2015-07-11T08:53:19.000Z</time>
      </trkpt>
      <trkpt lat="48.7132" lon="1.7353">
        <ele>170.4</ele>
        <time>2015-07-11T08:53:20.000Z</time>
      </trkpt>
      <trkpt lat="48.71329" lon="1.73524">
        <ele>169.6</ele>
        <time>2015-07-11T08:53:25.000Z</time>
      </trkpt>
      <trkpt lat="48.71337" lon="1.73521">
        <ele>169.8</ele>
        <time>2015-07-11T08:53:31.000Z</time>
      </trkpt>
      <trkpt lat="48.71343" lon="1.73517">
        <ele>171.1</ele>
        <time>2015-07-11T08:53:37.000Z</time>
      </trkpt>
      <trkpt lat="48.71346" lon="1.73521">
        <ele>170.7</ele>
        <time>2015-07-11T08:53:41.000Z</time>
      </trkpt>
      <trkpt lat="48.71351" lon="1.73531">
        <ele>169.3</ele>
        <time>2015-07-11T08:53:49.000Z</time>
      </trkpt>
      <trkpt lat="48.71358" lon="1.73544">
        <ele>167.1</ele>
        <time>2015-07-11T08:53:55.000Z</time>
      </trkpt>
      <trkpt lat="48.71362" lon="1.73547">
        <ele>166.7</ele>
        <time>2015-07-11T08:53:59.000Z</time>
      </trkpt>
      <trkpt lat="48.71366" lon="1.73554">
        <ele>165.4</ele>
        <time>2015-07-11T08:54:05.000Z</time>
      </trkpt>
      <trkpt lat="48.71375" lon="1.73562">
        <ele>164.2</ele>
        <time>2015-07-11T08:54:12.000Z</time>
      </trkpt>
      <trkpt lat="48.71377" lon="1.73564">
        <ele>164</ele>
        <time>2015-07-11T08:54:13.000Z</time>
      </trkpt>
      <trkpt lat="48.71386" lon="1.73568">
        <ele>163.9</ele>
        <time>2015-07-11T08:54:20.000Z</time>
      </trkpt>
      <trkpt lat="48.71392" lon="1.73573">
        <ele>163.5</ele>
        <time>2015-07-11T08:54:24.000Z</time>
      </trkpt>
      <trkpt lat="48.71402" lon="1.73572">
        <ele>162.7</ele>
        <time>2015-07-11T08:54:31.000Z</time>
      </trkpt>
      <trkpt lat="48.71407" lon="1.73573">
        <ele>162.2</ele>
        <time>2015-07-11T08:54:35.000Z</time>
      </trkpt>
      <trkpt lat="48.71423" lon="1.73567">
        <ele>160.7</ele>
        <time>2015-07-11T08:54:46.000Z</time>
      </trkpt>
      <trkpt lat="48.71432" lon="1.73563">
        <ele>159.3</ele>
        <time>2015-07-11T08:54:52.000Z</time>
      </trkpt>
      <trkpt lat="48.7144" lon="1.73566">
        <ele>158.1</ele>
        <time>2015-07-11T08:54:59.000Z</time>
      </trkpt>
      <trkpt lat="48.71446" lon="1.73562">
        <ele>156.9</ele>
        <time>2015-07-11T08:55:03.000Z</time>
      </trkpt>
      <trkpt lat="48.7145" lon="1.73562">
        <ele>156.4</ele>
        <time>2015-07-11T08:55:07.000Z</time>
      </trkpt>
      <trkpt lat="48.71458" lon="1.73559">
        <ele>155.1</ele>
        <time>2015-07-11T08:55:12.000Z</time>
      </trkpt>
      <trkpt lat="48.71465" lon="1.73555">
        <ele>154</ele>
        <time>2015-07-11T08:55:19.000Z</time>
      </trkpt>
      <trkpt lat="48.71475" lon="1.7355">
        <ele>152.5</ele>
        <time>2015-07-11T08:55:25.000Z</time>
      </trkpt>
      <trkpt lat="48.71484" lon="1.73549">
        <ele>151.4</ele>
        <time>2015-07-11T08:55:33.000Z</time>
      </trkpt>
      <trkpt lat="48.7149" lon="1.73549">
        <ele>150.9</ele>
        <time>2015-07-11T08:55:38.000Z</time>
      </trkpt>
      <trkpt lat="48.71495" lon="1.73548">
        <ele>150.3</ele>
        <time>2015-07-11T08:55:42.000Z</time>
      </trkpt>
      <trkpt lat="48.71498" lon="1.73549">
        <ele>150</ele>
        <time>2015-07-11T08:55:45.000Z</time>
      </trkpt>
      <trkpt lat="48.715" lon="1.73547">
        <ele>149.7</ele>
        <time>2015-07-11T08:55:51.000Z</time>
      </trkpt>
      <trkpt lat="48.7151" lon="1.73542">
        <ele>148.9</ele>
        <time>2015-07-11T08:55:59.000Z</time>
      </trkpt>
      <trkpt lat="48.71515" lon="1.7354">
        <ele>148.7</ele>
        <time>2015-07-11T08:56:04.000Z</time>
      </trkpt>
      <trkpt lat="48.71525" lon="1.7354">
        <ele>148.3</ele>
        <time>2015-07-11T08:56:11.000Z</time>
      </trkpt>
      <trkpt lat="48.71533" lon="1.73541">
        <ele>147.8</ele>
        <time>2015-07-11T08:56:17.000Z</time>
      </trkpt>
      <trkpt lat="48.71541" lon="1.73538">
        <ele>147.6</ele>
        <time>2015-07-11T08:56:24.000Z</time>
      </trkpt>
      <trkpt lat="48.71549" lon="1.73537">
        <ele>147.3</ele>
        <time>2015-07-11T08:56:32.000Z</time>
      </trkpt>
      <trkpt lat="48.71561" lon="1.73534">
        <ele>146.6</ele>
        <time>2015-07-11T08:56:40.000Z</time>
      </trkpt>
      <trkpt lat="48.71564" lon="1.73533">
        <ele>146.3</ele>
        <time>2015-07-11T08:56:42.000Z</time>
      </trkpt>
      <trkpt lat="48.71572" lon="1.73532">
        <ele>145.3</ele>
        <time>2015-07-11T08:56:48.000Z</time>
      </trkpt>
      <trkpt lat="48.71579" lon="1.73526">
        <ele>144.6</ele>
        <time>2015-07-11T08:56:53.000Z</time>
      </trkpt>
      <trkpt lat="48.71585" lon="1.73525">
        <ele>143.9</ele>
        <time>2015-07-11T08:56:58.000Z</time>
      </trkpt>
      <trkpt lat="48.71589" lon="1.73527">
        <ele>143.6</ele>
        <time>2015-07-11T08:57:02.000Z</time>
      </trkpt>
      <trkpt lat="48.71598" lon="1.73528">
        <ele>143</ele>
        <time>2015-07-11T08:57:07.000Z</time>
      </trkpt>
      <trkpt lat="48.71604" lon="1.73525">
        <ele>142.6</ele>
        <time>2015-07-11T08:57:12.000Z</time>
      </trkpt>
      <trkpt lat="48.71611" lon="1.73526">
        <ele>142.1</ele>
        <time>2015-07-11T08:57:17.000Z</time>
      </trkpt>
      <trkpt lat="48.71616" lon="1.73526">
        <ele>141.9</ele>
        <time>2015-07-11T08:57:20.000Z</time>
      </trkpt>
      <trkpt lat="48.71623" lon="1.73524">
        <ele>141.7</ele>
        <time>2015-07-11T08:57:26.000Z</time>
      </trkpt>
      <trkpt lat="48.71632" lon="1.73517">
        <ele>141.6</ele>
        <time>2015-07-11T08:57:33.000Z</time>
      </trkpt>
      <trkpt lat="48.7164" lon="1.73514">
        <ele>141.4</ele>
        <time>2015-07-11T08:57:40.000Z</time>
      </trkpt>
      <trkpt lat="48.71647" lon="1.73514">
        <ele>141.1</ele>
        <time>2015-07-11T08:57:46.000Z</time>
      </trkpt>
      <trkpt lat="48.71654" lon="1.73512">
        <ele>140.7</ele>
        <time>2015-07-11T08:57:51.000Z</time>
      </trkpt>
      <trkpt lat="48.71658" lon="1.73513">
        <ele>140.5</ele>
        <time>2015-07-11T08:57:54.000Z</time>
      </trkpt>
      <trkpt lat="48.71666" lon="1.7351">
        <ele>140</ele>
        <time>2015-07-11T08:58:00.000Z</time>
      </trkpt>
      <trkpt lat="48.71677" lon="1.73506">
        <ele>139.3</ele>
        <time>2015-07-11T08:58:09.000Z</time>
      </trkpt>
      <trkpt lat="48.71685" lon="1.73506">
        <ele>138.7</ele>
        <time>2015-07-11T08:58:16.000Z</time>
      </trkpt>
      <trkpt lat="48.71693" lon="1.73504">
        <ele>138.1</ele>
        <time>2015-07-11T08:58:21.000Z</time>
      </trkpt>
      <trkpt lat="48.71698" lon="1.73504">
        <ele>137.6</ele>
        <time>2015-07-11T08:58:25.000Z</time>
      </trkpt>
      <trkpt lat="48.71702" lon="1.73504">
        <ele>137.3</ele>
        <time>2015-07-11T08:58:28.000Z</time>
      </trkpt>
      <trkpt lat="48.71707" lon="1.73502">
        <ele>136.7</ele>
        <time>2015-07-11T08:58:33.000Z</time>
      </trkpt>
      <trkpt lat="48.71716" lon="1.73498">
        <ele>135.7</ele>
        <time>2015-07-11T08:58:38.000Z</time>
      </trkpt>
      <trkpt lat="48.71729" lon="1.73498">
        <ele>134.6</ele>
        <time>2015-07-11T08:58:46.000Z</time>
      </trkpt>
      <trkpt lat="48.71734" lon="1.73498">
        <ele>134.2</ele>
        <time>2015-07-11T08:58:51.000Z</time>
      </trkpt>
      <trkpt lat="48.71739" lon="1.73494">
        <ele>134</ele>
        <time>2015-07-11T08:58:56.000Z</time>
      </trkpt>
      <trkpt lat="48.71745" lon="1.73489">
        <ele>133.7</ele>
        <time>2015-07-11T08:59:01.000Z</time>
      </trkpt>
      <trkpt lat="48.71751" lon="1.73484">
        <ele>133.5</ele>
        <time>2015-07-11T08:59:05.000Z</time>
      </trkpt>
      <trkpt lat="48.71756" lon="1.73478">
        <ele>133.4</ele>
        <time>2015-07-11T08:59:10.000Z</time>
      </trkpt>
      <trkpt lat="48.71751" lon="1.73466">
        <ele>133.9</ele>
        <time>2015-07-11T08:59:16.000Z</time>
      </trkpt>
      <trkpt lat="48.71746" lon="1.73454">
        <ele>134.3</ele>
        <time>2015-07-11T08:59:22.000Z</time>
      </trkpt>
      <trkpt lat="48.7174" lon="1.73442">
        <ele>134.6</ele>
        <time>2015-07-11T08:59:28.000Z</time>
      </trkpt>
      <trkpt lat="48.71737" lon="1.73426">
        <ele>134.3</ele>
        <time>2015-07-11T08:59:36.000Z</time>
      </trkpt>
      <trkpt lat="48.71737" lon="1.73418">
        <ele>134</ele>
        <time>2015-07-11T08:59:41.000Z</time>
      </trkpt>
      <trkpt lat="48.71737" lon="1.7341">
        <ele>133.7</ele>
        <time>2015-07-11T08:59:47.000Z</time>
      </trkpt>
      <trkpt lat="48.71733" lon="1.73395">
        <ele>133.4</ele>
        <time>2015-07-11T08:59:54.000Z</time>
      </trkpt>
      <trkpt lat="48.71733" lon="1.73393">
        <ele>133.4</ele>
        <time>2015-07-11T08:59:55.000Z</time>
      </trkpt>
      <trkpt lat="48.71729" lon="1.73381">
        <ele>133.5</ele>
        <time>2015-07-11T09:00:01.000Z</time>
      </trkpt>
      <trkpt lat="48.71722" lon="1.73364">
        <ele>134</ele>
        <time>2015-07-11T09:00:07.000Z</time>
      </trkpt>
      <trkpt lat="48.71722" lon="1.73363">
        <ele>134</ele>
        <time>2015-07-11T09:00:08.000Z</time>
      </trkpt>
      <trkpt lat="48.71716" lon="1.73353">
        <ele>133.9</ele>
        <time>2015-07-11T09:00:13.000Z</time>
      </trkpt>
      <trkpt lat="48.7171" lon="1.73339">
        <ele>133.6</ele>
        <time>2015-07-11T09:00:20.000Z</time>
      </trkpt>
      <trkpt lat="48.71708" lon="1.73325">
        <ele>133.5</ele>
        <time>2015-07-11T09:00:27.000Z</time>
      </trkpt>
      <trkpt lat="48.71707" lon="1.73323">
        <ele>133.5</ele>
        <time>2015-07-11T09:00:28.000Z</time>
      </trkpt>
      <trkpt lat="48.71706" lon="1.73318">
        <ele>133.6</ele>
        <time>2015-07-11T09:00:31.000Z</time>
      </trkpt>
      <trkpt lat="48.71703" lon="1.73313">
        <ele>133.7</ele>
        <time>2015-07-11T09:00:35.000Z</time>
      </trkpt>
      <trkpt lat="48.71706" lon="1.73295">
        <ele>133.4</ele>
        <time>2015-07-11T09:00:45.000Z</time>
      </trkpt>
      <trkpt lat="48.71706" lon="1.73283">
        <ele>133.3</ele>
        <time>2015-07-11T09:00:51.000Z</time>
      </trkpt>
      <trkpt lat="48.71706" lon="1.73281">
        <ele>133.2</ele>
        <time>2015-07-11T09:00:52.000Z</time>
      </trkpt>
      <trkpt lat="48.71707" lon="1.73267">
        <ele>133.1</ele>
        <time>2015-07-11T09:01:00.000Z</time>
      </trkpt>
      <trkpt lat="48.71707" lon="1.73265">
        <ele>133.1</ele>
        <time>2015-07-11T09:01:01.000Z</time>
      </trkpt>
      <trkpt lat="48.71706" lon="1.73247">
        <ele>133.2</ele>
        <time>2015-07-11T09:01:10.000Z</time>
      </trkpt>
      <trkpt lat="48.71704" lon="1.73229">
        <ele>133.3</ele>
        <time>2015-07-11T09:01:19.000Z</time>
      </trkpt>
      <trkpt lat="48.71701" lon="1.73224">
        <ele>133.5</ele>
        <time>2015-07-11T09:01:22.000Z</time>
      </trkpt>
      <trkpt lat="48.71697" lon="1.73216">
        <ele>133.6</ele>
        <time>2015-07-11T09:01:26.000Z</time>
      </trkpt>
      <trkpt lat="48.71696" lon="1.73195">
        <ele>133</ele>
        <time>2015-07-11T09:01:36.000Z</time>
      </trkpt>
      <trkpt lat="48.71694" lon="1.7318">
        <ele>133.5</ele>
        <time>2015-07-11T09:01:44.000Z</time>
      </trkpt>
      <trkpt lat="48.71693" lon="1.73166">
        <ele>134</ele>
        <time>2015-07-11T09:01:51.000Z</time>
      </trkpt>
      <trkpt lat="48.7169" lon="1.73146">
        <ele>134.1</ele>
        <time>2015-07-11T09:02:00.000Z</time>
      </trkpt>
      <trkpt lat="48.71687" lon="1.73128">
        <ele>133.9</ele>
        <time>2015-07-11T09:02:09.000Z</time>
      </trkpt>
      <trkpt lat="48.71684" lon="1.73109">
        <ele>133.4</ele>
        <time>2015-07-11T09:02:18.000Z</time>
      </trkpt>
      <trkpt lat="48.71683" lon="1.73103">
        <ele>133.4</ele>
        <time>2015-07-11T09:02:21.000Z</time>
      </trkpt>
      <trkpt lat="48.71681" lon="1.73092">
        <ele>133.5</ele>
        <time>2015-07-11T09:02:27.000Z</time>
      </trkpt>
      <trkpt lat="48.71681" lon="1.7309">
        <ele>133.5</ele>
        <time>2015-07-11T09:02:28.000Z</time>
      </trkpt>
      <trkpt lat="48.71679" lon="1.73079">
        <ele>133.4</ele>
        <time>2015-07-11T09:02:35.000Z</time>
      </trkpt>
      <trkpt lat="48.71679" lon="1.73071">
        <ele>133.3</ele>
        <time>2015-07-11T09:02:40.000Z</time>
      </trkpt>
      <trkpt lat="48.71677" lon="1.73056">
        <ele>133</ele>
        <time>2015-07-11T09:02:46.000Z</time>
      </trkpt>
      <trkpt lat="48.71675" lon="1.73053">
        <ele>133</ele>
        <time>2015-07-11T09:02:47.000Z</time>
      </trkpt>
      <trkpt lat="48.71672" lon="1.7304">
        <ele>133</ele>
        <time>2015-07-11T09:02:52.000Z</time>
      </trkpt>
      <trkpt lat="48.71669" lon="1.73017">
        <ele>133</ele>
        <time>2015-07-11T09:03:01.000Z</time>
      </trkpt>
      <trkpt lat="48.71668" lon="1.73003">
        <ele>133</ele>
        <time>2015-07-11T09:03:07.000Z</time>
      </trkpt>
      <trkpt lat="48.71667" lon="1.72995">
        <ele>133</ele>
        <time>2015-07-11T09:03:10.000Z</time>
      </trkpt>
      <trkpt lat="48.71667" lon="1.72986">
        <ele>133</ele>
        <time>2015-07-11T09:03:14.000Z</time>
      </trkpt>
      <trkpt lat="48.71659" lon="1.72975">
        <ele>133.5</ele>
        <time>2015-07-11T09:03:21.000Z</time>
      </trkpt>
      <trkpt lat="48.71656" lon="1.72966">
        <ele>133.8</ele>
        <time>2015-07-11T09:03:26.000Z</time>
      </trkpt>
      <trkpt lat="48.71655" lon="1.72965">
        <ele>133.8</ele>
        <time>2015-07-11T09:03:27.000Z</time>
      </trkpt>
      <trkpt lat="48.71653" lon="1.72957">
        <ele>134</ele>
        <time>2015-07-11T09:03:32.000Z</time>
      </trkpt>
      <trkpt lat="48.71652" lon="1.72946">
        <ele>134.1</ele>
        <time>2015-07-11T09:03:40.000Z</time>
      </trkpt>
      <trkpt lat="48.71649" lon="1.72941">
        <ele>134.2</ele>
        <time>2015-07-11T09:03:45.000Z</time>
      </trkpt>
      <trkpt lat="48.71643" lon="1.72925">
        <ele>134.1</ele>
        <time>2015-07-11T09:03:53.000Z</time>
      </trkpt>
      <trkpt lat="48.71633" lon="1.72898">
        <ele>134.8</ele>
        <time>2015-07-11T09:04:00.000Z</time>
      </trkpt>
      <trkpt lat="48.71624" lon="1.72878">
        <ele>135.4</ele>
        <time>2015-07-11T09:04:05.000Z</time>
      </trkpt>
      <trkpt lat="48.71609" lon="1.72856">
        <ele>136.1</ele>
        <time>2015-07-11T09:04:11.000Z</time>
      </trkpt>
      <trkpt lat="48.71598" lon="1.72837">
        <ele>136.5</ele>
        <time>2015-07-11T09:04:16.000Z</time>
      </trkpt>
      <trkpt lat="48.71584" lon="1.72811">
        <ele>137</ele>
        <time>2015-07-11T09:04:22.000Z</time>
      </trkpt>
      <trkpt lat="48.71577" lon="1.72794">
        <ele>137.6</ele>
        <time>2015-07-11T09:04:27.000Z</time>
      </trkpt>
      <trkpt lat="48.71569" lon="1.72773">
        <ele>138.6</ele>
        <time>2015-07-11T09:04:33.000Z</time>
      </trkpt>
      <trkpt lat="48.71561" lon="1.7275">
        <ele>139</ele>
        <time>2015-07-11T09:04:39.000Z</time>
      </trkpt>
      <trkpt lat="48.71551" lon="1.72726">
        <ele>137.4</ele>
        <time>2015-07-11T09:04:45.000Z</time>
      </trkpt>
      <trkpt lat="48.71539" lon="1.72701">
        <ele>136.7</ele>
        <time>2015-07-11T09:04:51.000Z</time>
      </trkpt>
      <trkpt lat="48.71528" lon="1.7267">
        <ele>135.1</ele>
        <time>2015-07-11T09:04:58.000Z</time>
      </trkpt>
      <trkpt lat="48.71521" lon="1.72648">
        <ele>135.3</ele>
        <time>2015-07-11T09:05:03.000Z</time>
      </trkpt>
      <trkpt lat="48.71507" lon="1.72619">
        <ele>135.5</ele>
        <time>2015-07-11T09:05:10.000Z</time>
      </trkpt>
      <trkpt lat="48.71506" lon="1.72596">
        <ele>135.6</ele>
        <time>2015-07-11T09:05:15.000Z</time>
      </trkpt>
      <trkpt lat="48.71503" lon="1.72568">
        <ele>135.8</ele>
        <time>2015-07-11T09:05:21.000Z</time>
      </trkpt>
      <trkpt lat="48.71498" lon="1.72535">
        <ele>135.4</ele>
        <time>2015-07-11T09:05:28.000Z</time>
      </trkpt>
      <trkpt lat="48.71495" lon="1.72503">
        <ele>135.3</ele>
        <time>2015-07-11T09:05:35.000Z</time>
      </trkpt>
      <trkpt lat="48.71491" lon="1.72474">
        <ele>135.7</ele>
        <time>2015-07-11T09:05:41.000Z</time>
      </trkpt>
      <trkpt lat="48.71489" lon="1.72444">
        <ele>137</ele>
        <time>2015-07-11T09:05:47.000Z</time>
      </trkpt>
      <trkpt lat="48.71489" lon="1.72424">
        <ele>137</ele>
        <time>2015-07-11T09:05:52.000Z</time>
      </trkpt>
      <trkpt lat="48.71487" lon="1.72388">
        <ele>136</ele>
        <time>2015-07-11T09:05:59.000Z</time>
      </trkpt>
      <trkpt lat="48.71487" lon="1.72358">
        <ele>135.4</ele>
        <time>2015-07-11T09:06:05.000Z</time>
      </trkpt>
      <trkpt lat="48.7149" lon="1.72332">
        <ele>134.7</ele>
        <time>2015-07-11T09:06:11.000Z</time>
      </trkpt>
      <trkpt lat="48.71488" lon="1.72302">
        <ele>134.8</ele>
        <time>2015-07-11T09:06:17.000Z</time>
      </trkpt>
      <trkpt lat="48.71484" lon="1.72261">
        <ele>135.2</ele>
        <time>2015-07-11T09:06:25.000Z</time>
      </trkpt>
      <trkpt lat="48.71477" lon="1.72234">
        <ele>135.5</ele>
        <time>2015-07-11T09:06:31.000Z</time>
      </trkpt>
      <trkpt lat="48.7147" lon="1.72214">
        <ele>135.8</ele>
        <time>2015-07-11T09:06:36.000Z</time>
      </trkpt>
      <trkpt lat="48.7146" lon="1.72193">
        <ele>135.4</ele>
        <time>2015-07-11T09:06:41.000Z</time>
      </trkpt>
      <trkpt lat="48.71449" lon="1.72178">
        <ele>135.2</ele>
        <time>2015-07-11T09:06:46.000Z</time>
      </trkpt>
      <trkpt lat="48.71438" lon="1.72162">
        <ele>135.6</ele>
        <time>2015-07-11T09:06:51.000Z</time>
      </trkpt>
      <trkpt lat="48.71431" lon="1.72144">
        <ele>136.1</ele>
        <time>2015-07-11T09:06:55.000Z</time>
      </trkpt>
      <trkpt lat="48.7143" lon="1.72125">
        <ele>135.5</ele>
        <time>2015-07-11T09:06:59.000Z</time>
      </trkpt>
      <trkpt lat="48.71424" lon="1.72096">
        <ele>134.9</ele>
        <time>2015-07-11T09:07:05.000Z</time>
      </trkpt>
      <trkpt lat="48.71416" lon="1.72081">
        <ele>135.1</ele>
        <time>2015-07-11T09:07:10.000Z</time>
      </trkpt>
      <trkpt lat="48.71415" lon="1.72067">
        <ele>135.1</ele>
        <time>2015-07-11T09:07:15.000Z</time>
      </trkpt>
      <trkpt lat="48.71406" lon="1.72053">
        <ele>135.4</ele>
        <time>2015-07-11T09:07:19.000Z</time>
      </trkpt>
      <trkpt lat="48.71388" lon="1.72026">
        <ele>137</ele>
        <time>2015-07-11T09:07:26.000Z</time>
      </trkpt>
      <trkpt lat="48.71376" lon="1.72011">
        <ele>137.5</ele>
        <time>2015-07-11T09:07:31.000Z</time>
      </trkpt>
      <trkpt lat="48.71361" lon="1.72">
        <ele>138</ele>
        <time>2015-07-11T09:07:36.000Z</time>
      </trkpt>
      <trkpt lat="48.71344" lon="1.71982">
        <ele>140.2</ele>
        <time>2015-07-11T09:07:42.000Z</time>
      </trkpt>
      <trkpt lat="48.71327" lon="1.71964">
        <ele>142.4</ele>
        <time>2015-07-11T09:07:48.000Z</time>
      </trkpt>
      <trkpt lat="48.71315" lon="1.71951">
        <ele>143.9</ele>
        <time>2015-07-11T09:07:52.000Z</time>
      </trkpt>
      <trkpt lat="48.71308" lon="1.71926">
        <ele>145.5</ele>
        <time>2015-07-11T09:07:57.000Z</time>
      </trkpt>
      <trkpt lat="48.71308" lon="1.71893">
        <ele>147.8</ele>
        <time>2015-07-11T09:08:03.000Z</time>
      </trkpt>
      <trkpt lat="48.71309" lon="1.71872">
        <ele>147.9</ele>
        <time>2015-07-11T09:08:07.000Z</time>
      </trkpt>
      <trkpt lat="48.71321" lon="1.71842">
        <ele>147.7</ele>
        <time>2015-07-11T09:08:13.000Z</time>
      </trkpt>
      <trkpt lat="48.71325" lon="1.71822">
        <ele>147.3</ele>
        <time>2015-07-11T09:08:17.000Z</time>
      </trkpt>
      <trkpt lat="48.71323" lon="1.71782">
        <ele>146.8</ele>
        <time>2015-07-11T09:08:25.000Z</time>
      </trkpt>
      <trkpt lat="48.71319" lon="1.71748">
        <ele>146</ele>
        <time>2015-07-11T09:08:32.000Z</time>
      </trkpt>
      <trkpt lat="48.71318" lon="1.71708">
        <ele>145.6</ele>
        <time>2015-07-11T09:08:40.000Z</time>
      </trkpt>
      <trkpt lat="48.71318" lon="1.71667">
        <ele>143.6</ele>
        <time>2015-07-11T09:08:48.000Z</time>
      </trkpt>
      <trkpt lat="48.71318" lon="1.71638">
        <ele>143</ele>
        <time>2015-07-11T09:08:54.000Z</time>
      </trkpt>
      <trkpt lat="48.71317" lon="1.7162">
        <ele>142.3</ele>
        <time>2015-07-11T09:08:59.000Z</time>
      </trkpt>
      <trkpt lat="48.71317" lon="1.71609">
        <ele>142</ele>
        <time>2015-07-11T09:09:04.000Z</time>
      </trkpt>
      <trkpt lat="48.71319" lon="1.71612">
        <ele>142</ele>
        <time>2015-07-11T09:09:09.000Z</time>
      </trkpt>
      <trkpt lat="48.71319" lon="1.71615">
        <ele>142.1</ele>
        <time>2015-07-11T09:09:10.000Z</time>
      </trkpt>
      <trkpt lat="48.71319" lon="1.71624">
        <ele>142.5</ele>
        <time>2015-07-11T09:09:15.000Z</time>
      </trkpt>
      <trkpt lat="48.71316" lon="1.71625">
        <ele>142.5</ele>
        <time>2015-07-11T09:09:21.000Z</time>
      </trkpt>
      <trkpt lat="48.71316" lon="1.71625">
        <ele>142.5</ele>
        <time>2015-07-11T09:09:22.000Z</time>
      </trkpt>
      <trkpt lat="48.71317" lon="1.71609">
        <ele>142</ele>
        <time>2015-07-11T09:09:40.000Z</time>
      </trkpt>
      <trkpt lat="48.71318" lon="1.71594">
        <ele>141.7</ele>
        <time>2015-07-11T09:09:46.000Z</time>
      </trkpt>
      <trkpt lat="48.71319" lon="1.71581">
        <ele>141.4</ele>
        <time>2015-07-11T09:09:52.000Z</time>
      </trkpt>
      <trkpt lat="48.71318" lon="1.7157">
        <ele>141.1</ele>
        <time>2015-07-11T09:09:57.000Z</time>
      </trkpt>
      <trkpt lat="48.71315" lon="1.71545">
        <ele>140.5</ele>
        <time>2015-07-11T09:10:06.000Z</time>
      </trkpt>
      <trkpt lat="48.71314" lon="1.71517">
        <ele>140.4</ele>
        <time>2015-07-11T09:10:12.000Z</time>
      </trkpt>
      <trkpt lat="48.71314" lon="1.71485">
        <ele>139.9</ele>
        <time>2015-07-11T09:10:18.000Z</time>
      </trkpt>
      <trkpt lat="48.71307" lon="1.71455">
        <ele>139.3</ele>
        <time>2015-07-11T09:10:24.000Z</time>
      </trkpt>
      <trkpt lat="48.71299" lon="1.71426">
        <ele>140</ele>
        <time>2015-07-11T09:10:30.000Z</time>
      </trkpt>
      <trkpt lat="48.71297" lon="1.71403">
        <ele>140.5</ele>
        <time>2015-07-11T09:10:35.000Z</time>
      </trkpt>
      <trkpt lat="48.71293" lon="1.71371">
        <ele>140.6</ele>
        <time>2015-07-11T09:10:42.000Z</time>
      </trkpt>
      <trkpt lat="48.71287" lon="1.71334">
        <ele>140.7</ele>
        <time>2015-07-11T09:10:50.000Z</time>
      </trkpt>
      <trkpt lat="48.71281" lon="1.71294">
        <ele>140.4</ele>
        <time>2015-07-11T09:10:58.000Z</time>
      </trkpt>
      <trkpt lat="48.71275" lon="1.71264">
        <ele>140.2</ele>
        <time>2015-07-11T09:11:05.000Z</time>
      </trkpt>
      <trkpt lat="48.71272" lon="1.7123">
        <ele>140.4</ele>
        <time>2015-07-11T09:11:12.000Z</time>
      </trkpt>
      <trkpt lat="48.71274" lon="1.7119">
        <ele>140.3</ele>
        <time>2015-07-11T09:11:20.000Z</time>
      </trkpt>
      <trkpt lat="48.71271" lon="1.71161">
        <ele>140.7</ele>
        <time>2015-07-11T09:11:26.000Z</time>
      </trkpt>
      <trkpt lat="48.71262" lon="1.71123">
        <ele>141.7</ele>
        <time>2015-07-11T09:11:34.000Z</time>
      </trkpt>
      <trkpt lat="48.71255" lon="1.71104">
        <ele>142</ele>
        <time>2015-07-11T09:11:39.000Z</time>
      </trkpt>
      <trkpt lat="48.71251" lon="1.71093">
        <ele>141.6</ele>
        <time>2015-07-11T09:11:44.000Z</time>
      </trkpt>
      <trkpt lat="48.71246" lon="1.71082">
        <ele>141.4</ele>
        <time>2015-07-11T09:11:49.000Z</time>
      </trkpt>
      <trkpt lat="48.7124" lon="1.71069">
        <ele>141.2</ele>
        <time>2015-07-11T09:11:56.000Z</time>
      </trkpt>
      <trkpt lat="48.71233" lon="1.71055">
        <ele>140.6</ele>
        <time>2015-07-11T09:12:03.000Z</time>
      </trkpt>
      <trkpt lat="48.71227" lon="1.71047">
        <ele>140.3</ele>
        <time>2015-07-11T09:12:08.000Z</time>
      </trkpt>
      <trkpt lat="48.7122" lon="1.7103">
        <ele>139.1</ele>
        <time>2015-07-11T09:12:17.000Z</time>
      </trkpt>
      <trkpt lat="48.71213" lon="1.71012">
        <ele>138.4</ele>
        <time>2015-07-11T09:12:26.000Z</time>
      </trkpt>
      <trkpt lat="48.71211" lon="1.70998">
        <ele>137.9</ele>
        <time>2015-07-11T09:12:32.000Z</time>
      </trkpt>
      <trkpt lat="48.7121" lon="1.70985">
        <ele>137.2</ele>
        <time>2015-07-11T09:12:37.000Z</time>
      </trkpt>
      <trkpt lat="48.71206" lon="1.70973">
        <ele>136.6</ele>
        <time>2015-07-11T09:12:42.000Z</time>
      </trkpt>
      <trkpt lat="48.71204" lon="1.70954">
        <ele>136.4</ele>
        <time>2015-07-11T09:12:49.000Z</time>
      </trkpt>
      <trkpt lat="48.71204" lon="1.70938">
        <ele>136.3</ele>
        <time>2015-07-11T09:12:56.000Z</time>
      </trkpt>
      <trkpt lat="48.71205" lon="1.70927">
        <ele>136.2</ele>
        <time>2015-07-11T09:13:01.000Z</time>
      </trkpt>
      <trkpt lat="48.71205" lon="1.70916">
        <ele>136.2</ele>
        <time>2015-07-11T09:13:07.000Z</time>
      </trkpt>
      <trkpt lat="48.71205" lon="1.70903">
        <ele>136.3</ele>
        <time>2015-07-11T09:13:12.000Z</time>
      </trkpt>
      <trkpt lat="48.71206" lon="1.7089">
        <ele>136.2</ele>
        <time>2015-07-11T09:13:18.000Z</time>
      </trkpt>
      <trkpt lat="48.71208" lon="1.70876">
        <ele>137.2</ele>
        <time>2015-07-11T09:13:24.000Z</time>
      </trkpt>
      <trkpt lat="48.71211" lon="1.70862">
        <ele>138.1</ele>
        <time>2015-07-11T09:13:31.000Z</time>
      </trkpt>
      <trkpt lat="48.71215" lon="1.70855">
        <ele>138.4</ele>
        <time>2015-07-11T09:13:36.000Z</time>
      </trkpt>
      <trkpt lat="48.71214" lon="1.7085">
        <ele>138.9</ele>
        <time>2015-07-11T09:13:38.000Z</time>
      </trkpt>
      <trkpt lat="48.71221" lon="1.70837">
        <ele>139</ele>
        <time>2015-07-11T09:13:45.000Z</time>
      </trkpt>
      <trkpt lat="48.71221" lon="1.70835">
        <ele>139</ele>
        <time>2015-07-11T09:13:46.000Z</time>
      </trkpt>
      <trkpt lat="48.71222" lon="1.70818">
        <ele>141.3</ele>
        <time>2015-07-11T09:13:53.000Z</time>
      </trkpt>
      <trkpt lat="48.71223" lon="1.70809">
        <ele>142.4</ele>
        <time>2015-07-11T09:13:59.000Z</time>
      </trkpt>
      <trkpt lat="48.71222" lon="1.70798">
        <ele>143</ele>
        <time>2015-07-11T09:14:04.000Z</time>
      </trkpt>
      <trkpt lat="48.71218" lon="1.70787">
        <ele>143.4</ele>
        <time>2015-07-11T09:14:09.000Z</time>
      </trkpt>
      <trkpt lat="48.71213" lon="1.70771">
        <ele>144.2</ele>
        <time>2015-07-11T09:14:15.000Z</time>
      </trkpt>
      <trkpt lat="48.71214" lon="1.70757">
        <ele>144.7</ele>
        <time>2015-07-11T09:14:21.000Z</time>
      </trkpt>
      <trkpt lat="48.71217" lon="1.70739">
        <ele>144.6</ele>
        <time>2015-07-11T09:14:28.000Z</time>
      </trkpt>
      <trkpt lat="48.71218" lon="1.70717">
        <ele>144.7</ele>
        <time>2015-07-11T09:14:38.000Z</time>
      </trkpt>
      <trkpt lat="48.71218" lon="1.70705">
        <ele>145.2</ele>
        <time>2015-07-11T09:14:44.000Z</time>
      </trkpt>
      <trkpt lat="48.71221" lon="1.70696">
        <ele>145.2</ele>
        <time>2015-07-11T09:14:49.000Z</time>
      </trkpt>
      <trkpt lat="48.71223" lon="1.70683">
        <ele>144.9</ele>
        <time>2015-07-11T09:14:55.000Z</time>
      </trkpt>
      <trkpt lat="48.71224" lon="1.70664">
        <ele>144.8</ele>
        <time>2015-07-11T09:15:03.000Z</time>
      </trkpt>
      <trkpt lat="48.71225" lon="1.70659">
        <ele>144.7</ele>
        <time>2015-07-11T09:15:05.000Z</time>
      </trkpt>
      <trkpt lat="48.71222" lon="1.70645">
        <ele>145</ele>
        <time>2015-07-11T09:15:12.000Z</time>
      </trkpt>
      <trkpt lat="48.71219" lon="1.70626">
        <ele>144.8</ele>
        <time>2015-07-11T09:15:20.000Z</time>
      </trkpt>
      <trkpt lat="48.71215" lon="1.70607">
        <ele>144.2</ele>
        <time>2015-07-11T09:15:28.000Z</time>
      </trkpt>
      <trkpt lat="48.71213" lon="1.70593">
        <ele>143.4</ele>
        <time>2015-07-11T09:15:34.000Z</time>
      </trkpt>
      <trkpt lat="48.71206" lon="1.70578">
        <ele>143</ele>
        <time>2015-07-11T09:15:41.000Z</time>
      </trkpt>
      <trkpt lat="48.71203" lon="1.70568">
        <ele>142.8</ele>
        <time>2015-07-11T09:15:47.000Z</time>
      </trkpt>
      <trkpt lat="48.71203" lon="1.70568">
        <ele>142.8</ele>
        <time>2015-07-11T09:15:48.000Z</time>
      </trkpt>
      <trkpt lat="48.71201" lon="1.70556">
        <ele>142.5</ele>
        <time>2015-07-11T09:16:00.000Z</time>
      </trkpt>
      <trkpt lat="48.71196" lon="1.70536">
        <ele>142.2</ele>
        <time>2015-07-11T09:16:08.000Z</time>
      </trkpt>
      <trkpt lat="48.71193" lon="1.70519">
        <ele>142.1</ele>
        <time>2015-07-11T09:16:16.000Z</time>
      </trkpt>
      <trkpt lat="48.7119" lon="1.70499">
        <ele>142.1</ele>
        <time>2015-07-11T09:16:25.000Z</time>
      </trkpt>
      <trkpt lat="48.71187" lon="1.70483">
        <ele>141.5</ele>
        <time>2015-07-11T09:16:32.000Z</time>
      </trkpt>
      <trkpt lat="48.71181" lon="1.70471">
        <ele>141</ele>
        <time>2015-07-11T09:16:39.000Z</time>
      </trkpt>
      <trkpt lat="48.71178" lon="1.70463">
        <ele>140.5</ele>
        <time>2015-07-11T09:16:43.000Z</time>
      </trkpt>
      <trkpt lat="48.71173" lon="1.70447">
        <ele>139.4</ele>
        <time>2015-07-11T09:16:51.000Z</time>
      </trkpt>
      <trkpt lat="48.71168" lon="1.70433">
        <ele>138.6</ele>
        <time>2015-07-11T09:16:58.000Z</time>
      </trkpt>
      <trkpt lat="48.71161" lon="1.70416">
        <ele>137.8</ele>
        <time>2015-07-11T09:17:06.000Z</time>
      </trkpt>
      <trkpt lat="48.71156" lon="1.70398">
        <ele>137.2</ele>
        <time>2015-07-11T09:17:15.000Z</time>
      </trkpt>
      <trkpt lat="48.71156" lon="1.70392">
        <ele>137.1</ele>
        <time>2015-07-11T09:17:18.000Z</time>
      </trkpt>
      <trkpt lat="48.71157" lon="1.70377">
        <ele>136.7</ele>
        <time>2015-07-11T09:17:26.000Z</time>
      </trkpt>
      <trkpt lat="48.71159" lon="1.70367">
        <ele>136.4</ele>
        <time>2015-07-11T09:17:32.000Z</time>
      </trkpt>
      <trkpt lat="48.7116" lon="1.70345">
        <ele>136.4</ele>
        <time>2015-07-11T09:17:39.000Z</time>
      </trkpt>
      <trkpt lat="48.71161" lon="1.70322">
        <ele>136.8</ele>
        <time>2015-07-11T09:17:44.000Z</time>
      </trkpt>
      <trkpt lat="48.71165" lon="1.70299">
        <ele>137.1</ele>
        <time>2015-07-11T09:17:49.000Z</time>
      </trkpt>
      <trkpt lat="48.71172" lon="1.70274">
        <ele>136.9</ele>
        <time>2015-07-11T09:17:54.000Z</time>
      </trkpt>
      <trkpt lat="48.71179" lon="1.70252">
        <ele>137</ele>
        <time>2015-07-11T09:17:58.000Z</time>
      </trkpt>
      <trkpt lat="48.71187" lon="1.70228">
        <ele>136.5</ele>
        <time>2015-07-11T09:18:03.000Z</time>
      </trkpt>
      <trkpt lat="48.71192" lon="1.70205">
        <ele>136.8</ele>
        <time>2015-07-11T09:18:08.000Z</time>
      </trkpt>
      <trkpt lat="48.71195" lon="1.70174">
        <ele>136.2</ele>
        <time>2015-07-11T09:18:13.000Z</time>
      </trkpt>
      <trkpt lat="48.71198" lon="1.70149">
        <ele>136.5</ele>
        <time>2015-07-11T09:18:18.000Z</time>
      </trkpt>
      <trkpt lat="48.71205" lon="1.7012">
        <ele>136.6</ele>
        <time>2015-07-11T09:18:24.000Z</time>
      </trkpt>
      <trkpt lat="48.71215" lon="1.70084">
        <ele>137.2</ele>
        <time>2015-07-11T09:18:31.000Z</time>
      </trkpt>
      <trkpt lat="48.7122" lon="1.70052">
        <ele>137.3</ele>
        <time>2015-07-11T09:18:38.000Z</time>
      </trkpt>
      <trkpt lat="48.71223" lon="1.70034">
        <ele>137.7</ele>
        <time>2015-07-11T09:18:42.000Z</time>
      </trkpt>
      <trkpt lat="48.71231" lon="1.69997">
        <ele>138.8</ele>
        <time>2015-07-11T09:18:50.000Z</time>
      </trkpt>
      <trkpt lat="48.71232" lon="1.69959">
        <ele>139.4</ele>
        <time>2015-07-11T09:18:58.000Z</time>
      </trkpt>
      <trkpt lat="48.71231" lon="1.6993">
        <ele>139.8</ele>
        <time>2015-07-11T09:19:04.000Z</time>
      </trkpt>
      <trkpt lat="48.71231" lon="1.69906">
        <ele>140.4</ele>
        <time>2015-07-11T09:19:09.000Z</time>
      </trkpt>
      <trkpt lat="48.71235" lon="1.6987">
        <ele>141.4</ele>
        <time>2015-07-11T09:19:16.000Z</time>
      </trkpt>
      <trkpt lat="48.71234" lon="1.69842">
        <ele>142.2</ele>
        <time>2015-07-11T09:19:22.000Z</time>
      </trkpt>
      <trkpt lat="48.7124" lon="1.69805">
        <ele>143.7</ele>
        <time>2015-07-11T09:19:30.000Z</time>
      </trkpt>
      <trkpt lat="48.71244" lon="1.69777">
        <ele>145.2</ele>
        <time>2015-07-11T09:19:36.000Z</time>
      </trkpt>
      <trkpt lat="48.71249" lon="1.69755">
        <ele>145.1</ele>
        <time>2015-07-11T09:19:41.000Z</time>
      </trkpt>
      <trkpt lat="48.71252" lon="1.69733">
        <ele>146.1</ele>
        <time>2015-07-11T09:19:46.000Z</time>
      </trkpt>
      <trkpt lat="48.71258" lon="1.69699">
        <ele>146.4</ele>
        <time>2015-07-11T09:19:54.000Z</time>
      </trkpt>
      <trkpt lat="48.7126" lon="1.69679">
        <ele>146.8</ele>
        <time>2015-07-11T09:19:59.000Z</time>
      </trkpt>
      <trkpt lat="48.71261" lon="1.69672">
        <ele>147</ele>
        <time>2015-07-11T09:20:02.000Z</time>
      </trkpt>
      <trkpt lat="48.71266" lon="1.69657">
        <ele>147.1</ele>
        <time>2015-07-11T09:20:10.000Z</time>
      </trkpt>
      <trkpt lat="48.71271" lon="1.69646">
        <ele>147.1</ele>
        <time>2015-07-11T09:20:16.000Z</time>
      </trkpt>
      <trkpt lat="48.71274" lon="1.69632">
        <ele>146.5</ele>
        <time>2015-07-11T09:20:23.000Z</time>
      </trkpt>
      <trkpt lat="48.71275" lon="1.69628">
        <ele>146.1</ele>
        <time>2015-07-11T09:20:25.000Z</time>
      </trkpt>
      <trkpt lat="48.71277" lon="1.69616">
        <ele>144.6</ele>
        <time>2015-07-11T09:20:31.000Z</time>
      </trkpt>
      <trkpt lat="48.71277" lon="1.69603">
        <ele>143.9</ele>
        <time>2015-07-11T09:20:37.000Z</time>
      </trkpt>
      <trkpt lat="48.71274" lon="1.69596">
        <ele>144.1</ele>
        <time>2015-07-11T09:20:40.000Z</time>
      </trkpt>
      <trkpt lat="48.71273" lon="1.69574">
        <ele>144</ele>
        <time>2015-07-11T09:20:49.000Z</time>
      </trkpt>
      <trkpt lat="48.71273" lon="1.69572">
        <ele>144.1</ele>
        <time>2015-07-11T09:20:50.000Z</time>
      </trkpt>
      <trkpt lat="48.71277" lon="1.69559">
        <ele>143.1</ele>
        <time>2015-07-11T09:20:56.000Z</time>
      </trkpt>
      <trkpt lat="48.7128" lon="1.6954">
        <ele>143.8</ele>
        <time>2015-07-11T09:21:04.000Z</time>
      </trkpt>
      <trkpt lat="48.71279" lon="1.69533">
        <ele>143.9</ele>
        <time>2015-07-11T09:21:07.000Z</time>
      </trkpt>
      <trkpt lat="48.7128" lon="1.69527">
        <ele>144</ele>
        <time>2015-07-11T09:21:10.000Z</time>
      </trkpt>
      <trkpt lat="48.71284" lon="1.69518">
        <ele>143</ele>
        <time>2015-07-11T09:21:15.000Z</time>
      </trkpt>
      <trkpt lat="48.71282" lon="1.69501">
        <ele>140.9</ele>
        <time>2015-07-11T09:21:23.000Z</time>
      </trkpt>
      <trkpt lat="48.71284" lon="1.69487">
        <ele>139.8</ele>
        <time>2015-07-11T09:21:29.000Z</time>
      </trkpt>
      <trkpt lat="48.71289" lon="1.69475">
        <ele>138.8</ele>
        <time>2015-07-11T09:21:35.000Z</time>
      </trkpt>
      <trkpt lat="48.71289" lon="1.69473">
        <ele>138.6</ele>
        <time>2015-07-11T09:21:36.000Z</time>
      </trkpt>
      <trkpt lat="48.71292" lon="1.69463">
        <ele>138.1</ele>
        <time>2015-07-11T09:21:41.000Z</time>
      </trkpt>
      <trkpt lat="48.71295" lon="1.69447">
        <ele>137.5</ele>
        <time>2015-07-11T09:21:47.000Z</time>
      </trkpt>
      <trkpt lat="48.71298" lon="1.69437">
        <ele>137</ele>
        <time>2015-07-11T09:21:52.000Z</time>
      </trkpt>
      <trkpt lat="48.71298" lon="1.69425">
        <ele>136.6</ele>
        <time>2015-07-11T09:21:57.000Z</time>
      </trkpt>
      <trkpt lat="48.71302" lon="1.69412">
        <ele>136.1</ele>
        <time>2015-07-11T09:22:04.000Z</time>
      </trkpt>
      <trkpt lat="48.71305" lon="1.69401">
        <ele>136</ele>
        <time>2015-07-11T09:22:10.000Z</time>
      </trkpt>
      <trkpt lat="48.71307" lon="1.69395">
        <ele>135.9</ele>
        <time>2015-07-11T09:22:14.000Z</time>
      </trkpt>
      <trkpt lat="48.71307" lon="1.69391">
        <ele>135.9</ele>
        <time>2015-07-11T09:22:16.000Z</time>
      </trkpt>
      <trkpt lat="48.71309" lon="1.69372">
        <ele>135.2</ele>
        <time>2015-07-11T09:22:26.000Z</time>
      </trkpt>
      <trkpt lat="48.71312" lon="1.69359">
        <ele>134.7</ele>
        <time>2015-07-11T09:22:33.000Z</time>
      </trkpt>
      <trkpt lat="48.71314" lon="1.69346">
        <ele>134.1</ele>
        <time>2015-07-11T09:22:39.000Z</time>
      </trkpt>
      <trkpt lat="48.71316" lon="1.69336">
        <ele>133.7</ele>
        <time>2015-07-11T09:22:43.000Z</time>
      </trkpt>
      <trkpt lat="48.7132" lon="1.69328">
        <ele>133.4</ele>
        <time>2015-07-11T09:22:48.000Z</time>
      </trkpt>
      <trkpt lat="48.71322" lon="1.69311">
        <ele>132.9</ele>
        <time>2015-07-11T09:22:56.000Z</time>
      </trkpt>
      <trkpt lat="48.71324" lon="1.69298">
        <ele>132.7</ele>
        <time>2015-07-11T09:23:02.000Z</time>
      </trkpt>
      <trkpt lat="48.71325" lon="1.69285">
        <ele>132.6</ele>
        <time>2015-07-11T09:23:08.000Z</time>
      </trkpt>
      <trkpt lat="48.71326" lon="1.69268">
        <ele>132.5</ele>
        <time>2015-07-11T09:23:16.000Z</time>
      </trkpt>
      <trkpt lat="48.71328" lon="1.69253">
        <ele>132.4</ele>
        <time>2015-07-11T09:23:22.000Z</time>
      </trkpt>
      <trkpt lat="48.71331" lon="1.6924">
        <ele>132.5</ele>
        <time>2015-07-11T09:23:29.000Z</time>
      </trkpt>
      <trkpt lat="48.71334" lon="1.6922">
        <ele>133</ele>
        <time>2015-07-11T09:23:37.000Z</time>
      </trkpt>
      <trkpt lat="48.71336" lon="1.69202">
        <ele>133</ele>
        <time>2015-07-11T09:23:45.000Z</time>
      </trkpt>
      <trkpt lat="48.71333" lon="1.69188">
        <ele>133.3</ele>
        <time>2015-07-11T09:23:51.000Z</time>
      </trkpt>
      <trkpt lat="48.71335" lon="1.69167">
        <ele>133.9</ele>
        <time>2015-07-11T09:24:00.000Z</time>
      </trkpt>
      <trkpt lat="48.71339" lon="1.69154">
        <ele>134.2</ele>
        <time>2015-07-11T09:24:05.000Z</time>
      </trkpt>
      <trkpt lat="48.71343" lon="1.69138">
        <ele>134.3</ele>
        <time>2015-07-11T09:24:12.000Z</time>
      </trkpt>
      <trkpt lat="48.71344" lon="1.69134">
        <ele>134.2</ele>
        <time>2015-07-11T09:24:14.000Z</time>
      </trkpt>
      <trkpt lat="48.7135" lon="1.69122">
        <ele>133.8</ele>
        <time>2015-07-11T09:24:21.000Z</time>
      </trkpt>
      <trkpt lat="48.71355" lon="1.69102">
        <ele>133.7</ele>
        <time>2015-07-11T09:24:32.000Z</time>
      </trkpt>
      <trkpt lat="48.71361" lon="1.6909">
        <ele>133.8</ele>
        <time>2015-07-11T09:24:40.000Z</time>
      </trkpt>
      <trkpt lat="48.71364" lon="1.69078">
        <ele>133.9</ele>
        <time>2015-07-11T09:24:46.000Z</time>
      </trkpt>
      <trkpt lat="48.71367" lon="1.69071">
        <ele>133.8</ele>
        <time>2015-07-11T09:24:51.000Z</time>
      </trkpt>
      <trkpt lat="48.7137" lon="1.69072">
        <ele>133.7</ele>
        <time>2015-07-11T09:24:55.000Z</time>
      </trkpt>
      <trkpt lat="48.71373" lon="1.6907">
        <ele>133.6</ele>
        <time>2015-07-11T09:25:20.000Z</time>
      </trkpt>
      <trkpt lat="48.71374" lon="1.69063">
        <ele>133.5</ele>
        <time>2015-07-11T09:25:22.000Z</time>
      </trkpt>
      <trkpt lat="48.71377" lon="1.69048">
        <ele>133.5</ele>
        <time>2015-07-11T09:25:29.000Z</time>
      </trkpt>
      <trkpt lat="48.7138" lon="1.69043">
        <ele>133.5</ele>
        <time>2015-07-11T09:25:32.000Z</time>
      </trkpt>
      <trkpt lat="48.71382" lon="1.6904">
        <ele>133.4</ele>
        <time>2015-07-11T09:25:34.000Z</time>
      </trkpt>
      <trkpt lat="48.71386" lon="1.69028">
        <ele>133.2</ele>
        <time>2015-07-11T09:25:40.000Z</time>
      </trkpt>
      <trkpt lat="48.71388" lon="1.69014">
        <ele>133.5</ele>
        <time>2015-07-11T09:25:45.000Z</time>
      </trkpt>
      <trkpt lat="48.71389" lon="1.69008">
        <ele>133.7</ele>
        <time>2015-07-11T09:25:47.000Z</time>
      </trkpt>
      <trkpt lat="48.71393" lon="1.68997">
        <ele>133.8</ele>
        <time>2015-07-11T09:25:52.000Z</time>
      </trkpt>
      <trkpt lat="48.71394" lon="1.68995">
        <ele>133.8</ele>
        <time>2015-07-11T09:25:53.000Z</time>
      </trkpt>
      <trkpt lat="48.71401" lon="1.68984">
        <ele>133.5</ele>
        <time>2015-07-11T09:26:00.000Z</time>
      </trkpt>
      <trkpt lat="48.71406" lon="1.68978">
        <ele>133.4</ele>
        <time>2015-07-11T09:26:04.000Z</time>
      </trkpt>
      <trkpt lat="48.71408" lon="1.68975">
        <ele>133.3</ele>
        <time>2015-07-11T09:26:06.000Z</time>
      </trkpt>
      <trkpt lat="48.71418" lon="1.6897">
        <ele>132.9</ele>
        <time>2015-07-11T09:26:12.000Z</time>
      </trkpt>
      <trkpt lat="48.7142" lon="1.68969">
        <ele>132.9</ele>
        <time>2015-07-11T09:26:13.000Z</time>
      </trkpt>
      <trkpt lat="48.71425" lon="1.68952">
        <ele>132.7</ele>
        <time>2015-07-11T09:26:21.000Z</time>
      </trkpt>
      <trkpt lat="48.71428" lon="1.68943">
        <ele>132.6</ele>
        <time>2015-07-11T09:26:25.000Z</time>
      </trkpt>
      <trkpt lat="48.71434" lon="1.68931">
        <ele>132.6</ele>
        <time>2015-07-11T09:26:31.000Z</time>
      </trkpt>
      <trkpt lat="48.71438" lon="1.68922">
        <ele>132.4</ele>
        <time>2015-07-11T09:26:36.000Z</time>
      </trkpt>
      <trkpt lat="48.71442" lon="1.68917">
        <ele>132.2</ele>
        <time>2015-07-11T09:26:40.000Z</time>
      </trkpt>
      <trkpt lat="48.71445" lon="1.68908">
        <ele>132.3</ele>
        <time>2015-07-11T09:26:45.000Z</time>
      </trkpt>
      <trkpt lat="48.71452" lon="1.68888">
        <ele>132.8</ele>
        <time>2015-07-11T09:26:55.000Z</time>
      </trkpt>
      <trkpt lat="48.71453" lon="1.68886">
        <ele>132.9</ele>
        <time>2015-07-11T09:26:56.000Z</time>
      </trkpt>
      <trkpt lat="48.71459" lon="1.68874">
        <ele>133.3</ele>
        <time>2015-07-11T09:27:03.000Z</time>
      </trkpt>
      <trkpt lat="48.71467" lon="1.68861">
        <ele>133.4</ele>
        <time>2015-07-11T09:27:11.000Z</time>
      </trkpt>
      <trkpt lat="48.71474" lon="1.68844">
        <ele>133.6</ele>
        <time>2015-07-11T09:27:20.000Z</time>
      </trkpt>
      <trkpt lat="48.71478" lon="1.6883">
        <ele>134</ele>
        <time>2015-07-11T09:27:27.000Z</time>
      </trkpt>
      <trkpt lat="48.71482" lon="1.68821">
        <ele>134.4</ele>
        <time>2015-07-11T09:27:32.000Z</time>
      </trkpt>
      <trkpt lat="48.71489" lon="1.68812">
        <ele>134.5</ele>
        <time>2015-07-11T09:27:38.000Z</time>
      </trkpt>
      <trkpt lat="48.71495" lon="1.68796">
        <ele>134.7</ele>
        <time>2015-07-11T09:27:46.000Z</time>
      </trkpt>
      <trkpt lat="48.71497" lon="1.68786">
        <ele>135</ele>
        <time>2015-07-11T09:27:51.000Z</time>
      </trkpt>
      <trkpt lat="48.71497" lon="1.68772">
        <ele>135.4</ele>
        <time>2015-07-11T09:27:57.000Z</time>
      </trkpt>
      <trkpt lat="48.71497" lon="1.68769">
        <ele>135.5</ele>
        <time>2015-07-11T09:27:58.000Z</time>
      </trkpt>
      <trkpt lat="48.71499" lon="1.68753">
        <ele>135.9</ele>
        <time>2015-07-11T09:28:05.000Z</time>
      </trkpt>
      <trkpt lat="48.71501" lon="1.68739">
        <ele>135.5</ele>
        <time>2015-07-11T09:28:12.000Z</time>
      </trkpt>
      <trkpt lat="48.71501" lon="1.68737">
        <ele>135.5</ele>
        <time>2015-07-11T09:28:13.000Z</time>
      </trkpt>
      <trkpt lat="48.71505" lon="1.68725">
        <ele>134.9</ele>
        <time>2015-07-11T09:28:19.000Z</time>
      </trkpt>
      <trkpt lat="48.71508" lon="1.68718">
        <ele>134.8</ele>
        <time>2015-07-11T09:28:23.000Z</time>
      </trkpt>
      <trkpt lat="48.71508" lon="1.68713">
        <ele>135</ele>
        <time>2015-07-11T09:28:25.000Z</time>
      </trkpt>
      <trkpt lat="48.71511" lon="1.68699">
        <ele>135.1</ele>
        <time>2015-07-11T09:28:31.000Z</time>
      </trkpt>
      <trkpt lat="48.71512" lon="1.68678">
        <ele>134.8</ele>
        <time>2015-07-11T09:28:40.000Z</time>
      </trkpt>
      <trkpt lat="48.71514" lon="1.68663">
        <ele>134.4</ele>
        <time>2015-07-11T09:28:46.000Z</time>
      </trkpt>
      <trkpt lat="48.71515" lon="1.68649">
        <ele>133.8</ele>
        <time>2015-07-11T09:28:52.000Z</time>
      </trkpt>
      <trkpt lat="48.71517" lon="1.68625">
        <ele>133.6</ele>
        <time>2015-07-11T09:29:03.000Z</time>
      </trkpt>
      <trkpt lat="48.71517" lon="1.68618">
        <ele>133.7</ele>
        <time>2015-07-11T09:29:06.000Z</time>
      </trkpt>
      <trkpt lat="48.71516" lon="1.68603">
        <ele>133.8</ele>
        <time>2015-07-11T09:29:13.000Z</time>
      </trkpt>
      <trkpt lat="48.71516" lon="1.68586">
        <ele>133.8</ele>
        <time>2015-07-11T09:29:21.000Z</time>
      </trkpt>
      <trkpt lat="48.71515" lon="1.68566">
        <ele>133.1</ele>
        <time>2015-07-11T09:29:30.000Z</time>
      </trkpt>
      <trkpt lat="48.71515" lon="1.68552">
        <ele>132.3</ele>
        <time>2015-07-11T09:29:37.000Z</time>
      </trkpt>
      <trkpt lat="48.71512" lon="1.68535">
        <ele>131.8</ele>
        <time>2015-07-11T09:29:45.000Z</time>
      </trkpt>
      <trkpt lat="48.71508" lon="1.68516">
        <ele>131.3</ele>
        <time>2015-07-11T09:29:54.000Z</time>
      </trkpt>
      <trkpt lat="48.71504" lon="1.68498">
        <ele>130.9</ele>
        <time>2015-07-11T09:30:02.000Z</time>
      </trkpt>
      <trkpt lat="48.71497" lon="1.68477">
        <ele>131.2</ele>
        <time>2015-07-11T09:30:11.000Z</time>
      </trkpt>
      <trkpt lat="48.71494" lon="1.68462">
        <ele>131.4</ele>
        <time>2015-07-11T09:30:18.000Z</time>
      </trkpt>
      <trkpt lat="48.71494" lon="1.68443">
        <ele>131.2</ele>
        <time>2015-07-11T09:30:26.000Z</time>
      </trkpt>
      <trkpt lat="48.71495" lon="1.68423">
        <ele>131.2</ele>
        <time>2015-07-11T09:30:35.000Z</time>
      </trkpt>
      <trkpt lat="48.71497" lon="1.68406">
        <ele>130.8</ele>
        <time>2015-07-11T09:30:43.000Z</time>
      </trkpt>
      <trkpt lat="48.71501" lon="1.68385">
        <ele>130.1</ele>
        <time>2015-07-11T09:30:53.000Z</time>
      </trkpt>
      <trkpt lat="48.71506" lon="1.68365">
        <ele>130.5</ele>
        <time>2015-07-11T09:31:02.000Z</time>
      </trkpt>
      <trkpt lat="48.71511" lon="1.68344">
        <ele>130.2</ele>
        <time>2015-07-11T09:31:12.000Z</time>
      </trkpt>
      <trkpt lat="48.71515" lon="1.68317">
        <ele>129.9</ele>
        <time>2015-07-11T09:31:24.000Z</time>
      </trkpt>
      <trkpt lat="48.71517" lon="1.68295">
        <ele>129.7</ele>
        <time>2015-07-11T09:31:34.000Z</time>
      </trkpt>
      <trkpt lat="48.71514" lon="1.68271">
        <ele>129.5</ele>
        <time>2015-07-11T09:31:45.000Z</time>
      </trkpt>
      <trkpt lat="48.71514" lon="1.68252">
        <ele>129.5</ele>
        <time>2015-07-11T09:31:53.000Z</time>
      </trkpt>
      <trkpt lat="48.7151" lon="1.68225">
        <ele>129.7</ele>
        <time>2015-07-11T09:32:05.000Z</time>
      </trkpt>
      <trkpt lat="48.71507" lon="1.68204">
        <ele>129.1</ele>
        <time>2015-07-11T09:32:14.000Z</time>
      </trkpt>
      <trkpt lat="48.71505" lon="1.68189">
        <ele>128.8</ele>
        <time>2015-07-11T09:32:21.000Z</time>
      </trkpt>
      <trkpt lat="48.71502" lon="1.68167">
        <ele>128.9</ele>
        <time>2015-07-11T09:32:31.000Z</time>
      </trkpt>
      <trkpt lat="48.71497" lon="1.68153">
        <ele>129</ele>
        <time>2015-07-11T09:32:38.000Z</time>
      </trkpt>
      <trkpt lat="48.71494" lon="1.68142">
        <ele>129</ele>
        <time>2015-07-11T09:32:43.000Z</time>
      </trkpt>
      <trkpt lat="48.71487" lon="1.68123">
        <ele>129.3</ele>
        <time>2015-07-11T09:32:52.000Z</time>
      </trkpt>
      <trkpt lat="48.71482" lon="1.68095">
        <ele>129.3</ele>
        <time>2015-07-11T09:33:05.000Z</time>
      </trkpt>
      <trkpt lat="48.7148" lon="1.6807">
        <ele>128.9</ele>
        <time>2015-07-11T09:33:16.000Z</time>
      </trkpt>
      <trkpt lat="48.71481" lon="1.68052">
        <ele>128.8</ele>
        <time>2015-07-11T09:33:24.000Z</time>
      </trkpt>
      <trkpt lat="48.71486" lon="1.68033">
        <ele>129.3</ele>
        <time>2015-07-11T09:33:33.000Z</time>
      </trkpt>
      <trkpt lat="48.71496" lon="1.68006">
        <ele>129.1</ele>
        <time>2015-07-11T09:33:47.000Z</time>
      </trkpt>
      <trkpt lat="48.71506" lon="1.67989">
        <ele>128.8</ele>
        <time>2015-07-11T09:33:57.000Z</time>
      </trkpt>
      <trkpt lat="48.71517" lon="1.67979">
        <ele>128.4</ele>
        <time>2015-07-11T09:34:05.000Z</time>
      </trkpt>
      <trkpt lat="48.71529" lon="1.67968">
        <ele>127.9</ele>
        <time>2015-07-11T09:34:13.000Z</time>
      </trkpt>
      <trkpt lat="48.7154" lon="1.67956">
        <ele>127.4</ele>
        <time>2015-07-11T09:34:22.000Z</time>
      </trkpt>
      <trkpt lat="48.71547" lon="1.67947">
        <ele>127.2</ele>
        <time>2015-07-11T09:34:28.000Z</time>
      </trkpt>
      <trkpt lat="48.71555" lon="1.67938">
        <ele>127</ele>
        <time>2015-07-11T09:34:35.000Z</time>
      </trkpt>
      <trkpt lat="48.71563" lon="1.67924">
        <ele>126.7</ele>
        <time>2015-07-11T09:34:42.000Z</time>
      </trkpt>
      <trkpt lat="48.71575" lon="1.6791">
        <ele>126.5</ele>
        <time>2015-07-11T09:34:51.000Z</time>
      </trkpt>
      <trkpt lat="48.71584" lon="1.67903">
        <ele>126.5</ele>
        <time>2015-07-11T09:34:57.000Z</time>
      </trkpt>
      <trkpt lat="48.71597" lon="1.67891">
        <ele>126.9</ele>
        <time>2015-07-11T09:35:07.000Z</time>
      </trkpt>
      <trkpt lat="48.71606" lon="1.6788">
        <ele>127</ele>
        <time>2015-07-11T09:35:15.000Z</time>
      </trkpt>
      <trkpt lat="48.71612" lon="1.67873">
        <ele>127</ele>
        <time>2015-07-11T09:35:20.000Z</time>
      </trkpt>
      <trkpt lat="48.71622" lon="1.67864">
        <ele>127</ele>
        <time>2015-07-11T09:35:27.000Z</time>
      </trkpt>
      <trkpt lat="48.71636" lon="1.67848">
        <ele>127</ele>
        <time>2015-07-11T09:35:38.000Z</time>
      </trkpt>
      <trkpt lat="48.7165" lon="1.67834">
        <ele>127</ele>
        <time>2015-07-11T09:35:49.000Z</time>
      </trkpt>
      <trkpt lat="48.71652" lon="1.67831">
        <ele>127</ele>
        <time>2015-07-11T09:35:54.000Z</time>
      </trkpt>
      <trkpt lat="48.71657" lon="1.67828">
        <ele>127.1</ele>
        <time>2015-07-11T09:36:13.000Z</time>
      </trkpt>
      <trkpt lat="48.71667" lon="1.67817">
        <ele>127</ele>
        <time>2015-07-11T09:36:20.000Z</time>
      </trkpt>
      <trkpt lat="48.71675" lon="1.6781">
        <ele>126.7</ele>
        <time>2015-07-11T09:36:26.000Z</time>
      </trkpt>
      <trkpt lat="48.71683" lon="1.67802">
        <ele>126.6</ele>
        <time>2015-07-11T09:36:33.000Z</time>
      </trkpt>
      <trkpt lat="48.71689" lon="1.67796">
        <ele>126.6</ele>
        <time>2015-07-11T09:36:38.000Z</time>
      </trkpt>
      <trkpt lat="48.71702" lon="1.67784">
        <ele>126.6</ele>
        <time>2015-07-11T09:36:47.000Z</time>
      </trkpt>
      <trkpt lat="48.71704" lon="1.67782">
        <ele>126.6</ele>
        <time>2015-07-11T09:36:48.000Z</time>
      </trkpt>
      <trkpt lat="48.71706" lon="1.6778">
        <ele>126.5</ele>
        <time>2015-07-11T09:36:50.000Z</time>
      </trkpt>
      <trkpt lat="48.71715" lon="1.67768">
        <ele>126.2</ele>
        <time>2015-07-11T09:36:58.000Z</time>
      </trkpt>
      <trkpt lat="48.71723" lon="1.67759">
        <ele>126</ele>
        <time>2015-07-11T09:37:04.000Z</time>
      </trkpt>
      <trkpt lat="48.71731" lon="1.6775">
        <ele>126</ele>
        <time>2015-07-11T09:37:11.000Z</time>
      </trkpt>
      <trkpt lat="48.71743" lon="1.6774">
        <ele>126</ele>
        <time>2015-07-11T09:37:21.000Z</time>
      </trkpt>
      <trkpt lat="48.71749" lon="1.67734">
        <ele>126</ele>
        <time>2015-07-11T09:37:26.000Z</time>
      </trkpt>
      <trkpt lat="48.71762" lon="1.67721">
        <ele>125.6</ele>
        <time>2015-07-11T09:37:36.000Z</time>
      </trkpt>
      <trkpt lat="48.71765" lon="1.67717">
        <ele>125.6</ele>
        <time>2015-07-11T09:37:39.000Z</time>
      </trkpt>
      <trkpt lat="48.71772" lon="1.67711">
        <ele>125.5</ele>
        <time>2015-07-11T09:37:44.000Z</time>
      </trkpt>
      <trkpt lat="48.71774" lon="1.67709">
        <ele>125.5</ele>
        <time>2015-07-11T09:37:45.000Z</time>
      </trkpt>
      <trkpt lat="48.71784" lon="1.67695">
        <ele>125.8</ele>
        <time>2015-07-11T09:37:54.000Z</time>
      </trkpt>
      <trkpt lat="48.71791" lon="1.67686">
        <ele>125.5</ele>
        <time>2015-07-11T09:38:00.000Z</time>
      </trkpt>
      <trkpt lat="48.71797" lon="1.67677">
        <ele>125.3</ele>
        <time>2015-07-11T09:38:06.000Z</time>
      </trkpt>
      <trkpt lat="48.71807" lon="1.67663">
        <ele>125.1</ele>
        <time>2015-07-11T09:38:15.000Z</time>
      </trkpt>
      <trkpt lat="48.71816" lon="1.67653">
        <ele>125.3</ele>
        <time>2015-07-11T09:38:23.000Z</time>
      </trkpt>
      <trkpt lat="48.71823" lon="1.67647">
        <ele>125.2</ele>
        <time>2015-07-11T09:38:30.000Z</time>
      </trkpt>
      <trkpt lat="48.71824" lon="1.67646">
        <ele>125.2</ele>
        <time>2015-07-11T09:38:31.000Z</time>
      </trkpt>
      <trkpt lat="48.71827" lon="1.67635">
        <ele>125.2</ele>
        <time>2015-07-11T09:38:37.000Z</time>
      </trkpt>
      <trkpt lat="48.71831" lon="1.67626">
        <ele>125.1</ele>
        <time>2015-07-11T09:38:42.000Z</time>
      </trkpt>
      <trkpt lat="48.71834" lon="1.67611">
        <ele>125</ele>
        <time>2015-07-11T09:38:49.000Z</time>
      </trkpt>
      <trkpt lat="48.71838" lon="1.67601">
        <ele>125</ele>
        <time>2015-07-11T09:38:54.000Z</time>
      </trkpt>
      <trkpt lat="48.71844" lon="1.67583">
        <ele>125</ele>
        <time>2015-07-11T09:39:03.000Z</time>
      </trkpt>
      <trkpt lat="48.7185" lon="1.67567">
        <ele>124.4</ele>
        <time>2015-07-11T09:39:11.000Z</time>
      </trkpt>
      <trkpt lat="48.71854" lon="1.67552">
        <ele>124</ele>
        <time>2015-07-11T09:39:19.000Z</time>
      </trkpt>
      <trkpt lat="48.7186" lon="1.67537">
        <ele>124</ele>
        <time>2015-07-11T09:39:27.000Z</time>
      </trkpt>
      <trkpt lat="48.71865" lon="1.67524">
        <ele>124</ele>
        <time>2015-07-11T09:39:35.000Z</time>
      </trkpt>
      <trkpt lat="48.7187" lon="1.67507">
        <ele>123.8</ele>
        <time>2015-07-11T09:39:43.000Z</time>
      </trkpt>
      <trkpt lat="48.71875" lon="1.67495">
        <ele>123.5</ele>
        <time>2015-07-11T09:39:49.000Z</time>
      </trkpt>
      <trkpt lat="48.71875" lon="1.67494">
        <ele>123.5</ele>
        <time>2015-07-11T09:39:50.000Z</time>
      </trkpt>
      <trkpt lat="48.71872" lon="1.67483">
        <ele>123.6</ele>
        <time>2015-07-11T09:39:57.000Z</time>
      </trkpt>
      <trkpt lat="48.71865" lon="1.67475">
        <ele>123.8</ele>
        <time>2015-07-11T09:40:05.000Z</time>
      </trkpt>
      <trkpt lat="48.71858" lon="1.67467">
        <ele>124.1</ele>
        <time>2015-07-11T09:40:12.000Z</time>
      </trkpt>
      <trkpt lat="48.71853" lon="1.67463">
        <ele>124.3</ele>
        <time>2015-07-11T09:40:15.000Z</time>
      </trkpt>
      <trkpt lat="48.71846" lon="1.67455">
        <ele>124.5</ele>
        <time>2015-07-11T09:40:21.000Z</time>
      </trkpt>
      <trkpt lat="48.71837" lon="1.67445">
        <ele>124.9</ele>
        <time>2015-07-11T09:40:29.000Z</time>
      </trkpt>
      <trkpt lat="48.71836" lon="1.67444">
        <ele>124.9</ele>
        <time>2015-07-11T09:40:30.000Z</time>
      </trkpt>
      <trkpt lat="48.71832" lon="1.67442">
        <ele>125</ele>
        <time>2015-07-11T09:40:34.000Z</time>
      </trkpt>
      <trkpt lat="48.71825" lon="1.67431">
        <ele>125.1</ele>
        <time>2015-07-11T09:40:42.000Z</time>
      </trkpt>
      <trkpt lat="48.71819" lon="1.67416">
        <ele>125.5</ele>
        <time>2015-07-11T09:40:49.000Z</time>
      </trkpt>
      <trkpt lat="48.71813" lon="1.67398">
        <ele>125.7</ele>
        <time>2015-07-11T09:40:58.000Z</time>
      </trkpt>
      <trkpt lat="48.71812" lon="1.67396">
        <ele>125.8</ele>
        <time>2015-07-11T09:40:59.000Z</time>
      </trkpt>
      <trkpt lat="48.71808" lon="1.67384">
        <ele>125.9</ele>
        <time>2015-07-11T09:41:05.000Z</time>
      </trkpt>
      <trkpt lat="48.71805" lon="1.67372">
        <ele>126</ele>
        <time>2015-07-11T09:41:12.000Z</time>
      </trkpt>
      <trkpt lat="48.71804" lon="1.67363">
        <ele>126.1</ele>
        <time>2015-07-11T09:41:17.000Z</time>
      </trkpt>
      <trkpt lat="48.71799" lon="1.67354">
        <ele>126.2</ele>
        <time>2015-07-11T09:41:22.000Z</time>
      </trkpt>
      <trkpt lat="48.71796" lon="1.67348">
        <ele>126.3</ele>
        <time>2015-07-11T09:41:28.000Z</time>
      </trkpt>
      <trkpt lat="48.71796" lon="1.67348">
        <ele>126.4</ele>
        <time>2015-07-11T09:41:29.000Z</time>
      </trkpt>
      <trkpt lat="48.71792" lon="1.67332">
        <ele>126.5</ele>
        <time>2015-07-11T09:41:40.000Z</time>
      </trkpt>
      <trkpt lat="48.7179" lon="1.67328">
        <ele>126.4</ele>
        <time>2015-07-11T09:41:43.000Z</time>
      </trkpt>
      <trkpt lat="48.71787" lon="1.67325">
        <ele>126.4</ele>
        <time>2015-07-11T09:41:48.000Z</time>
      </trkpt>
      <trkpt lat="48.71783" lon="1.67323">
        <ele>126.4</ele>
        <time>2015-07-11T09:41:53.000Z</time>
      </trkpt>
      <trkpt lat="48.71777" lon="1.67322">
        <ele>126.6</ele>
        <time>2015-07-11T09:41:58.000Z</time>
      </trkpt>
      <trkpt lat="48.7177" lon="1.67324">
        <ele>126.8</ele>
        <time>2015-07-11T09:42:05.000Z</time>
      </trkpt>
      <trkpt lat="48.7177" lon="1.67324">
        <ele>126.8</ele>
        <time>2015-07-11T09:42:06.000Z</time>
      </trkpt>
      <trkpt lat="48.71765" lon="1.67322">
        <ele>126.8</ele>
        <time>2015-07-11T09:42:13.000Z</time>
      </trkpt>
      <trkpt lat="48.71766" lon="1.67322">
        <ele>126.8</ele>
        <time>2015-07-11T09:42:16.000Z</time>
      </trkpt>
      <trkpt lat="48.71766" lon="1.67315">
        <ele>126.6</ele>
        <time>2015-07-11T09:42:53.000Z</time>
      </trkpt>
      <trkpt lat="48.71767" lon="1.67318">
        <ele>126.7</ele>
        <time>2015-07-11T09:42:56.000Z</time>
      </trkpt>
      <trkpt lat="48.71765" lon="1.67313">
        <ele>126.6</ele>
        <time>2015-07-11T09:43:03.000Z</time>
      </trkpt>
      <trkpt lat="48.71766" lon="1.67311">
        <ele>126.5</ele>
        <time>2015-07-11T09:43:10.000Z</time>
      </trkpt>
      <trkpt lat="48.71765" lon="1.67307">
        <ele>126.5</ele>
        <time>2015-07-11T09:43:14.000Z</time>
      </trkpt>
      <trkpt lat="48.71767" lon="1.67306">
        <ele>126.4</ele>
        <time>2015-07-11T09:43:47.000Z</time>
      </trkpt>
      <trkpt lat="48.71768" lon="1.67305">
        <ele>126.3</ele>
        <time>2015-07-11T09:43:48.000Z</time>
      </trkpt>
      <trkpt lat="48.71768" lon="1.67306">
        <ele>126.4</ele>
        <time>2015-07-11T09:44:04.000Z</time>
      </trkpt>
      <trkpt lat="48.71762" lon="1.67305">
        <ele>126.5</ele>
        <time>2015-07-11T09:44:10.000Z</time>
      </trkpt>
      <trkpt lat="48.7176" lon="1.67304">
        <ele>126.6</ele>
        <time>2015-07-11T09:44:11.000Z</time>
      </trkpt>
      <trkpt lat="48.71757" lon="1.67304">
        <ele>126.7</ele>
        <time>2015-07-11T09:44:15.000Z</time>
      </trkpt>
      <trkpt lat="48.71774" lon="1.67302">
        <ele>126</ele>
        <time>2015-07-11T09:46:12.000Z</time>
      </trkpt>
      <trkpt lat="48.71774" lon="1.673">
        <ele>126</ele>
        <time>2015-07-11T09:46:14.000Z</time>
      </trkpt>
      <trkpt lat="48.71775" lon="1.673">
        <ele>125.9</ele>
        <time>2015-07-11T09:46:19.000Z</time>
      </trkpt>
      <trkpt lat="48.71782" lon="1.67303">
        <ele>125.8</ele>
        <time>2015-07-11T09:46:23.000Z</time>
      </trkpt>
      <trkpt lat="48.71783" lon="1.673">
        <ele>125.6</ele>
        <time>2015-07-11T09:46:29.000Z</time>
      </trkpt>
      <trkpt lat="48.7178" lon="1.67298">
        <ele>125.6</ele>
        <time>2015-07-11T09:46:30.000Z</time>
      </trkpt>
      <trkpt lat="48.71767" lon="1.67288">
        <ele>125.7</ele>
        <time>2015-07-11T09:46:40.000Z</time>
      </trkpt>
      <trkpt lat="48.71769" lon="1.67287">
        <ele>125.7</ele>
        <time>2015-07-11T09:46:43.000Z</time>
      </trkpt>
      <trkpt lat="48.71773" lon="1.67289">
        <ele>125.6</ele>
        <time>2015-07-11T09:46:48.000Z</time>
      </trkpt>
      <trkpt lat="48.71748" lon="1.67345">
        <ele>127.4</ele>
        <time>2015-07-11T10:11:50.000Z</time>
      </trkpt>
      <trkpt lat="48.71753" lon="1.67335">
        <ele>127</ele>
        <time>2015-07-11T10:11:55.000Z</time>
      </trkpt>
      <trkpt lat="48.71763" lon="1.67324">
        <ele>126.8</ele>
        <time>2015-07-11T10:12:01.000Z</time>
      </trkpt>
      <trkpt lat="48.71774" lon="1.67317">
        <ele>126.5</ele>
        <time>2015-07-11T10:12:07.000Z</time>
      </trkpt>
      <trkpt lat="48.71784" lon="1.67315">
        <ele>126.1</ele>
        <time>2015-07-11T10:12:12.000Z</time>
      </trkpt>
      <trkpt lat="48.71787" lon="1.67316">
        <ele>126</ele>
        <time>2015-07-11T10:12:14.000Z</time>
      </trkpt>
      <trkpt lat="48.71796" lon="1.67325">
        <ele>126</ele>
        <time>2015-07-11T10:12:22.000Z</time>
      </trkpt>
      <trkpt lat="48.71798" lon="1.67326">
        <ele>126</ele>
        <time>2015-07-11T10:12:23.000Z</time>
      </trkpt>
      <trkpt lat="48.71805" lon="1.67341">
        <ele>126</ele>
        <time>2015-07-11T10:12:30.000Z</time>
      </trkpt>
      <trkpt lat="48.71808" lon="1.67358">
        <ele>125.9</ele>
        <time>2015-07-11T10:12:38.000Z</time>
      </trkpt>
      <trkpt lat="48.71809" lon="1.67364">
        <ele>125.9</ele>
        <time>2015-07-11T10:12:41.000Z</time>
      </trkpt>
      <trkpt lat="48.71808" lon="1.67366">
        <ele>125.9</ele>
        <time>2015-07-11T10:12:43.000Z</time>
      </trkpt>
      <trkpt lat="48.71809" lon="1.67373">
        <ele>125.9</ele>
        <time>2015-07-11T10:12:47.000Z</time>
      </trkpt>
      <trkpt lat="48.71813" lon="1.67389">
        <ele>125.7</ele>
        <time>2015-07-11T10:12:56.000Z</time>
      </trkpt>
      <trkpt lat="48.71813" lon="1.67396">
        <ele>125.7</ele>
        <time>2015-07-11T10:13:00.000Z</time>
      </trkpt>
      <trkpt lat="48.71817" lon="1.67409">
        <ele>125.6</ele>
        <time>2015-07-11T10:13:08.000Z</time>
      </trkpt>
      <trkpt lat="48.71819" lon="1.67414">
        <ele>125.5</ele>
        <time>2015-07-11T10:13:12.000Z</time>
      </trkpt>
      <trkpt lat="48.71823" lon="1.67424">
        <ele>125.3</ele>
        <time>2015-07-11T10:13:19.000Z</time>
      </trkpt>
      <trkpt lat="48.71833" lon="1.67433">
        <ele>125</ele>
        <time>2015-07-11T10:13:26.000Z</time>
      </trkpt>
      <trkpt lat="48.71839" lon="1.6744">
        <ele>124.8</ele>
        <time>2015-07-11T10:13:30.000Z</time>
      </trkpt>
      <trkpt lat="48.71848" lon="1.67452">
        <ele>124.5</ele>
        <time>2015-07-11T10:13:37.000Z</time>
      </trkpt>
      <trkpt lat="48.71852" lon="1.67459">
        <ele>124.3</ele>
        <time>2015-07-11T10:13:44.000Z</time>
      </trkpt>
      <trkpt lat="48.7186" lon="1.67463">
        <ele>124</ele>
        <time>2015-07-11T10:13:51.000Z</time>
      </trkpt>
      <trkpt lat="48.71867" lon="1.67472">
        <ele>123.8</ele>
        <time>2015-07-11T10:13:58.000Z</time>
      </trkpt>
      <trkpt lat="48.71873" lon="1.67481">
        <ele>123.6</ele>
        <time>2015-07-11T10:14:04.000Z</time>
      </trkpt>
      <trkpt lat="48.7188" lon="1.67489">
        <ele>123.3</ele>
        <time>2015-07-11T10:14:11.000Z</time>
      </trkpt>
      <trkpt lat="48.71881" lon="1.6749">
        <ele>123.3</ele>
        <time>2015-07-11T10:14:12.000Z</time>
      </trkpt>
      <trkpt lat="48.71886" lon="1.67491">
        <ele>123.1</ele>
        <time>2015-07-11T10:14:16.000Z</time>
      </trkpt>
      <trkpt lat="48.71887" lon="1.67492">
        <ele>123.1</ele>
        <time>2015-07-11T10:14:21.000Z</time>
      </trkpt>
      <trkpt lat="48.71878" lon="1.67497">
        <ele>123.4</ele>
        <time>2015-07-11T10:14:53.000Z</time>
      </trkpt>
      <trkpt lat="48.71872" lon="1.67505">
        <ele>123.7</ele>
        <time>2015-07-11T10:14:57.000Z</time>
      </trkpt>
      <trkpt lat="48.71869" lon="1.6751">
        <ele>123.8</ele>
        <time>2015-07-11T10:15:01.000Z</time>
      </trkpt>
      <trkpt lat="48.71869" lon="1.67512">
        <ele>123.8</ele>
        <time>2015-07-11T10:15:03.000Z</time>
      </trkpt>
      <trkpt lat="48.71865" lon="1.67523">
        <ele>124</ele>
        <time>2015-07-11T10:15:09.000Z</time>
      </trkpt>
      <trkpt lat="48.71858" lon="1.67545">
        <ele>124</ele>
        <time>2015-07-11T10:15:20.000Z</time>
      </trkpt>
      <trkpt lat="48.71852" lon="1.67559">
        <ele>124.1</ele>
        <time>2015-07-11T10:15:27.000Z</time>
      </trkpt>
      <trkpt lat="48.71848" lon="1.67571">
        <ele>124.6</ele>
        <time>2015-07-11T10:15:33.000Z</time>
      </trkpt>
      <trkpt lat="48.71842" lon="1.6759">
        <ele>125</ele>
        <time>2015-07-11T10:15:42.000Z</time>
      </trkpt>
      <trkpt lat="48.71838" lon="1.67604">
        <ele>125</ele>
        <time>2015-07-11T10:15:49.000Z</time>
      </trkpt>
      <trkpt lat="48.71834" lon="1.67614">
        <ele>125</ele>
        <time>2015-07-11T10:15:54.000Z</time>
      </trkpt>
      <trkpt lat="48.71828" lon="1.6763">
        <ele>125.2</ele>
        <time>2015-07-11T10:16:02.000Z</time>
      </trkpt>
      <trkpt lat="48.71821" lon="1.67642">
        <ele>125.4</ele>
        <time>2015-07-11T10:16:09.000Z</time>
      </trkpt>
      <trkpt lat="48.71815" lon="1.67651">
        <ele>125.4</ele>
        <time>2015-07-11T10:16:15.000Z</time>
      </trkpt>
      <trkpt lat="48.71808" lon="1.67659">
        <ele>125.3</ele>
        <time>2015-07-11T10:16:21.000Z</time>
      </trkpt>
      <trkpt lat="48.71797" lon="1.67675">
        <ele>125.3</ele>
        <time>2015-07-11T10:16:31.000Z</time>
      </trkpt>
      <trkpt lat="48.71783" lon="1.67692">
        <ele>125.8</ele>
        <time>2015-07-11T10:16:43.000Z</time>
      </trkpt>
      <trkpt lat="48.71773" lon="1.67707">
        <ele>125.6</ele>
        <time>2015-07-11T10:16:53.000Z</time>
      </trkpt>
      <trkpt lat="48.71763" lon="1.6772">
        <ele>125.6</ele>
        <time>2015-07-11T10:17:02.000Z</time>
      </trkpt>
      <trkpt lat="48.71751" lon="1.67733">
        <ele>126</ele>
        <time>2015-07-11T10:17:12.000Z</time>
      </trkpt>
      <trkpt lat="48.71739" lon="1.67742">
        <ele>126</ele>
        <time>2015-07-11T10:17:21.000Z</time>
      </trkpt>
      <trkpt lat="48.71732" lon="1.6775">
        <ele>126</ele>
        <time>2015-07-11T10:17:28.000Z</time>
      </trkpt>
      <trkpt lat="48.71727" lon="1.67755">
        <ele>126</ele>
        <time>2015-07-11T10:17:34.000Z</time>
      </trkpt>
      <trkpt lat="48.71727" lon="1.67755">
        <ele>126</ele>
        <time>2015-07-11T10:17:35.000Z</time>
      </trkpt>
      <trkpt lat="48.71723" lon="1.67763">
        <ele>126</ele>
        <time>2015-07-11T10:17:48.000Z</time>
      </trkpt>
      <trkpt lat="48.71713" lon="1.67773">
        <ele>126.3</ele>
        <time>2015-07-11T10:17:55.000Z</time>
      </trkpt>
      <trkpt lat="48.71705" lon="1.6778">
        <ele>126.6</ele>
        <time>2015-07-11T10:18:01.000Z</time>
      </trkpt>
      <trkpt lat="48.71693" lon="1.6779">
        <ele>126.6</ele>
        <time>2015-07-11T10:18:09.000Z</time>
      </trkpt>
      <trkpt lat="48.71679" lon="1.67804">
        <ele>126.6</ele>
        <time>2015-07-11T10:18:19.000Z</time>
      </trkpt>
      <trkpt lat="48.71666" lon="1.67816">
        <ele>127</ele>
        <time>2015-07-11T10:18:29.000Z</time>
      </trkpt>
      <trkpt lat="48.71655" lon="1.67826">
        <ele>127.1</ele>
        <time>2015-07-11T10:18:38.000Z</time>
      </trkpt>
      <trkpt lat="48.71641" lon="1.67842">
        <ele>127</ele>
        <time>2015-07-11T10:18:49.000Z</time>
      </trkpt>
      <trkpt lat="48.71632" lon="1.6785">
        <ele>127.1</ele>
        <time>2015-07-11T10:18:56.000Z</time>
      </trkpt>
      <trkpt lat="48.71621" lon="1.6786">
        <ele>127</ele>
        <time>2015-07-11T10:19:04.000Z</time>
      </trkpt>
      <trkpt lat="48.71617" lon="1.67864">
        <ele>127</ele>
        <time>2015-07-11T10:19:09.000Z</time>
      </trkpt>
      <trkpt lat="48.71611" lon="1.67873">
        <ele>127</ele>
        <time>2015-07-11T10:19:21.000Z</time>
      </trkpt>
      <trkpt lat="48.7161" lon="1.67874">
        <ele>127</ele>
        <time>2015-07-11T10:19:22.000Z</time>
      </trkpt>
      <trkpt lat="48.71603" lon="1.67881">
        <ele>127</ele>
        <time>2015-07-11T10:19:26.000Z</time>
      </trkpt>
      <trkpt lat="48.71591" lon="1.67894">
        <ele>126.8</ele>
        <time>2015-07-11T10:19:33.000Z</time>
      </trkpt>
      <trkpt lat="48.71587" lon="1.67899">
        <ele>126.6</ele>
        <time>2015-07-11T10:19:38.000Z</time>
      </trkpt>
      <trkpt lat="48.7159" lon="1.67897">
        <ele>126.7</ele>
        <time>2015-07-11T10:19:43.000Z</time>
      </trkpt>
      <trkpt lat="48.7159" lon="1.67896">
        <ele>126.7</ele>
        <time>2015-07-11T10:19:45.000Z</time>
      </trkpt>
      <trkpt lat="48.71584" lon="1.67901">
        <ele>126.6</ele>
        <time>2015-07-11T10:19:53.000Z</time>
      </trkpt>
      <trkpt lat="48.71576" lon="1.67911">
        <ele>126.4</ele>
        <time>2015-07-11T10:19:59.000Z</time>
      </trkpt>
      <trkpt lat="48.71568" lon="1.67919">
        <ele>126.5</ele>
        <time>2015-07-11T10:20:05.000Z</time>
      </trkpt>
      <trkpt lat="48.71561" lon="1.67928">
        <ele>126.8</ele>
        <time>2015-07-11T10:20:11.000Z</time>
      </trkpt>
      <trkpt lat="48.71552" lon="1.67938">
        <ele>127.1</ele>
        <time>2015-07-11T10:20:18.000Z</time>
      </trkpt>
      <trkpt lat="48.71543" lon="1.67948">
        <ele>127.4</ele>
        <time>2015-07-11T10:20:25.000Z</time>
      </trkpt>
      <trkpt lat="48.71531" lon="1.67959">
        <ele>127.8</ele>
        <time>2015-07-11T10:20:33.000Z</time>
      </trkpt>
      <trkpt lat="48.71521" lon="1.67969">
        <ele>128.3</ele>
        <time>2015-07-11T10:20:41.000Z</time>
      </trkpt>
      <trkpt lat="48.71507" lon="1.67982">
        <ele>128.8</ele>
        <time>2015-07-11T10:20:51.000Z</time>
      </trkpt>
      <trkpt lat="48.71497" lon="1.67994">
        <ele>129.1</ele>
        <time>2015-07-11T10:20:59.000Z</time>
      </trkpt>
      <trkpt lat="48.71491" lon="1.68008">
        <ele>129.3</ele>
        <time>2015-07-11T10:21:06.000Z</time>
      </trkpt>
      <trkpt lat="48.71485" lon="1.68026">
        <ele>129.6</ele>
        <time>2015-07-11T10:21:14.000Z</time>
      </trkpt>
      <trkpt lat="48.71481" lon="1.68042">
        <ele>129.2</ele>
        <time>2015-07-11T10:21:21.000Z</time>
      </trkpt>
      <trkpt lat="48.71479" lon="1.68061">
        <ele>128.8</ele>
        <time>2015-07-11T10:21:29.000Z</time>
      </trkpt>
      <trkpt lat="48.71479" lon="1.68087">
        <ele>129.1</ele>
        <time>2015-07-11T10:21:40.000Z</time>
      </trkpt>
      <trkpt lat="48.71482" lon="1.68108">
        <ele>129.6</ele>
        <time>2015-07-11T10:21:49.000Z</time>
      </trkpt>
      <trkpt lat="48.71489" lon="1.68129">
        <ele>129.1</ele>
        <time>2015-07-11T10:21:58.000Z</time>
      </trkpt>
      <trkpt lat="48.71497" lon="1.68152">
        <ele>129.1</ele>
        <time>2015-07-11T10:22:08.000Z</time>
      </trkpt>
      <trkpt lat="48.71501" lon="1.68165">
        <ele>129</ele>
        <time>2015-07-11T10:22:14.000Z</time>
      </trkpt>
      <trkpt lat="48.71504" lon="1.68186">
        <ele>128.9</ele>
        <time>2015-07-11T10:22:23.000Z</time>
      </trkpt>
      <trkpt lat="48.71507" lon="1.68208">
        <ele>129.2</ele>
        <time>2015-07-11T10:22:32.000Z</time>
      </trkpt>
      <trkpt lat="48.7151" lon="1.68234">
        <ele>129.6</ele>
        <time>2015-07-11T10:22:43.000Z</time>
      </trkpt>
      <trkpt lat="48.71513" lon="1.68262">
        <ele>129.5</ele>
        <time>2015-07-11T10:22:55.000Z</time>
      </trkpt>
      <trkpt lat="48.71515" lon="1.68281">
        <ele>129.5</ele>
        <time>2015-07-11T10:23:03.000Z</time>
      </trkpt>
      <trkpt lat="48.71515" lon="1.68308">
        <ele>129.9</ele>
        <time>2015-07-11T10:23:14.000Z</time>
      </trkpt>
      <trkpt lat="48.71513" lon="1.68331">
        <ele>130.1</ele>
        <time>2015-07-11T10:23:24.000Z</time>
      </trkpt>
      <trkpt lat="48.71508" lon="1.68349">
        <ele>130.4</ele>
        <time>2015-07-11T10:23:32.000Z</time>
      </trkpt>
      <trkpt lat="48.71504" lon="1.6837">
        <ele>130.4</ele>
        <time>2015-07-11T10:23:42.000Z</time>
      </trkpt>
      <trkpt lat="48.715" lon="1.68387">
        <ele>130.1</ele>
        <time>2015-07-11T10:23:50.000Z</time>
      </trkpt>
      <trkpt lat="48.71497" lon="1.68403">
        <ele>130.7</ele>
        <time>2015-07-11T10:23:57.000Z</time>
      </trkpt>
      <trkpt lat="48.71494" lon="1.68422">
        <ele>131.2</ele>
        <time>2015-07-11T10:24:05.000Z</time>
      </trkpt>
      <trkpt lat="48.71493" lon="1.68449">
        <ele>131.3</ele>
        <time>2015-07-11T10:24:16.000Z</time>
      </trkpt>
      <trkpt lat="48.71496" lon="1.68473">
        <ele>131.3</ele>
        <time>2015-07-11T10:24:26.000Z</time>
      </trkpt>
      <trkpt lat="48.71496" lon="1.68475">
        <ele>131.3</ele>
        <time>2015-07-11T10:24:27.000Z</time>
      </trkpt>
      <trkpt lat="48.715" lon="1.68491">
        <ele>131</ele>
        <time>2015-07-11T10:24:34.000Z</time>
      </trkpt>
      <trkpt lat="48.71504" lon="1.68508">
        <ele>131.1</ele>
        <time>2015-07-11T10:24:41.000Z</time>
      </trkpt>
      <trkpt lat="48.71509" lon="1.6853">
        <ele>131.8</ele>
        <time>2015-07-11T10:24:51.000Z</time>
      </trkpt>
      <trkpt lat="48.71509" lon="1.68532">
        <ele>131.8</ele>
        <time>2015-07-11T10:24:52.000Z</time>
      </trkpt>
      <trkpt lat="48.71512" lon="1.68548">
        <ele>132.3</ele>
        <time>2015-07-11T10:24:59.000Z</time>
      </trkpt>
      <trkpt lat="48.71512" lon="1.6855">
        <ele>132.4</ele>
        <time>2015-07-11T10:25:00.000Z</time>
      </trkpt>
      <trkpt lat="48.71514" lon="1.68565">
        <ele>133</ele>
        <time>2015-07-11T10:25:07.000Z</time>
      </trkpt>
      <trkpt lat="48.71515" lon="1.68591">
        <ele>133.9</ele>
        <time>2015-07-11T10:25:18.000Z</time>
      </trkpt>
      <trkpt lat="48.71514" lon="1.68611">
        <ele>134</ele>
        <time>2015-07-11T10:25:26.000Z</time>
      </trkpt>
      <trkpt lat="48.71513" lon="1.68632">
        <ele>133.7</ele>
        <time>2015-07-11T10:25:34.000Z</time>
      </trkpt>
      <trkpt lat="48.71512" lon="1.6865">
        <ele>133.9</ele>
        <time>2015-07-11T10:25:42.000Z</time>
      </trkpt>
      <trkpt lat="48.71511" lon="1.68664">
        <ele>134.5</ele>
        <time>2015-07-11T10:25:49.000Z</time>
      </trkpt>
      <trkpt lat="48.71508" lon="1.68681">
        <ele>135.1</ele>
        <time>2015-07-11T10:25:57.000Z</time>
      </trkpt>
      <trkpt lat="48.71504" lon="1.68704">
        <ele>135.4</ele>
        <time>2015-07-11T10:26:07.000Z</time>
      </trkpt>
      <trkpt lat="48.71502" lon="1.6872">
        <ele>135</ele>
        <time>2015-07-11T10:26:14.000Z</time>
      </trkpt>
      <trkpt lat="48.71499" lon="1.68735">
        <ele>135.5</ele>
        <time>2015-07-11T10:26:21.000Z</time>
      </trkpt>
      <trkpt lat="48.71497" lon="1.6875">
        <ele>136.1</ele>
        <time>2015-07-11T10:26:28.000Z</time>
      </trkpt>
      <trkpt lat="48.71494" lon="1.68766">
        <ele>135.8</ele>
        <time>2015-07-11T10:26:35.000Z</time>
      </trkpt>
      <trkpt lat="48.7149" lon="1.68781">
        <ele>135.6</ele>
        <time>2015-07-11T10:26:42.000Z</time>
      </trkpt>
      <trkpt lat="48.71488" lon="1.68794">
        <ele>135.3</ele>
        <time>2015-07-11T10:26:48.000Z</time>
      </trkpt>
      <trkpt lat="48.71483" lon="1.68815">
        <ele>134.7</ele>
        <time>2015-07-11T10:26:58.000Z</time>
      </trkpt>
      <trkpt lat="48.71479" lon="1.68827">
        <ele>134.1</ele>
        <time>2015-07-11T10:27:04.000Z</time>
      </trkpt>
      <trkpt lat="48.71472" lon="1.68849">
        <ele>133.5</ele>
        <time>2015-07-11T10:27:14.000Z</time>
      </trkpt>
      <trkpt lat="48.71466" lon="1.68856">
        <ele>133.6</ele>
        <time>2015-07-11T10:27:19.000Z</time>
      </trkpt>
      <trkpt lat="48.71462" lon="1.68866">
        <ele>133.5</ele>
        <time>2015-07-11T10:27:25.000Z</time>
      </trkpt>
      <trkpt lat="48.71458" lon="1.68878">
        <ele>133.1</ele>
        <time>2015-07-11T10:27:31.000Z</time>
      </trkpt>
      <trkpt lat="48.71452" lon="1.6889">
        <ele>132.7</ele>
        <time>2015-07-11T10:27:37.000Z</time>
      </trkpt>
      <trkpt lat="48.71444" lon="1.68907">
        <ele>132.4</ele>
        <time>2015-07-11T10:27:46.000Z</time>
      </trkpt>
      <trkpt lat="48.71439" lon="1.68917">
        <ele>132.4</ele>
        <time>2015-07-11T10:27:52.000Z</time>
      </trkpt>
      <trkpt lat="48.71432" lon="1.6892">
        <ele>132.9</ele>
        <time>2015-07-11T10:27:59.000Z</time>
      </trkpt>
      <trkpt lat="48.71429" lon="1.68917">
        <ele>133.1</ele>
        <time>2015-07-11T10:28:02.000Z</time>
      </trkpt>
      <trkpt lat="48.71424" lon="1.68904">
        <ele>133.9</ele>
        <time>2015-07-11T10:28:10.000Z</time>
      </trkpt>
      <trkpt lat="48.71421" lon="1.68894">
        <ele>134.5</ele>
        <time>2015-07-11T10:28:15.000Z</time>
      </trkpt>
      <trkpt lat="48.71416" lon="1.6888">
        <ele>135</ele>
        <time>2015-07-11T10:28:22.000Z</time>
      </trkpt>
      <trkpt lat="48.71413" lon="1.68868">
        <ele>135.3</ele>
        <time>2015-07-11T10:28:30.000Z</time>
      </trkpt>
      <trkpt lat="48.71412" lon="1.68866">
        <ele>135.5</ele>
        <time>2015-07-11T10:28:32.000Z</time>
      </trkpt>
      <trkpt lat="48.7141" lon="1.68864">
        <ele>135.7</ele>
        <time>2015-07-11T10:28:34.000Z</time>
      </trkpt>
      <trkpt lat="48.71406" lon="1.68851">
        <ele>137</ele>
        <time>2015-07-11T10:28:41.000Z</time>
      </trkpt>
      <trkpt lat="48.71404" lon="1.68848">
        <ele>137.3</ele>
        <time>2015-07-11T10:28:43.000Z</time>
      </trkpt>
      <trkpt lat="48.71401" lon="1.68835">
        <ele>138.4</ele>
        <time>2015-07-11T10:28:50.000Z</time>
      </trkpt>
      <trkpt lat="48.714" lon="1.68832">
        <ele>138.7</ele>
        <time>2015-07-11T10:28:52.000Z</time>
      </trkpt>
      <trkpt lat="48.71395" lon="1.68819">
        <ele>139.4</ele>
        <time>2015-07-11T10:28:58.000Z</time>
      </trkpt>
      <trkpt lat="48.71389" lon="1.68803">
        <ele>140.1</ele>
        <time>2015-07-11T10:29:07.000Z</time>
      </trkpt>
      <trkpt lat="48.71385" lon="1.68792">
        <ele>140.7</ele>
        <time>2015-07-11T10:29:14.000Z</time>
      </trkpt>
      <trkpt lat="48.71384" lon="1.68787">
        <ele>140.9</ele>
        <time>2015-07-11T10:29:17.000Z</time>
      </trkpt>
      <trkpt lat="48.71383" lon="1.68775">
        <ele>141.2</ele>
        <time>2015-07-11T10:29:23.000Z</time>
      </trkpt>
      <trkpt lat="48.71381" lon="1.68768">
        <ele>141.4</ele>
        <time>2015-07-11T10:29:27.000Z</time>
      </trkpt>
      <trkpt lat="48.71378" lon="1.68761">
        <ele>141.6</ele>
        <time>2015-07-11T10:29:31.000Z</time>
      </trkpt>
      <trkpt lat="48.71374" lon="1.68754">
        <ele>142</ele>
        <time>2015-07-11T10:29:36.000Z</time>
      </trkpt>
      <trkpt lat="48.71373" lon="1.68751">
        <ele>142.1</ele>
        <time>2015-07-11T10:29:38.000Z</time>
      </trkpt>
      <trkpt lat="48.7137" lon="1.68741">
        <ele>142.5</ele>
        <time>2015-07-11T10:29:42.000Z</time>
      </trkpt>
      <trkpt lat="48.71365" lon="1.68731">
        <ele>142.8</ele>
        <time>2015-07-11T10:29:48.000Z</time>
      </trkpt>
      <trkpt lat="48.71361" lon="1.68721">
        <ele>143</ele>
        <time>2015-07-11T10:29:55.000Z</time>
      </trkpt>
      <trkpt lat="48.71356" lon="1.68707">
        <ele>144.1</ele>
        <time>2015-07-11T10:30:02.000Z</time>
      </trkpt>
      <trkpt lat="48.71352" lon="1.68698">
        <ele>144.8</ele>
        <time>2015-07-11T10:30:06.000Z</time>
      </trkpt>
      <trkpt lat="48.71348" lon="1.68689">
        <ele>145.6</ele>
        <time>2015-07-11T10:30:10.000Z</time>
      </trkpt>
      <trkpt lat="48.71341" lon="1.68673">
        <ele>147</ele>
        <time>2015-07-11T10:30:19.000Z</time>
      </trkpt>
      <trkpt lat="48.71337" lon="1.68663">
        <ele>147.6</ele>
        <time>2015-07-11T10:30:25.000Z</time>
      </trkpt>
      <trkpt lat="48.71337" lon="1.68662">
        <ele>147.6</ele>
        <time>2015-07-11T10:30:26.000Z</time>
      </trkpt>
      <trkpt lat="48.71334" lon="1.68647">
        <ele>147.9</ele>
        <time>2015-07-11T10:30:34.000Z</time>
      </trkpt>
      <trkpt lat="48.71328" lon="1.68629">
        <ele>148.6</ele>
        <time>2015-07-11T10:30:43.000Z</time>
      </trkpt>
      <trkpt lat="48.71325" lon="1.68621">
        <ele>148.7</ele>
        <time>2015-07-11T10:30:47.000Z</time>
      </trkpt>
      <trkpt lat="48.71323" lon="1.68606">
        <ele>148.5</ele>
        <time>2015-07-11T10:30:55.000Z</time>
      </trkpt>
      <trkpt lat="48.7132" lon="1.68594">
        <ele>148.9</ele>
        <time>2015-07-11T10:31:02.000Z</time>
      </trkpt>
      <trkpt lat="48.7132" lon="1.68582">
        <ele>149</ele>
        <time>2015-07-11T10:31:08.000Z</time>
      </trkpt>
      <trkpt lat="48.71318" lon="1.6857">
        <ele>148.8</ele>
        <time>2015-07-11T10:31:15.000Z</time>
      </trkpt>
      <trkpt lat="48.71317" lon="1.68565">
        <ele>148.8</ele>
        <time>2015-07-11T10:31:18.000Z</time>
      </trkpt>
      <trkpt lat="48.71316" lon="1.68556">
        <ele>148.6</ele>
        <time>2015-07-11T10:31:22.000Z</time>
      </trkpt>
      <trkpt lat="48.71313" lon="1.6854">
        <ele>147.8</ele>
        <time>2015-07-11T10:31:29.000Z</time>
      </trkpt>
      <trkpt lat="48.71312" lon="1.68524">
        <ele>146.7</ele>
        <time>2015-07-11T10:31:37.000Z</time>
      </trkpt>
      <trkpt lat="48.7131" lon="1.68511">
        <ele>145.8</ele>
        <time>2015-07-11T10:31:43.000Z</time>
      </trkpt>
      <trkpt lat="48.71308" lon="1.68506">
        <ele>145.4</ele>
        <time>2015-07-11T10:31:45.000Z</time>
      </trkpt>
      <trkpt lat="48.71305" lon="1.68501">
        <ele>145.1</ele>
        <time>2015-07-11T10:31:49.000Z</time>
      </trkpt>
      <trkpt lat="48.713" lon="1.68488">
        <ele>145.4</ele>
        <time>2015-07-11T10:31:56.000Z</time>
      </trkpt>
      <trkpt lat="48.71294" lon="1.68473">
        <ele>145.6</ele>
        <time>2015-07-11T10:32:03.000Z</time>
      </trkpt>
      <trkpt lat="48.7129" lon="1.68465">
        <ele>145.6</ele>
        <time>2015-07-11T10:32:08.000Z</time>
      </trkpt>
      <trkpt lat="48.71283" lon="1.68457">
        <ele>145.7</ele>
        <time>2015-07-11T10:32:15.000Z</time>
      </trkpt>
      <trkpt lat="48.71272" lon="1.68448">
        <ele>145.8</ele>
        <time>2015-07-11T10:32:24.000Z</time>
      </trkpt>
      <trkpt lat="48.71263" lon="1.68441">
        <ele>145.7</ele>
        <time>2015-07-11T10:32:31.000Z</time>
      </trkpt>
      <trkpt lat="48.71252" lon="1.68433">
        <ele>145.6</ele>
        <time>2015-07-11T10:32:39.000Z</time>
      </trkpt>
      <trkpt lat="48.71252" lon="1.68432">
        <ele>145.6</ele>
        <time>2015-07-11T10:32:40.000Z</time>
      </trkpt>
      <trkpt lat="48.71244" lon="1.68429">
        <ele>145.9</ele>
        <time>2015-07-11T10:32:47.000Z</time>
      </trkpt>
      <trkpt lat="48.71233" lon="1.68428">
        <ele>146.7</ele>
        <time>2015-07-11T10:32:54.000Z</time>
      </trkpt>
      <trkpt lat="48.71228" lon="1.68428">
        <ele>147.1</ele>
        <time>2015-07-11T10:32:57.000Z</time>
      </trkpt>
      <trkpt lat="48.71216" lon="1.68427">
        <ele>147.9</ele>
        <time>2015-07-11T10:33:05.000Z</time>
      </trkpt>
      <trkpt lat="48.71205" lon="1.6843">
        <ele>149.2</ele>
        <time>2015-07-11T10:33:11.000Z</time>
      </trkpt>
      <trkpt lat="48.71196" lon="1.68431">
        <ele>149.9</ele>
        <time>2015-07-11T10:33:16.000Z</time>
      </trkpt>
      <trkpt lat="48.71188" lon="1.6843">
        <ele>150.3</ele>
        <time>2015-07-11T10:33:23.000Z</time>
      </trkpt>
      <trkpt lat="48.71183" lon="1.6843">
        <ele>150.6</ele>
        <time>2015-07-11T10:33:26.000Z</time>
      </trkpt>
      <trkpt lat="48.71169" lon="1.68433">
        <ele>151.7</ele>
        <time>2015-07-11T10:33:36.000Z</time>
      </trkpt>
      <trkpt lat="48.7116" lon="1.68437">
        <ele>152.3</ele>
        <time>2015-07-11T10:33:43.000Z</time>
      </trkpt>
      <trkpt lat="48.7115" lon="1.68446">
        <ele>152.6</ele>
        <time>2015-07-11T10:33:50.000Z</time>
      </trkpt>
      <trkpt lat="48.71147" lon="1.68449">
        <ele>152.7</ele>
        <time>2015-07-11T10:33:52.000Z</time>
      </trkpt>
      <trkpt lat="48.71137" lon="1.68458">
        <ele>153.4</ele>
        <time>2015-07-11T10:33:59.000Z</time>
      </trkpt>
      <trkpt lat="48.71135" lon="1.6846">
        <ele>153.7</ele>
        <time>2015-07-11T10:34:00.000Z</time>
      </trkpt>
      <trkpt lat="48.71129" lon="1.6847">
        <ele>154.6</ele>
        <time>2015-07-11T10:34:06.000Z</time>
      </trkpt>
      <trkpt lat="48.71123" lon="1.68478">
        <ele>155.3</ele>
        <time>2015-07-11T10:34:11.000Z</time>
      </trkpt>
      <trkpt lat="48.71117" lon="1.68487">
        <ele>155.7</ele>
        <time>2015-07-11T10:34:19.000Z</time>
      </trkpt>
      <trkpt lat="48.71114" lon="1.68491">
        <ele>155.5</ele>
        <time>2015-07-11T10:34:22.000Z</time>
      </trkpt>
      <trkpt lat="48.711" lon="1.68499">
        <ele>155.5</ele>
        <time>2015-07-11T10:34:29.000Z</time>
      </trkpt>
      <trkpt lat="48.71093" lon="1.685">
        <ele>155.3</ele>
        <time>2015-07-11T10:34:34.000Z</time>
      </trkpt>
      <trkpt lat="48.71083" lon="1.68498">
        <ele>154.9</ele>
        <time>2015-07-11T10:34:42.000Z</time>
      </trkpt>
      <trkpt lat="48.71082" lon="1.68499">
        <ele>155</ele>
        <time>2015-07-11T10:34:43.000Z</time>
      </trkpt>
      <trkpt lat="48.71071" lon="1.68501">
        <ele>155.7</ele>
        <time>2015-07-11T10:34:49.000Z</time>
      </trkpt>
      <trkpt lat="48.71062" lon="1.68504">
        <ele>156.4</ele>
        <time>2015-07-11T10:34:55.000Z</time>
      </trkpt>
      <trkpt lat="48.71056" lon="1.68506">
        <ele>156.8</ele>
        <time>2015-07-11T10:35:01.000Z</time>
      </trkpt>
      <trkpt lat="48.71054" lon="1.68505">
        <ele>156.8</ele>
        <time>2015-07-11T10:35:03.000Z</time>
      </trkpt>
      <trkpt lat="48.71045" lon="1.68507">
        <ele>157.2</ele>
        <time>2015-07-11T10:35:11.000Z</time>
      </trkpt>
      <trkpt lat="48.71037" lon="1.68509">
        <ele>157.6</ele>
        <time>2015-07-11T10:35:17.000Z</time>
      </trkpt>
      <trkpt lat="48.71036" lon="1.6851">
        <ele>157.7</ele>
        <time>2015-07-11T10:35:18.000Z</time>
      </trkpt>
      <trkpt lat="48.71026" lon="1.68511">
        <ele>158.1</ele>
        <time>2015-07-11T10:35:25.000Z</time>
      </trkpt>
      <trkpt lat="48.7102" lon="1.68514">
        <ele>158.8</ele>
        <time>2015-07-11T10:35:29.000Z</time>
      </trkpt>
      <trkpt lat="48.7101" lon="1.68523">
        <ele>160.3</ele>
        <time>2015-07-11T10:35:36.000Z</time>
      </trkpt>
      <trkpt lat="48.71004" lon="1.68529">
        <ele>161.3</ele>
        <time>2015-07-11T10:35:41.000Z</time>
      </trkpt>
      <trkpt lat="48.70996" lon="1.68535">
        <ele>162.3</ele>
        <time>2015-07-11T10:35:46.000Z</time>
      </trkpt>
      <trkpt lat="48.7099" lon="1.68539">
        <ele>163.1</ele>
        <time>2015-07-11T10:35:50.000Z</time>
      </trkpt>
      <trkpt lat="48.70985" lon="1.68541">
        <ele>163.3</ele>
        <time>2015-07-11T10:35:57.000Z</time>
      </trkpt>
      <trkpt lat="48.70973" lon="1.68542">
        <ele>163.5</ele>
        <time>2015-07-11T10:36:04.000Z</time>
      </trkpt>
      <trkpt lat="48.70969" lon="1.68542">
        <ele>164.2</ele>
        <time>2015-07-11T10:36:06.000Z</time>
      </trkpt>
      <trkpt lat="48.70964" lon="1.68537">
        <ele>164.8</ele>
        <time>2015-07-11T10:36:10.000Z</time>
      </trkpt>
      <trkpt lat="48.70956" lon="1.68532">
        <ele>166.2</ele>
        <time>2015-07-11T10:36:17.000Z</time>
      </trkpt>
      <trkpt lat="48.70955" lon="1.68531">
        <ele>166.4</ele>
        <time>2015-07-11T10:36:18.000Z</time>
      </trkpt>
      <trkpt lat="48.70948" lon="1.6852">
        <ele>167</ele>
        <time>2015-07-11T10:36:24.000Z</time>
      </trkpt>
      <trkpt lat="48.7094" lon="1.6851">
        <ele>167.4</ele>
        <time>2015-07-11T10:36:31.000Z</time>
      </trkpt>
      <trkpt lat="48.70933" lon="1.68502">
        <ele>167.7</ele>
        <time>2015-07-11T10:36:38.000Z</time>
      </trkpt>
      <trkpt lat="48.70926" lon="1.68497">
        <ele>168.5</ele>
        <time>2015-07-11T10:36:45.000Z</time>
      </trkpt>
      <trkpt lat="48.70919" lon="1.68492">
        <ele>169.1</ele>
        <time>2015-07-11T10:36:52.000Z</time>
      </trkpt>
      <trkpt lat="48.70917" lon="1.6849">
        <ele>169.1</ele>
        <time>2015-07-11T10:36:54.000Z</time>
      </trkpt>
      <trkpt lat="48.70908" lon="1.68481">
        <ele>169</ele>
        <time>2015-07-11T10:37:03.000Z</time>
      </trkpt>
      <trkpt lat="48.70906" lon="1.68478">
        <ele>169</ele>
        <time>2015-07-11T10:37:05.000Z</time>
      </trkpt>
      <trkpt lat="48.70904" lon="1.68475">
        <ele>168.8</ele>
        <time>2015-07-11T10:37:09.000Z</time>
      </trkpt>
      <trkpt lat="48.70891" lon="1.68465">
        <ele>169.9</ele>
        <time>2015-07-11T10:37:18.000Z</time>
      </trkpt>
      <trkpt lat="48.70882" lon="1.68458">
        <ele>170.3</ele>
        <time>2015-07-11T10:37:26.000Z</time>
      </trkpt>
      <trkpt lat="48.7087" lon="1.68453">
        <ele>171.1</ele>
        <time>2015-07-11T10:37:34.000Z</time>
      </trkpt>
      <trkpt lat="48.7086" lon="1.68446">
        <ele>171.3</ele>
        <time>2015-07-11T10:37:42.000Z</time>
      </trkpt>
      <trkpt lat="48.7085" lon="1.68443">
        <ele>171.8</ele>
        <time>2015-07-11T10:37:50.000Z</time>
      </trkpt>
      <trkpt lat="48.70846" lon="1.6844">
        <ele>172</ele>
        <time>2015-07-11T10:37:53.000Z</time>
      </trkpt>
      <trkpt lat="48.70834" lon="1.68443">
        <ele>172.9</ele>
        <time>2015-07-11T10:38:01.000Z</time>
      </trkpt>
      <trkpt lat="48.70828" lon="1.68443">
        <ele>173.3</ele>
        <time>2015-07-11T10:38:05.000Z</time>
      </trkpt>
      <trkpt lat="48.70817" lon="1.68441">
        <ele>174.1</ele>
        <time>2015-07-11T10:38:14.000Z</time>
      </trkpt>
      <trkpt lat="48.70813" lon="1.68443">
        <ele>174.4</ele>
        <time>2015-07-11T10:38:17.000Z</time>
      </trkpt>
      <trkpt lat="48.70802" lon="1.68447">
        <ele>175.5</ele>
        <time>2015-07-11T10:38:26.000Z</time>
      </trkpt>
      <trkpt lat="48.70792" lon="1.68459">
        <ele>176.8</ele>
        <time>2015-07-11T10:38:34.000Z</time>
      </trkpt>
      <trkpt lat="48.70788" lon="1.68465">
        <ele>177.3</ele>
        <time>2015-07-11T10:38:39.000Z</time>
      </trkpt>
      <trkpt lat="48.70785" lon="1.68483">
        <ele>177.8</ele>
        <time>2015-07-11T10:38:47.000Z</time>
      </trkpt>
      <trkpt lat="48.70783" lon="1.68487">
        <ele>177.9</ele>
        <time>2015-07-11T10:38:49.000Z</time>
      </trkpt>
      <trkpt lat="48.70781" lon="1.68498">
        <ele>178</ele>
        <time>2015-07-11T10:38:56.000Z</time>
      </trkpt>
      <trkpt lat="48.70783" lon="1.68505">
        <ele>178</ele>
        <time>2015-07-11T10:39:00.000Z</time>
      </trkpt>
      <trkpt lat="48.70785" lon="1.68508">
        <ele>178</ele>
        <time>2015-07-11T10:39:02.000Z</time>
      </trkpt>
      <trkpt lat="48.70787" lon="1.68515">
        <ele>178</ele>
        <time>2015-07-11T10:39:05.000Z</time>
      </trkpt>
      <trkpt lat="48.70793" lon="1.68532">
        <ele>178</ele>
        <time>2015-07-11T10:39:12.000Z</time>
      </trkpt>
      <trkpt lat="48.70794" lon="1.68547">
        <ele>178</ele>
        <time>2015-07-11T10:39:19.000Z</time>
      </trkpt>
      <trkpt lat="48.70795" lon="1.68559">
        <ele>178</ele>
        <time>2015-07-11T10:39:24.000Z</time>
      </trkpt>
      <trkpt lat="48.70797" lon="1.68574">
        <ele>178</ele>
        <time>2015-07-11T10:39:30.000Z</time>
      </trkpt>
      <trkpt lat="48.70799" lon="1.68593">
        <ele>178</ele>
        <time>2015-07-11T10:39:39.000Z</time>
      </trkpt>
      <trkpt lat="48.70802" lon="1.68608">
        <ele>178</ele>
        <time>2015-07-11T10:39:45.000Z</time>
      </trkpt>
      <trkpt lat="48.70805" lon="1.68621">
        <ele>177.6</ele>
        <time>2015-07-11T10:39:51.000Z</time>
      </trkpt>
      <trkpt lat="48.70806" lon="1.68634">
        <ele>177.2</ele>
        <time>2015-07-11T10:39:57.000Z</time>
      </trkpt>
      <trkpt lat="48.70807" lon="1.68655">
        <ele>177</ele>
        <time>2015-07-11T10:40:06.000Z</time>
      </trkpt>
      <trkpt lat="48.70807" lon="1.68674">
        <ele>177</ele>
        <time>2015-07-11T10:40:14.000Z</time>
      </trkpt>
      <trkpt lat="48.70808" lon="1.6869">
        <ele>177</ele>
        <time>2015-07-11T10:40:21.000Z</time>
      </trkpt>
      <trkpt lat="48.70807" lon="1.68705">
        <ele>177</ele>
        <time>2015-07-11T10:40:26.000Z</time>
      </trkpt>
      <trkpt lat="48.70808" lon="1.68713">
        <ele>177</ele>
        <time>2015-07-11T10:40:30.000Z</time>
      </trkpt>
      <trkpt lat="48.70808" lon="1.68722">
        <ele>177</ele>
        <time>2015-07-11T10:40:35.000Z</time>
      </trkpt>
      <trkpt lat="48.70806" lon="1.68736">
        <ele>177</ele>
        <time>2015-07-11T10:40:40.000Z</time>
      </trkpt>
      <trkpt lat="48.70807" lon="1.68745">
        <ele>177</ele>
        <time>2015-07-11T10:40:44.000Z</time>
      </trkpt>
      <trkpt lat="48.70807" lon="1.68763">
        <ele>177</ele>
        <time>2015-07-11T10:40:52.000Z</time>
      </trkpt>
      <trkpt lat="48.70807" lon="1.68767">
        <ele>177</ele>
        <time>2015-07-11T10:40:54.000Z</time>
      </trkpt>
      <trkpt lat="48.70808" lon="1.68782">
        <ele>177</ele>
        <time>2015-07-11T10:41:01.000Z</time>
      </trkpt>
      <trkpt lat="48.70808" lon="1.68796">
        <ele>177</ele>
        <time>2015-07-11T10:41:07.000Z</time>
      </trkpt>
      <trkpt lat="48.70808" lon="1.68813">
        <ele>177.1</ele>
        <time>2015-07-11T10:41:15.000Z</time>
      </trkpt>
      <trkpt lat="48.70805" lon="1.68826">
        <ele>177</ele>
        <time>2015-07-11T10:41:22.000Z</time>
      </trkpt>
      <trkpt lat="48.70804" lon="1.68839">
        <ele>177.2</ele>
        <time>2015-07-11T10:41:28.000Z</time>
      </trkpt>
      <trkpt lat="48.70804" lon="1.68859">
        <ele>177.9</ele>
        <time>2015-07-11T10:41:36.000Z</time>
      </trkpt>
      <trkpt lat="48.70803" lon="1.68884">
        <ele>177.9</ele>
        <time>2015-07-11T10:41:45.000Z</time>
      </trkpt>
      <trkpt lat="48.70802" lon="1.68901">
        <ele>177.9</ele>
        <time>2015-07-11T10:41:52.000Z</time>
      </trkpt>
      <trkpt lat="48.70801" lon="1.68917">
        <ele>177.8</ele>
        <time>2015-07-11T10:42:00.000Z</time>
      </trkpt>
      <trkpt lat="48.70803" lon="1.68929">
        <ele>177.9</ele>
        <time>2015-07-11T10:42:05.000Z</time>
      </trkpt>
      <trkpt lat="48.70804" lon="1.68941">
        <ele>177.9</ele>
        <time>2015-07-11T10:42:11.000Z</time>
      </trkpt>
      <trkpt lat="48.70802" lon="1.68956">
        <ele>177.9</ele>
        <time>2015-07-11T10:42:18.000Z</time>
      </trkpt>
      <trkpt lat="48.70801" lon="1.68969">
        <ele>178</ele>
        <time>2015-07-11T10:42:23.000Z</time>
      </trkpt>
      <trkpt lat="48.70797" lon="1.68986">
        <ele>178</ele>
        <time>2015-07-11T10:42:30.000Z</time>
      </trkpt>
      <trkpt lat="48.70796" lon="1.68993">
        <ele>178</ele>
        <time>2015-07-11T10:42:33.000Z</time>
      </trkpt>
      <trkpt lat="48.70794" lon="1.69015">
        <ele>178.3</ele>
        <time>2015-07-11T10:42:42.000Z</time>
      </trkpt>
      <trkpt lat="48.70793" lon="1.6903">
        <ele>178.6</ele>
        <time>2015-07-11T10:42:49.000Z</time>
      </trkpt>
      <trkpt lat="48.70793" lon="1.6904">
        <ele>178.8</ele>
        <time>2015-07-11T10:42:54.000Z</time>
      </trkpt>
      <trkpt lat="48.70794" lon="1.69056">
        <ele>179</ele>
        <time>2015-07-11T10:43:01.000Z</time>
      </trkpt>
      <trkpt lat="48.70794" lon="1.69077">
        <ele>179</ele>
        <time>2015-07-11T10:43:09.000Z</time>
      </trkpt>
      <trkpt lat="48.70794" lon="1.69101">
        <ele>179</ele>
        <time>2015-07-11T10:43:19.000Z</time>
      </trkpt>
      <trkpt lat="48.70793" lon="1.69115">
        <ele>179</ele>
        <time>2015-07-11T10:43:26.000Z</time>
      </trkpt>
      <trkpt lat="48.70793" lon="1.69134">
        <ele>179</ele>
        <time>2015-07-11T10:43:34.000Z</time>
      </trkpt>
      <trkpt lat="48.70793" lon="1.69155">
        <ele>179</ele>
        <time>2015-07-11T10:43:42.000Z</time>
      </trkpt>
      <trkpt lat="48.70792" lon="1.6917">
        <ele>179</ele>
        <time>2015-07-11T10:43:48.000Z</time>
      </trkpt>
      <trkpt lat="48.70792" lon="1.69183">
        <ele>179</ele>
        <time>2015-07-11T10:43:54.000Z</time>
      </trkpt>
      <trkpt lat="48.70792" lon="1.69195">
        <ele>179</ele>
        <time>2015-07-11T10:43:59.000Z</time>
      </trkpt>
      <trkpt lat="48.70789" lon="1.69216">
        <ele>179</ele>
        <time>2015-07-11T10:44:09.000Z</time>
      </trkpt>
      <trkpt lat="48.70788" lon="1.69238">
        <ele>179</ele>
        <time>2015-07-11T10:44:18.000Z</time>
      </trkpt>
      <trkpt lat="48.70787" lon="1.69261">
        <ele>179</ele>
        <time>2015-07-11T10:44:28.000Z</time>
      </trkpt>
      <trkpt lat="48.70786" lon="1.6928">
        <ele>179</ele>
        <time>2015-07-11T10:44:36.000Z</time>
      </trkpt>
      <trkpt lat="48.70786" lon="1.69302">
        <ele>179</ele>
        <time>2015-07-11T10:44:46.000Z</time>
      </trkpt>
      <trkpt lat="48.70785" lon="1.69316">
        <ele>179</ele>
        <time>2015-07-11T10:44:52.000Z</time>
      </trkpt>
      <trkpt lat="48.70784" lon="1.69336">
        <ele>179</ele>
        <time>2015-07-11T10:45:00.000Z</time>
      </trkpt>
      <trkpt lat="48.70784" lon="1.69357">
        <ele>179</ele>
        <time>2015-07-11T10:45:09.000Z</time>
      </trkpt>
      <trkpt lat="48.70784" lon="1.69374">
        <ele>179</ele>
        <time>2015-07-11T10:45:17.000Z</time>
      </trkpt>
      <trkpt lat="48.70786" lon="1.6939">
        <ele>179</ele>
        <time>2015-07-11T10:45:25.000Z</time>
      </trkpt>
      <trkpt lat="48.70785" lon="1.69405">
        <ele>179</ele>
        <time>2015-07-11T10:45:31.000Z</time>
      </trkpt>
      <trkpt lat="48.70785" lon="1.69423">
        <ele>179</ele>
        <time>2015-07-11T10:45:39.000Z</time>
      </trkpt>
      <trkpt lat="48.70785" lon="1.69439">
        <ele>179</ele>
        <time>2015-07-11T10:45:46.000Z</time>
      </trkpt>
      <trkpt lat="48.70788" lon="1.69456">
        <ele>179</ele>
        <time>2015-07-11T10:45:53.000Z</time>
      </trkpt>
      <trkpt lat="48.70789" lon="1.6947">
        <ele>179</ele>
        <time>2015-07-11T10:46:00.000Z</time>
      </trkpt>
      <trkpt lat="48.70789" lon="1.69485">
        <ele>179</ele>
        <time>2015-07-11T10:46:07.000Z</time>
      </trkpt>
      <trkpt lat="48.70792" lon="1.695">
        <ele>179</ele>
        <time>2015-07-11T10:46:14.000Z</time>
      </trkpt>
      <trkpt lat="48.70795" lon="1.69514">
        <ele>179</ele>
        <time>2015-07-11T10:46:20.000Z</time>
      </trkpt>
      <trkpt lat="48.70797" lon="1.69527">
        <ele>179</ele>
        <time>2015-07-11T10:46:27.000Z</time>
      </trkpt>
      <trkpt lat="48.70796" lon="1.69542">
        <ele>179</ele>
        <time>2015-07-11T10:46:34.000Z</time>
      </trkpt>
      <trkpt lat="48.70797" lon="1.69561">
        <ele>179</ele>
        <time>2015-07-11T10:46:43.000Z</time>
      </trkpt>
      <trkpt lat="48.70796" lon="1.69578">
        <ele>179</ele>
        <time>2015-07-11T10:46:51.000Z</time>
      </trkpt>
      <trkpt lat="48.70793" lon="1.69593">
        <ele>179</ele>
        <time>2015-07-11T10:46:58.000Z</time>
      </trkpt>
      <trkpt lat="48.70791" lon="1.69611">
        <ele>179</ele>
        <time>2015-07-11T10:47:07.000Z</time>
      </trkpt>
      <trkpt lat="48.70788" lon="1.69629">
        <ele>178.8</ele>
        <time>2015-07-11T10:47:16.000Z</time>
      </trkpt>
      <trkpt lat="48.70785" lon="1.69644">
        <ele>178.5</ele>
        <time>2015-07-11T10:47:22.000Z</time>
      </trkpt>
      <trkpt lat="48.70782" lon="1.69651">
        <ele>178.2</ele>
        <time>2015-07-11T10:47:26.000Z</time>
      </trkpt>
      <trkpt lat="48.7078" lon="1.6966">
        <ele>178.1</ele>
        <time>2015-07-11T10:47:30.000Z</time>
      </trkpt>
      <trkpt lat="48.70776" lon="1.69669">
        <ele>177.9</ele>
        <time>2015-07-11T10:47:35.000Z</time>
      </trkpt>
      <trkpt lat="48.70774" lon="1.69677">
        <ele>177.5</ele>
        <time>2015-07-11T10:47:38.000Z</time>
      </trkpt>
      <trkpt lat="48.70773" lon="1.69705">
        <ele>177.1</ele>
        <time>2015-07-11T10:47:48.000Z</time>
      </trkpt>
      <trkpt lat="48.70773" lon="1.69717">
        <ele>177.9</ele>
        <time>2015-07-11T10:47:54.000Z</time>
      </trkpt>
      <trkpt lat="48.70774" lon="1.69731">
        <ele>177.9</ele>
        <time>2015-07-11T10:48:00.000Z</time>
      </trkpt>
      <trkpt lat="48.70774" lon="1.69746">
        <ele>177.4</ele>
        <time>2015-07-11T10:48:06.000Z</time>
      </trkpt>
      <trkpt lat="48.70771" lon="1.69766">
        <ele>177.4</ele>
        <time>2015-07-11T10:48:15.000Z</time>
      </trkpt>
      <trkpt lat="48.70766" lon="1.69781">
        <ele>177.3</ele>
        <time>2015-07-11T10:48:23.000Z</time>
      </trkpt>
      <trkpt lat="48.70763" lon="1.69795">
        <ele>177.2</ele>
        <time>2015-07-11T10:48:30.000Z</time>
      </trkpt>
      <trkpt lat="48.70761" lon="1.69812">
        <ele>177.2</ele>
        <time>2015-07-11T10:48:39.000Z</time>
      </trkpt>
      <trkpt lat="48.70761" lon="1.69824">
        <ele>177.2</ele>
        <time>2015-07-11T10:48:45.000Z</time>
      </trkpt>
      <trkpt lat="48.7076" lon="1.69825">
        <ele>177.3</ele>
        <time>2015-07-11T10:48:46.000Z</time>
      </trkpt>
      <trkpt lat="48.70758" lon="1.69833">
        <ele>177.5</ele>
        <time>2015-07-11T10:48:50.000Z</time>
      </trkpt>
      <trkpt lat="48.70753" lon="1.69849">
        <ele>177.3</ele>
        <time>2015-07-11T10:48:58.000Z</time>
      </trkpt>
      <trkpt lat="48.70748" lon="1.69866">
        <ele>177</ele>
        <time>2015-07-11T10:49:05.000Z</time>
      </trkpt>
      <trkpt lat="48.70743" lon="1.69881">
        <ele>176.8</ele>
        <time>2015-07-11T10:49:11.000Z</time>
      </trkpt>
      <trkpt lat="48.70742" lon="1.69893">
        <ele>176.7</ele>
        <time>2015-07-11T10:49:17.000Z</time>
      </trkpt>
      <trkpt lat="48.7074" lon="1.69907">
        <ele>177.4</ele>
        <time>2015-07-11T10:49:23.000Z</time>
      </trkpt>
      <trkpt lat="48.70738" lon="1.69924">
        <ele>177.7</ele>
        <time>2015-07-11T10:49:31.000Z</time>
      </trkpt>
      <trkpt lat="48.70738" lon="1.69938">
        <ele>177.4</ele>
        <time>2015-07-11T10:49:38.000Z</time>
      </trkpt>
      <trkpt lat="48.70738" lon="1.69955">
        <ele>177.7</ele>
        <time>2015-07-11T10:49:45.000Z</time>
      </trkpt>
      <trkpt lat="48.70741" lon="1.69964">
        <ele>178</ele>
        <time>2015-07-11T10:49:49.000Z</time>
      </trkpt>
      <trkpt lat="48.70742" lon="1.69974">
        <ele>178.3</ele>
        <time>2015-07-11T10:49:53.000Z</time>
      </trkpt>
      <trkpt lat="48.70743" lon="1.69983">
        <ele>178.5</ele>
        <time>2015-07-11T10:49:57.000Z</time>
      </trkpt>
      <trkpt lat="48.70745" lon="1.69998">
        <ele>179</ele>
        <time>2015-07-11T10:50:05.000Z</time>
      </trkpt>
      <trkpt lat="48.70745" lon="1.70015">
        <ele>179</ele>
        <time>2015-07-11T10:50:13.000Z</time>
      </trkpt>
      <trkpt lat="48.70745" lon="1.70031">
        <ele>179</ele>
        <time>2015-07-11T10:50:21.000Z</time>
      </trkpt>
      <trkpt lat="48.70744" lon="1.70042">
        <ele>179.1</ele>
        <time>2015-07-11T10:50:26.000Z</time>
      </trkpt>
      <trkpt lat="48.70744" lon="1.7006">
        <ele>179.3</ele>
        <time>2015-07-11T10:50:35.000Z</time>
      </trkpt>
      <trkpt lat="48.70742" lon="1.70085">
        <ele>180</ele>
        <time>2015-07-11T10:50:46.000Z</time>
      </trkpt>
      <trkpt lat="48.70742" lon="1.70087">
        <ele>180</ele>
        <time>2015-07-11T10:50:47.000Z</time>
      </trkpt>
      <trkpt lat="48.70741" lon="1.70096">
        <ele>180</ele>
        <time>2015-07-11T10:50:51.000Z</time>
      </trkpt>
      <trkpt lat="48.70737" lon="1.70123">
        <ele>180</ele>
        <time>2015-07-11T10:51:03.000Z</time>
      </trkpt>
      <trkpt lat="48.70736" lon="1.70145">
        <ele>180</ele>
        <time>2015-07-11T10:51:13.000Z</time>
      </trkpt>
      <trkpt lat="48.70735" lon="1.70149">
        <ele>180</ele>
        <time>2015-07-11T10:51:15.000Z</time>
      </trkpt>
      <trkpt lat="48.70733" lon="1.70168">
        <ele>180</ele>
        <time>2015-07-11T10:51:23.000Z</time>
      </trkpt>
      <trkpt lat="48.70732" lon="1.70184">
        <ele>180</ele>
        <time>2015-07-11T10:51:29.000Z</time>
      </trkpt>
      <trkpt lat="48.70732" lon="1.70204">
        <ele>180</ele>
        <time>2015-07-11T10:51:38.000Z</time>
      </trkpt>
      <trkpt lat="48.70731" lon="1.70221">
        <ele>180</ele>
        <time>2015-07-11T10:51:46.000Z</time>
      </trkpt>
      <trkpt lat="48.70728" lon="1.70239">
        <ele>180</ele>
        <time>2015-07-11T10:51:54.000Z</time>
      </trkpt>
      <trkpt lat="48.70726" lon="1.70253">
        <ele>180</ele>
        <time>2015-07-11T10:52:01.000Z</time>
      </trkpt>
      <trkpt lat="48.70723" lon="1.70273">
        <ele>180</ele>
        <time>2015-07-11T10:52:10.000Z</time>
      </trkpt>
      <trkpt lat="48.7072" lon="1.70291">
        <ele>180</ele>
        <time>2015-07-11T10:52:19.000Z</time>
      </trkpt>
      <trkpt lat="48.70716" lon="1.7031">
        <ele>179.9</ele>
        <time>2015-07-11T10:52:28.000Z</time>
      </trkpt>
      <trkpt lat="48.70712" lon="1.7033">
        <ele>179.4</ele>
        <time>2015-07-11T10:52:36.000Z</time>
      </trkpt>
      <trkpt lat="48.70709" lon="1.70346">
        <ele>179</ele>
        <time>2015-07-11T10:52:44.000Z</time>
      </trkpt>
      <trkpt lat="48.70704" lon="1.70363">
        <ele>178.9</ele>
        <time>2015-07-11T10:52:51.000Z</time>
      </trkpt>
      <trkpt lat="48.707" lon="1.70377">
        <ele>179.4</ele>
        <time>2015-07-11T10:52:57.000Z</time>
      </trkpt>
      <trkpt lat="48.70697" lon="1.7039">
        <ele>179.8</ele>
        <time>2015-07-11T10:53:02.000Z</time>
      </trkpt>
      <trkpt lat="48.70692" lon="1.70405">
        <ele>180</ele>
        <time>2015-07-11T10:53:09.000Z</time>
      </trkpt>
      <trkpt lat="48.7069" lon="1.70418">
        <ele>180</ele>
        <time>2015-07-11T10:53:15.000Z</time>
      </trkpt>
      <trkpt lat="48.7069" lon="1.7042">
        <ele>180</ele>
        <time>2015-07-11T10:53:16.000Z</time>
      </trkpt>
      <trkpt lat="48.70688" lon="1.70444">
        <ele>180</ele>
        <time>2015-07-11T10:53:26.000Z</time>
      </trkpt>
      <trkpt lat="48.70685" lon="1.70449">
        <ele>179.9</ele>
        <time>2015-07-11T10:53:29.000Z</time>
      </trkpt>
      <trkpt lat="48.70683" lon="1.70458">
        <ele>179.7</ele>
        <time>2015-07-11T10:53:33.000Z</time>
      </trkpt>
      <trkpt lat="48.70678" lon="1.70472">
        <ele>179.6</ele>
        <time>2015-07-11T10:53:40.000Z</time>
      </trkpt>
      <trkpt lat="48.70673" lon="1.70487">
        <ele>179.5</ele>
        <time>2015-07-11T10:53:47.000Z</time>
      </trkpt>
      <trkpt lat="48.70671" lon="1.70496">
        <ele>179.6</ele>
        <time>2015-07-11T10:53:51.000Z</time>
      </trkpt>
      <trkpt lat="48.70666" lon="1.70512">
        <ele>180</ele>
        <time>2015-07-11T10:53:59.000Z</time>
      </trkpt>
      <trkpt lat="48.70664" lon="1.7052">
        <ele>180.1</ele>
        <time>2015-07-11T10:54:03.000Z</time>
      </trkpt>
      <trkpt lat="48.70662" lon="1.70538">
        <ele>180.2</ele>
        <time>2015-07-11T10:54:11.000Z</time>
      </trkpt>
      <trkpt lat="48.70659" lon="1.70551">
        <ele>180.3</ele>
        <time>2015-07-11T10:54:17.000Z</time>
      </trkpt>
      <trkpt lat="48.70654" lon="1.70563">
        <ele>180.5</ele>
        <time>2015-07-11T10:54:23.000Z</time>
      </trkpt>
      <trkpt lat="48.70653" lon="1.70567">
        <ele>180.5</ele>
        <time>2015-07-11T10:54:25.000Z</time>
      </trkpt>
      <trkpt lat="48.7065" lon="1.70578">
        <ele>180.6</ele>
        <time>2015-07-11T10:54:30.000Z</time>
      </trkpt>
      <trkpt lat="48.70644" lon="1.70593">
        <ele>180.9</ele>
        <time>2015-07-11T10:54:39.000Z</time>
      </trkpt>
      <trkpt lat="48.70639" lon="1.70612">
        <ele>181</ele>
        <time>2015-07-11T10:54:47.000Z</time>
      </trkpt>
      <trkpt lat="48.70635" lon="1.70629">
        <ele>181</ele>
        <time>2015-07-11T10:54:55.000Z</time>
      </trkpt>
      <trkpt lat="48.7063" lon="1.7064">
        <ele>181</ele>
        <time>2015-07-11T10:55:01.000Z</time>
      </trkpt>
      <trkpt lat="48.70624" lon="1.70658">
        <ele>181</ele>
        <time>2015-07-11T10:55:07.000Z</time>
      </trkpt>
      <trkpt lat="48.70621" lon="1.7067">
        <ele>181</ele>
        <time>2015-07-11T10:55:12.000Z</time>
      </trkpt>
      <trkpt lat="48.70621" lon="1.7068">
        <ele>181</ele>
        <time>2015-07-11T10:55:18.000Z</time>
      </trkpt>
      <trkpt lat="48.70617" lon="1.70695">
        <ele>181</ele>
        <time>2015-07-11T10:55:24.000Z</time>
      </trkpt>
      <trkpt lat="48.70614" lon="1.70702">
        <ele>181</ele>
        <time>2015-07-11T10:55:28.000Z</time>
      </trkpt>
      <trkpt lat="48.7061" lon="1.70713">
        <ele>181</ele>
        <time>2015-07-11T10:55:36.000Z</time>
      </trkpt>
      <trkpt lat="48.70605" lon="1.70734">
        <ele>181</ele>
        <time>2015-07-11T10:55:46.000Z</time>
      </trkpt>
      <trkpt lat="48.70603" lon="1.70745">
        <ele>181</ele>
        <time>2015-07-11T10:55:52.000Z</time>
      </trkpt>
      <trkpt lat="48.70601" lon="1.70756">
        <ele>180.9</ele>
        <time>2015-07-11T10:55:59.000Z</time>
      </trkpt>
      <trkpt lat="48.70599" lon="1.70771">
        <ele>180.7</ele>
        <time>2015-07-11T10:56:06.000Z</time>
      </trkpt>
      <trkpt lat="48.70595" lon="1.70785">
        <ele>180.4</ele>
        <time>2015-07-11T10:56:13.000Z</time>
      </trkpt>
      <trkpt lat="48.70593" lon="1.70799">
        <ele>180.3</ele>
        <time>2015-07-11T10:56:20.000Z</time>
      </trkpt>
      <trkpt lat="48.70589" lon="1.70819">
        <ele>180.2</ele>
        <time>2015-07-11T10:56:28.000Z</time>
      </trkpt>
      <trkpt lat="48.70585" lon="1.70832">
        <ele>180.1</ele>
        <time>2015-07-11T10:56:34.000Z</time>
      </trkpt>
      <trkpt lat="48.70579" lon="1.70847">
        <ele>180</ele>
        <time>2015-07-11T10:56:41.000Z</time>
      </trkpt>
      <trkpt lat="48.70576" lon="1.70861">
        <ele>180</ele>
        <time>2015-07-11T10:56:48.000Z</time>
      </trkpt>
      <trkpt lat="48.70572" lon="1.70874">
        <ele>179.8</ele>
        <time>2015-07-11T10:56:54.000Z</time>
      </trkpt>
      <trkpt lat="48.70568" lon="1.70889">
        <ele>179.5</ele>
        <time>2015-07-11T10:57:00.000Z</time>
      </trkpt>
      <trkpt lat="48.70565" lon="1.70899">
        <ele>179.2</ele>
        <time>2015-07-11T10:57:06.000Z</time>
      </trkpt>
      <trkpt lat="48.70559" lon="1.70917">
        <ele>179</ele>
        <time>2015-07-11T10:57:14.000Z</time>
      </trkpt>
      <trkpt lat="48.70555" lon="1.70933">
        <ele>179</ele>
        <time>2015-07-11T10:57:20.000Z</time>
      </trkpt>
      <trkpt lat="48.70554" lon="1.70936">
        <ele>179</ele>
        <time>2015-07-11T10:57:21.000Z</time>
      </trkpt>
      <trkpt lat="48.70549" lon="1.70949">
        <ele>179</ele>
        <time>2015-07-11T10:57:28.000Z</time>
      </trkpt>
      <trkpt lat="48.70549" lon="1.70956">
        <ele>179</ele>
        <time>2015-07-11T10:57:31.000Z</time>
      </trkpt>
      <trkpt lat="48.70547" lon="1.70974">
        <ele>179</ele>
        <time>2015-07-11T10:57:38.000Z</time>
      </trkpt>
      <trkpt lat="48.70546" lon="1.70977">
        <ele>179</ele>
        <time>2015-07-11T10:57:39.000Z</time>
      </trkpt>
      <trkpt lat="48.70542" lon="1.70994">
        <ele>179</ele>
        <time>2015-07-11T10:57:47.000Z</time>
      </trkpt>
      <trkpt lat="48.70539" lon="1.71005">
        <ele>179</ele>
        <time>2015-07-11T10:57:53.000Z</time>
      </trkpt>
      <trkpt lat="48.70535" lon="1.71019">
        <ele>179</ele>
        <time>2015-07-11T10:57:58.000Z</time>
      </trkpt>
      <trkpt lat="48.7053" lon="1.71038">
        <ele>179</ele>
        <time>2015-07-11T10:58:06.000Z</time>
      </trkpt>
      <trkpt lat="48.70529" lon="1.71042">
        <ele>179</ele>
        <time>2015-07-11T10:58:08.000Z</time>
      </trkpt>
      <trkpt lat="48.70525" lon="1.71055">
        <ele>179</ele>
        <time>2015-07-11T10:58:14.000Z</time>
      </trkpt>
      <trkpt lat="48.70518" lon="1.71073">
        <ele>179</ele>
        <time>2015-07-11T10:58:21.000Z</time>
      </trkpt>
      <trkpt lat="48.70513" lon="1.7109">
        <ele>179.1</ele>
        <time>2015-07-11T10:58:30.000Z</time>
      </trkpt>
      <trkpt lat="48.70509" lon="1.71105">
        <ele>179.2</ele>
        <time>2015-07-11T10:58:37.000Z</time>
      </trkpt>
      <trkpt lat="48.70505" lon="1.7112">
        <ele>179.2</ele>
        <time>2015-07-11T10:58:45.000Z</time>
      </trkpt>
      <trkpt lat="48.70505" lon="1.71138">
        <ele>179.2</ele>
        <time>2015-07-11T10:58:53.000Z</time>
      </trkpt>
      <trkpt lat="48.70504" lon="1.71155">
        <ele>179.6</ele>
        <time>2015-07-11T10:59:00.000Z</time>
      </trkpt>
      <trkpt lat="48.70504" lon="1.71167">
        <ele>179.8</ele>
        <time>2015-07-11T10:59:06.000Z</time>
      </trkpt>
      <trkpt lat="48.70504" lon="1.7117">
        <ele>179.8</ele>
        <time>2015-07-11T10:59:07.000Z</time>
      </trkpt>
      <trkpt lat="48.70498" lon="1.71184">
        <ele>179.4</ele>
        <time>2015-07-11T10:59:15.000Z</time>
      </trkpt>
      <trkpt lat="48.70491" lon="1.71196">
        <ele>179</ele>
        <time>2015-07-11T10:59:23.000Z</time>
      </trkpt>
      <trkpt lat="48.7049" lon="1.71199">
        <ele>179</ele>
        <time>2015-07-11T10:59:25.000Z</time>
      </trkpt>
      <trkpt lat="48.70486" lon="1.71214">
        <ele>179</ele>
        <time>2015-07-11T10:59:32.000Z</time>
      </trkpt>
      <trkpt lat="48.70484" lon="1.71233">
        <ele>179</ele>
        <time>2015-07-11T10:59:39.000Z</time>
      </trkpt>
      <trkpt lat="48.70477" lon="1.71255">
        <ele>179</ele>
        <time>2015-07-11T10:59:43.000Z</time>
      </trkpt>
      <trkpt lat="48.7047" lon="1.71293">
        <ele>178.5</ele>
        <time>2015-07-11T10:59:50.000Z</time>
      </trkpt>
      <trkpt lat="48.70464" lon="1.71319">
        <ele>178.1</ele>
        <time>2015-07-11T10:59:55.000Z</time>
      </trkpt>
      <trkpt lat="48.70456" lon="1.7135">
        <ele>178</ele>
        <time>2015-07-11T11:00:01.000Z</time>
      </trkpt>
      <trkpt lat="48.7045" lon="1.71377">
        <ele>178</ele>
        <time>2015-07-11T11:00:06.000Z</time>
      </trkpt>
      <trkpt lat="48.70444" lon="1.71413">
        <ele>178</ele>
        <time>2015-07-11T11:00:12.000Z</time>
      </trkpt>
      <trkpt lat="48.70441" lon="1.71422">
        <ele>178.1</ele>
        <time>2015-07-11T11:00:13.000Z</time>
      </trkpt>
      <trkpt lat="48.70437" lon="1.71445">
        <ele>178</ele>
        <time>2015-07-11T11:00:17.000Z</time>
      </trkpt>
      <trkpt lat="48.70431" lon="1.71481">
        <ele>177.7</ele>
        <time>2015-07-11T11:00:24.000Z</time>
      </trkpt>
      <trkpt lat="48.70427" lon="1.71507">
        <ele>177</ele>
        <time>2015-07-11T11:00:29.000Z</time>
      </trkpt>
      <trkpt lat="48.7042" lon="1.71534">
        <ele>176.8</ele>
        <time>2015-07-11T11:00:34.000Z</time>
      </trkpt>
      <trkpt lat="48.70411" lon="1.71568">
        <ele>176.3</ele>
        <time>2015-07-11T11:00:40.000Z</time>
      </trkpt>
      <trkpt lat="48.70409" lon="1.71575">
        <ele>176.5</ele>
        <time>2015-07-11T11:00:41.000Z</time>
      </trkpt>
      <trkpt lat="48.70402" lon="1.71614">
        <ele>176.6</ele>
        <time>2015-07-11T11:00:49.000Z</time>
      </trkpt>
      <trkpt lat="48.70397" lon="1.71645">
        <ele>177.4</ele>
        <time>2015-07-11T11:00:55.000Z</time>
      </trkpt>
      <trkpt lat="48.70392" lon="1.71671">
        <ele>178</ele>
        <time>2015-07-11T11:01:00.000Z</time>
      </trkpt>
      <trkpt lat="48.70381" lon="1.7172">
        <ele>178</ele>
        <time>2015-07-11T11:01:08.000Z</time>
      </trkpt>
      <trkpt lat="48.70375" lon="1.71748">
        <ele>178</ele>
        <time>2015-07-11T11:01:13.000Z</time>
      </trkpt>
      <trkpt lat="48.70368" lon="1.71776">
        <ele>178</ele>
        <time>2015-07-11T11:01:20.000Z</time>
      </trkpt>
      <trkpt lat="48.7036" lon="1.71802">
        <ele>178</ele>
        <time>2015-07-11T11:01:25.000Z</time>
      </trkpt>
      <trkpt lat="48.70353" lon="1.71838">
        <ele>177.7</ele>
        <time>2015-07-11T11:01:30.000Z</time>
      </trkpt>
      <trkpt lat="48.70349" lon="1.71853">
        <ele>177.6</ele>
        <time>2015-07-11T11:01:32.000Z</time>
      </trkpt>
      <trkpt lat="48.70343" lon="1.71883">
        <ele>177.4</ele>
        <time>2015-07-11T11:01:37.000Z</time>
      </trkpt>
      <trkpt lat="48.70341" lon="1.71893">
        <ele>177.3</ele>
        <time>2015-07-11T11:01:39.000Z</time>
      </trkpt>
      <trkpt lat="48.70338" lon="1.71902">
        <ele>177.2</ele>
        <time>2015-07-11T11:01:41.000Z</time>
      </trkpt>
      <trkpt lat="48.70333" lon="1.7193">
        <ele>177</ele>
        <time>2015-07-11T11:01:47.000Z</time>
      </trkpt>
      <trkpt lat="48.70329" lon="1.71953">
        <ele>176.9</ele>
        <time>2015-07-11T11:01:52.000Z</time>
      </trkpt>
      <trkpt lat="48.70319" lon="1.7199">
        <ele>176.5</ele>
        <time>2015-07-11T11:01:58.000Z</time>
      </trkpt>
      <trkpt lat="48.70315" lon="1.7201">
        <ele>176.3</ele>
        <time>2015-07-11T11:02:02.000Z</time>
      </trkpt>
      <trkpt lat="48.70307" lon="1.72046">
        <ele>176.1</ele>
        <time>2015-07-11T11:02:08.000Z</time>
      </trkpt>
      <trkpt lat="48.703" lon="1.72077">
        <ele>175.8</ele>
        <time>2015-07-11T11:02:14.000Z</time>
      </trkpt>
      <trkpt lat="48.70293" lon="1.72097">
        <ele>175.6</ele>
        <time>2015-07-11T11:02:17.000Z</time>
      </trkpt>
      <trkpt lat="48.70286" lon="1.7214">
        <ele>175.3</ele>
        <time>2015-07-11T11:02:26.000Z</time>
      </trkpt>
      <trkpt lat="48.70282" lon="1.72161">
        <ele>175.1</ele>
        <time>2015-07-11T11:02:30.000Z</time>
      </trkpt>
      <trkpt lat="48.70275" lon="1.72193">
        <ele>174.9</ele>
        <time>2015-07-11T11:02:36.000Z</time>
      </trkpt>
      <trkpt lat="48.70266" lon="1.72225">
        <ele>175.6</ele>
        <time>2015-07-11T11:02:42.000Z</time>
      </trkpt>
      <trkpt lat="48.70261" lon="1.72245">
        <ele>175.4</ele>
        <time>2015-07-11T11:02:47.000Z</time>
      </trkpt>
      <trkpt lat="48.70259" lon="1.72266">
        <ele>175.3</ele>
        <time>2015-07-11T11:02:52.000Z</time>
      </trkpt>
      <trkpt lat="48.70252" lon="1.72295">
        <ele>175.7</ele>
        <time>2015-07-11T11:02:58.000Z</time>
      </trkpt>
      <trkpt lat="48.70246" lon="1.72325">
        <ele>176</ele>
        <time>2015-07-11T11:03:04.000Z</time>
      </trkpt>
      <trkpt lat="48.7024" lon="1.72355">
        <ele>176</ele>
        <time>2015-07-11T11:03:10.000Z</time>
      </trkpt>
      <trkpt lat="48.70234" lon="1.72377">
        <ele>176</ele>
        <time>2015-07-11T11:03:14.000Z</time>
      </trkpt>
      <trkpt lat="48.70228" lon="1.72407">
        <ele>176</ele>
        <time>2015-07-11T11:03:20.000Z</time>
      </trkpt>
      <trkpt lat="48.70223" lon="1.72441">
        <ele>176</ele>
        <time>2015-07-11T11:03:27.000Z</time>
      </trkpt>
      <trkpt lat="48.70217" lon="1.72467">
        <ele>176</ele>
        <time>2015-07-11T11:03:32.000Z</time>
      </trkpt>
      <trkpt lat="48.70212" lon="1.72496">
        <ele>176</ele>
        <time>2015-07-11T11:03:38.000Z</time>
      </trkpt>
      <trkpt lat="48.70206" lon="1.72527">
        <ele>176</ele>
        <time>2015-07-11T11:03:44.000Z</time>
      </trkpt>
      <trkpt lat="48.70201" lon="1.72551">
        <ele>175.4</ele>
        <time>2015-07-11T11:03:49.000Z</time>
      </trkpt>
      <trkpt lat="48.70195" lon="1.72582">
        <ele>175</ele>
        <time>2015-07-11T11:03:55.000Z</time>
      </trkpt>
      <trkpt lat="48.70189" lon="1.72615">
        <ele>174.7</ele>
        <time>2015-07-11T11:04:02.000Z</time>
      </trkpt>
      <trkpt lat="48.70183" lon="1.72643">
        <ele>173.9</ele>
        <time>2015-07-11T11:04:07.000Z</time>
      </trkpt>
      <trkpt lat="48.70174" lon="1.72672">
        <ele>173</ele>
        <time>2015-07-11T11:04:12.000Z</time>
      </trkpt>
      <trkpt lat="48.70168" lon="1.72705">
        <ele>173.1</ele>
        <time>2015-07-11T11:04:19.000Z</time>
      </trkpt>
      <trkpt lat="48.7016" lon="1.7273">
        <ele>172.6</ele>
        <time>2015-07-11T11:04:24.000Z</time>
      </trkpt>
      <trkpt lat="48.7015" lon="1.72754">
        <ele>172.4</ele>
        <time>2015-07-11T11:04:29.000Z</time>
      </trkpt>
      <trkpt lat="48.70141" lon="1.72783">
        <ele>172.1</ele>
        <time>2015-07-11T11:04:35.000Z</time>
      </trkpt>
      <trkpt lat="48.70133" lon="1.72813">
        <ele>171.8</ele>
        <time>2015-07-11T11:04:40.000Z</time>
      </trkpt>
      <trkpt lat="48.70124" lon="1.72839">
        <ele>171.7</ele>
        <time>2015-07-11T11:04:46.000Z</time>
      </trkpt>
      <trkpt lat="48.70118" lon="1.72863">
        <ele>172.2</ele>
        <time>2015-07-11T11:04:51.000Z</time>
      </trkpt>
      <trkpt lat="48.70106" lon="1.72904">
        <ele>172.5</ele>
        <time>2015-07-11T11:04:59.000Z</time>
      </trkpt>
      <trkpt lat="48.70098" lon="1.7293">
        <ele>172.7</ele>
        <time>2015-07-11T11:05:04.000Z</time>
      </trkpt>
      <trkpt lat="48.70087" lon="1.72961">
        <ele>173</ele>
        <time>2015-07-11T11:05:10.000Z</time>
      </trkpt>
      <trkpt lat="48.70076" lon="1.72988">
        <ele>172.9</ele>
        <time>2015-07-11T11:05:15.000Z</time>
      </trkpt>
      <trkpt lat="48.70072" lon="1.73005">
        <ele>173</ele>
        <time>2015-07-11T11:05:21.000Z</time>
      </trkpt>
      <trkpt lat="48.70068" lon="1.73015">
        <ele>173</ele>
        <time>2015-07-11T11:05:27.000Z</time>
      </trkpt>
      <trkpt lat="48.70062" lon="1.73031">
        <ele>172.9</ele>
        <time>2015-07-11T11:05:36.000Z</time>
      </trkpt>
      <trkpt lat="48.70057" lon="1.73047">
        <ele>172.3</ele>
        <time>2015-07-11T11:05:44.000Z</time>
      </trkpt>
      <trkpt lat="48.70053" lon="1.73061">
        <ele>172</ele>
        <time>2015-07-11T11:05:51.000Z</time>
      </trkpt>
      <trkpt lat="48.70051" lon="1.73066">
        <ele>172</ele>
        <time>2015-07-11T11:05:57.000Z</time>
      </trkpt>
      <trkpt lat="48.70051" lon="1.73066">
        <ele>172</ele>
        <time>2015-07-11T11:06:02.000Z</time>
      </trkpt>
      <trkpt lat="48.70042" lon="1.73104">
        <ele>172</ele>
        <time>2015-07-11T11:10:01.000Z</time>
      </trkpt>
      <trkpt lat="48.70036" lon="1.73122">
        <ele>171.7</ele>
        <time>2015-07-11T11:10:09.000Z</time>
      </trkpt>
      <trkpt lat="48.70032" lon="1.73134">
        <ele>171.3</ele>
        <time>2015-07-11T11:10:17.000Z</time>
      </trkpt>
      <trkpt lat="48.70027" lon="1.73144">
        <ele>171</ele>
        <time>2015-07-11T11:10:22.000Z</time>
      </trkpt>
      <trkpt lat="48.70019" lon="1.73164">
        <ele>171</ele>
        <time>2015-07-11T11:10:27.000Z</time>
      </trkpt>
      <trkpt lat="48.70009" lon="1.73191">
        <ele>170.4</ele>
        <time>2015-07-11T11:10:33.000Z</time>
      </trkpt>
      <trkpt lat="48.69999" lon="1.73212">
        <ele>170</ele>
        <time>2015-07-11T11:10:38.000Z</time>
      </trkpt>
      <trkpt lat="48.69982" lon="1.73244">
        <ele>170.1</ele>
        <time>2015-07-11T11:10:45.000Z</time>
      </trkpt>
      <trkpt lat="48.69969" lon="1.73268">
        <ele>170</ele>
        <time>2015-07-11T11:10:51.000Z</time>
      </trkpt>
      <trkpt lat="48.69955" lon="1.73301">
        <ele>170</ele>
        <time>2015-07-11T11:10:58.000Z</time>
      </trkpt>
      <trkpt lat="48.69945" lon="1.73322">
        <ele>170</ele>
        <time>2015-07-11T11:11:03.000Z</time>
      </trkpt>
      <trkpt lat="48.69926" lon="1.73357">
        <ele>170</ele>
        <time>2015-07-11T11:11:10.000Z</time>
      </trkpt>
      <trkpt lat="48.69917" lon="1.73374">
        <ele>169.5</ele>
        <time>2015-07-11T11:11:13.000Z</time>
      </trkpt>
      <trkpt lat="48.69907" lon="1.73396">
        <ele>169</ele>
        <time>2015-07-11T11:11:17.000Z</time>
      </trkpt>
      <trkpt lat="48.699" lon="1.73411">
        <ele>169</ele>
        <time>2015-07-11T11:11:20.000Z</time>
      </trkpt>
      <trkpt lat="48.6989" lon="1.73429">
        <ele>169</ele>
        <time>2015-07-11T11:11:25.000Z</time>
      </trkpt>
      <trkpt lat="48.69883" lon="1.73442">
        <ele>169</ele>
        <time>2015-07-11T11:11:31.000Z</time>
      </trkpt>
      <trkpt lat="48.6988" lon="1.73453">
        <ele>169</ele>
        <time>2015-07-11T11:11:37.000Z</time>
      </trkpt>
      <trkpt lat="48.69879" lon="1.7347">
        <ele>169</ele>
        <time>2015-07-11T11:11:43.000Z</time>
      </trkpt>
      <trkpt lat="48.69879" lon="1.73477">
        <ele>169</ele>
        <time>2015-07-11T11:11:45.000Z</time>
      </trkpt>
      <trkpt lat="48.69881" lon="1.73484">
        <ele>169</ele>
        <time>2015-07-11T11:11:48.000Z</time>
      </trkpt>
      <trkpt lat="48.69883" lon="1.73499">
        <ele>169</ele>
        <time>2015-07-11T11:11:55.000Z</time>
      </trkpt>
      <trkpt lat="48.6989" lon="1.73509">
        <ele>169</ele>
        <time>2015-07-11T11:12:01.000Z</time>
      </trkpt>
      <trkpt lat="48.69895" lon="1.73516">
        <ele>168.8</ele>
        <time>2015-07-11T11:12:06.000Z</time>
      </trkpt>
      <trkpt lat="48.69897" lon="1.73519">
        <ele>168.7</ele>
        <time>2015-07-11T11:12:08.000Z</time>
      </trkpt>
      <trkpt lat="48.69907" lon="1.73525">
        <ele>168.3</ele>
        <time>2015-07-11T11:12:14.000Z</time>
      </trkpt>
      <trkpt lat="48.69913" lon="1.73532">
        <ele>168.1</ele>
        <time>2015-07-11T11:12:19.000Z</time>
      </trkpt>
      <trkpt lat="48.69915" lon="1.73535">
        <ele>168.1</ele>
        <time>2015-07-11T11:12:21.000Z</time>
      </trkpt>
      <trkpt lat="48.6992" lon="1.73544">
        <ele>168</ele>
        <time>2015-07-11T11:12:28.000Z</time>
      </trkpt>
      <trkpt lat="48.69929" lon="1.73549">
        <ele>168</ele>
        <time>2015-07-11T11:12:34.000Z</time>
      </trkpt>
      <trkpt lat="48.69934" lon="1.73554">
        <ele>168</ele>
        <time>2015-07-11T11:12:38.000Z</time>
      </trkpt>
      <trkpt lat="48.69937" lon="1.73557">
        <ele>168</ele>
        <time>2015-07-11T11:12:41.000Z</time>
      </trkpt>
      <trkpt lat="48.69942" lon="1.73568">
        <ele>168</ele>
        <time>2015-07-11T11:12:47.000Z</time>
      </trkpt>
      <trkpt lat="48.69949" lon="1.73576">
        <ele>168</ele>
        <time>2015-07-11T11:12:53.000Z</time>
      </trkpt>
      <trkpt lat="48.69955" lon="1.73588">
        <ele>168</ele>
        <time>2015-07-11T11:13:00.000Z</time>
      </trkpt>
      <trkpt lat="48.69955" lon="1.73591">
        <ele>168</ele>
        <time>2015-07-11T11:13:01.000Z</time>
      </trkpt>
      <trkpt lat="48.69961" lon="1.73603">
        <ele>168</ele>
        <time>2015-07-11T11:13:07.000Z</time>
      </trkpt>
      <trkpt lat="48.69971" lon="1.73612">
        <ele>168</ele>
        <time>2015-07-11T11:13:14.000Z</time>
      </trkpt>
      <trkpt lat="48.6998" lon="1.73623">
        <ele>168</ele>
        <time>2015-07-11T11:13:21.000Z</time>
      </trkpt>
      <trkpt lat="48.69981" lon="1.73625">
        <ele>168</ele>
        <time>2015-07-11T11:13:22.000Z</time>
      </trkpt>
      <trkpt lat="48.6999" lon="1.73641">
        <ele>168</ele>
        <time>2015-07-11T11:13:31.000Z</time>
      </trkpt>
      <trkpt lat="48.69995" lon="1.73652">
        <ele>168</ele>
        <time>2015-07-11T11:13:38.000Z</time>
      </trkpt>
      <trkpt lat="48.69996" lon="1.73653">
        <ele>168</ele>
        <time>2015-07-11T11:13:39.000Z</time>
      </trkpt>
      <trkpt lat="48.7" lon="1.73661">
        <ele>168</ele>
        <time>2015-07-11T11:13:43.000Z</time>
      </trkpt>
      <trkpt lat="48.70008" lon="1.73673">
        <ele>167.7</ele>
        <time>2015-07-11T11:13:51.000Z</time>
      </trkpt>
      <trkpt lat="48.70009" lon="1.73675">
        <ele>167.7</ele>
        <time>2015-07-11T11:13:52.000Z</time>
      </trkpt>
      <trkpt lat="48.70017" lon="1.73688">
        <ele>167.4</ele>
        <time>2015-07-11T11:13:58.000Z</time>
      </trkpt>
      <trkpt lat="48.70019" lon="1.7369">
        <ele>167.3</ele>
        <time>2015-07-11T11:14:00.000Z</time>
      </trkpt>
      <trkpt lat="48.70029" lon="1.73701">
        <ele>167</ele>
        <time>2015-07-11T11:14:07.000Z</time>
      </trkpt>
      <trkpt lat="48.70038" lon="1.73703">
        <ele>166.6</ele>
        <time>2015-07-11T11:14:14.000Z</time>
      </trkpt>
      <trkpt lat="48.70049" lon="1.73703">
        <ele>166.3</ele>
        <time>2015-07-11T11:14:20.000Z</time>
      </trkpt>
      <trkpt lat="48.7005" lon="1.73703">
        <ele>166.2</ele>
        <time>2015-07-11T11:14:21.000Z</time>
      </trkpt>
      <trkpt lat="48.70053" lon="1.73705">
        <ele>166.1</ele>
        <time>2015-07-11T11:14:24.000Z</time>
      </trkpt>
      <trkpt lat="48.70064" lon="1.73707">
        <ele>166</ele>
        <time>2015-07-11T11:14:31.000Z</time>
      </trkpt>
      <trkpt lat="48.70072" lon="1.73703">
        <ele>166</ele>
        <time>2015-07-11T11:14:37.000Z</time>
      </trkpt>
      <trkpt lat="48.70079" lon="1.737">
        <ele>166</ele>
        <time>2015-07-11T11:14:41.000Z</time>
      </trkpt>
      <trkpt lat="48.70087" lon="1.73701">
        <ele>166.1</ele>
        <time>2015-07-11T11:14:47.000Z</time>
      </trkpt>
      <trkpt lat="48.70094" lon="1.73705">
        <ele>166.4</ele>
        <time>2015-07-11T11:14:52.000Z</time>
      </trkpt>
      <trkpt lat="48.70097" lon="1.73704">
        <ele>166.5</ele>
        <time>2015-07-11T11:14:54.000Z</time>
      </trkpt>
      <trkpt lat="48.70109" lon="1.73706">
        <ele>166.9</ele>
        <time>2015-07-11T11:15:01.000Z</time>
      </trkpt>
      <trkpt lat="48.70116" lon="1.73705">
        <ele>167.1</ele>
        <time>2015-07-11T11:15:05.000Z</time>
      </trkpt>
      <trkpt lat="48.70125" lon="1.7371">
        <ele>167.3</ele>
        <time>2015-07-11T11:15:12.000Z</time>
      </trkpt>
      <trkpt lat="48.70136" lon="1.73712">
        <ele>167.6</ele>
        <time>2015-07-11T11:15:19.000Z</time>
      </trkpt>
      <trkpt lat="48.70139" lon="1.73713">
        <ele>167.7</ele>
        <time>2015-07-11T11:15:20.000Z</time>
      </trkpt>
      <trkpt lat="48.70148" lon="1.73715">
        <ele>167.8</ele>
        <time>2015-07-11T11:15:26.000Z</time>
      </trkpt>
      <trkpt lat="48.70152" lon="1.73715">
        <ele>167.9</ele>
        <time>2015-07-11T11:15:29.000Z</time>
      </trkpt>
      <trkpt lat="48.70164" lon="1.73715">
        <ele>168</ele>
        <time>2015-07-11T11:15:36.000Z</time>
      </trkpt>
      <trkpt lat="48.70179" lon="1.73715">
        <ele>168.3</ele>
        <time>2015-07-11T11:15:44.000Z</time>
      </trkpt>
      <trkpt lat="48.70187" lon="1.73717">
        <ele>168.6</ele>
        <time>2015-07-11T11:15:50.000Z</time>
      </trkpt>
      <trkpt lat="48.70196" lon="1.73719">
        <ele>168.9</ele>
        <time>2015-07-11T11:15:57.000Z</time>
      </trkpt>
      <trkpt lat="48.70198" lon="1.7372">
        <ele>169</ele>
        <time>2015-07-11T11:15:58.000Z</time>
      </trkpt>
      <trkpt lat="48.70207" lon="1.73721">
        <ele>169.4</ele>
        <time>2015-07-11T11:16:05.000Z</time>
      </trkpt>
      <trkpt lat="48.70217" lon="1.7372">
        <ele>169.7</ele>
        <time>2015-07-11T11:16:11.000Z</time>
      </trkpt>
      <trkpt lat="48.70218" lon="1.7372">
        <ele>169.8</ele>
        <time>2015-07-11T11:16:12.000Z</time>
      </trkpt>
      <trkpt lat="48.70228" lon="1.73717">
        <ele>169.9</ele>
        <time>2015-07-11T11:16:19.000Z</time>
      </trkpt>
      <trkpt lat="48.70238" lon="1.73722">
        <ele>170</ele>
        <time>2015-07-11T11:16:26.000Z</time>
      </trkpt>
      <trkpt lat="48.70242" lon="1.73724">
        <ele>170</ele>
        <time>2015-07-11T11:16:28.000Z</time>
      </trkpt>
      <trkpt lat="48.7025" lon="1.73722">
        <ele>170</ele>
        <time>2015-07-11T11:16:33.000Z</time>
      </trkpt>
      <trkpt lat="48.70253" lon="1.73722">
        <ele>170</ele>
        <time>2015-07-11T11:16:35.000Z</time>
      </trkpt>
      <trkpt lat="48.70262" lon="1.73723">
        <ele>170</ele>
        <time>2015-07-11T11:16:40.000Z</time>
      </trkpt>
      <trkpt lat="48.70273" lon="1.73728">
        <ele>170</ele>
        <time>2015-07-11T11:16:48.000Z</time>
      </trkpt>
      <trkpt lat="48.70274" lon="1.73733">
        <ele>170</ele>
        <time>2015-07-11T11:16:50.000Z</time>
      </trkpt>
      <trkpt lat="48.70275" lon="1.73742">
        <ele>170</ele>
        <time>2015-07-11T11:16:54.000Z</time>
      </trkpt>
      <trkpt lat="48.70272" lon="1.73751">
        <ele>170</ele>
        <time>2015-07-11T11:16:58.000Z</time>
      </trkpt>
      <trkpt lat="48.70271" lon="1.73758">
        <ele>170</ele>
        <time>2015-07-11T11:17:01.000Z</time>
      </trkpt>
      <trkpt lat="48.70273" lon="1.7377">
        <ele>170</ele>
        <time>2015-07-11T11:17:07.000Z</time>
      </trkpt>
      <trkpt lat="48.70272" lon="1.73784">
        <ele>170</ele>
        <time>2015-07-11T11:17:12.000Z</time>
      </trkpt>
      <trkpt lat="48.70266" lon="1.73807">
        <ele>170</ele>
        <time>2015-07-11T11:17:20.000Z</time>
      </trkpt>
      <trkpt lat="48.70267" lon="1.73821">
        <ele>170.6</ele>
        <time>2015-07-11T11:17:27.000Z</time>
      </trkpt>
      <trkpt lat="48.70267" lon="1.73827">
        <ele>170.8</ele>
        <time>2015-07-11T11:17:30.000Z</time>
      </trkpt>
      <trkpt lat="48.70265" lon="1.73844">
        <ele>170.6</ele>
        <time>2015-07-11T11:17:38.000Z</time>
      </trkpt>
      <trkpt lat="48.70259" lon="1.73857">
        <ele>170.1</ele>
        <time>2015-07-11T11:17:45.000Z</time>
      </trkpt>
      <trkpt lat="48.70254" lon="1.73871">
        <ele>170.1</ele>
        <time>2015-07-11T11:17:52.000Z</time>
      </trkpt>
      <trkpt lat="48.70249" lon="1.73884">
        <ele>170</ele>
        <time>2015-07-11T11:17:58.000Z</time>
      </trkpt>
      <trkpt lat="48.70248" lon="1.73898">
        <ele>170</ele>
        <time>2015-07-11T11:18:03.000Z</time>
      </trkpt>
      <trkpt lat="48.70252" lon="1.73909">
        <ele>170</ele>
        <time>2015-07-11T11:18:09.000Z</time>
      </trkpt>
      <trkpt lat="48.70259" lon="1.7392">
        <ele>170</ele>
        <time>2015-07-11T11:18:16.000Z</time>
      </trkpt>
      <trkpt lat="48.70258" lon="1.7392">
        <ele>170</ele>
        <time>2015-07-11T11:18:18.000Z</time>
      </trkpt>
      <trkpt lat="48.70249" lon="1.73911">
        <ele>170</ele>
        <time>2015-07-11T11:18:25.000Z</time>
      </trkpt>
      <trkpt lat="48.70247" lon="1.73911">
        <ele>170</ele>
        <time>2015-07-11T11:18:27.000Z</time>
      </trkpt>
      <trkpt lat="48.70238" lon="1.73923">
        <ele>170</ele>
        <time>2015-07-11T11:18:35.000Z</time>
      </trkpt>
      <trkpt lat="48.7023" lon="1.73927">
        <ele>170</ele>
        <time>2015-07-11T11:18:41.000Z</time>
      </trkpt>
      <trkpt lat="48.70228" lon="1.73934">
        <ele>170</ele>
        <time>2015-07-11T11:18:45.000Z</time>
      </trkpt>
      <trkpt lat="48.70223" lon="1.73944">
        <ele>170</ele>
        <time>2015-07-11T11:18:51.000Z</time>
      </trkpt>
      <trkpt lat="48.70215" lon="1.73956">
        <ele>170</ele>
        <time>2015-07-11T11:18:57.000Z</time>
      </trkpt>
      <trkpt lat="48.70209" lon="1.73966">
        <ele>170</ele>
        <time>2015-07-11T11:19:03.000Z</time>
      </trkpt>
      <trkpt lat="48.70207" lon="1.73969">
        <ele>170</ele>
        <time>2015-07-11T11:19:06.000Z</time>
      </trkpt>
      <trkpt lat="48.70201" lon="1.73981">
        <ele>170</ele>
        <time>2015-07-11T11:19:13.000Z</time>
      </trkpt>
      <trkpt lat="48.70196" lon="1.73984">
        <ele>170</ele>
        <time>2015-07-11T11:19:16.000Z</time>
      </trkpt>
      <trkpt lat="48.70187" lon="1.74002">
        <ele>170</ele>
        <time>2015-07-11T11:19:24.000Z</time>
      </trkpt>
      <trkpt lat="48.70185" lon="1.74006">
        <ele>170</ele>
        <time>2015-07-11T11:19:26.000Z</time>
      </trkpt>
      <trkpt lat="48.70183" lon="1.74017">
        <ele>170</ele>
        <time>2015-07-11T11:19:33.000Z</time>
      </trkpt>
      <trkpt lat="48.7018" lon="1.74031">
        <ele>170</ele>
        <time>2015-07-11T11:19:39.000Z</time>
      </trkpt>
      <trkpt lat="48.70177" lon="1.74041">
        <ele>170</ele>
        <time>2015-07-11T11:19:44.000Z</time>
      </trkpt>
      <trkpt lat="48.70175" lon="1.74043">
        <ele>170</ele>
        <time>2015-07-11T11:19:45.000Z</time>
      </trkpt>
      <trkpt lat="48.70177" lon="1.74061">
        <ele>170</ele>
        <time>2015-07-11T11:19:53.000Z</time>
      </trkpt>
      <trkpt lat="48.70179" lon="1.74071">
        <ele>170</ele>
        <time>2015-07-11T11:19:58.000Z</time>
      </trkpt>
      <trkpt lat="48.70181" lon="1.74082">
        <ele>170</ele>
        <time>2015-07-11T11:20:03.000Z</time>
      </trkpt>
      <trkpt lat="48.70182" lon="1.74091">
        <ele>170</ele>
        <time>2015-07-11T11:20:07.000Z</time>
      </trkpt>
      <trkpt lat="48.70185" lon="1.74101">
        <ele>170</ele>
        <time>2015-07-11T11:20:11.000Z</time>
      </trkpt>
      <trkpt lat="48.70187" lon="1.74115">
        <ele>170</ele>
        <time>2015-07-11T11:20:17.000Z</time>
      </trkpt>
      <trkpt lat="48.70191" lon="1.74128">
        <ele>170</ele>
        <time>2015-07-11T11:20:23.000Z</time>
      </trkpt>
      <trkpt lat="48.70191" lon="1.74133">
        <ele>170</ele>
        <time>2015-07-11T11:20:25.000Z</time>
      </trkpt>
      <trkpt lat="48.70196" lon="1.74149">
        <ele>170</ele>
        <time>2015-07-11T11:20:32.000Z</time>
      </trkpt>
      <trkpt lat="48.70198" lon="1.74159">
        <ele>170</ele>
        <time>2015-07-11T11:20:36.000Z</time>
      </trkpt>
      <trkpt lat="48.702" lon="1.74174">
        <ele>169.7</ele>
        <time>2015-07-11T11:20:43.000Z</time>
      </trkpt>
      <trkpt lat="48.70201" lon="1.74177">
        <ele>169.6</ele>
        <time>2015-07-11T11:20:44.000Z</time>
      </trkpt>
      <trkpt lat="48.70203" lon="1.74184">
        <ele>169.4</ele>
        <time>2015-07-11T11:20:48.000Z</time>
      </trkpt>
      <trkpt lat="48.70203" lon="1.74189">
        <ele>169.2</ele>
        <time>2015-07-11T11:20:50.000Z</time>
      </trkpt>
      <trkpt lat="48.70207" lon="1.74203">
        <ele>169</ele>
        <time>2015-07-11T11:20:57.000Z</time>
      </trkpt>
      <trkpt lat="48.7021" lon="1.74209">
        <ele>169</ele>
        <time>2015-07-11T11:21:00.000Z</time>
      </trkpt>
      <trkpt lat="48.70219" lon="1.7422">
        <ele>169</ele>
        <time>2015-07-11T11:21:07.000Z</time>
      </trkpt>
      <trkpt lat="48.70225" lon="1.74228">
        <ele>169</ele>
        <time>2015-07-11T11:21:13.000Z</time>
      </trkpt>
      <trkpt lat="48.70226" lon="1.74229">
        <ele>169</ele>
        <time>2015-07-11T11:21:14.000Z</time>
      </trkpt>
      <trkpt lat="48.70229" lon="1.74234">
        <ele>168.9</ele>
        <time>2015-07-11T11:21:17.000Z</time>
      </trkpt>
      <trkpt lat="48.70234" lon="1.74242">
        <ele>168.7</ele>
        <time>2015-07-11T11:21:23.000Z</time>
      </trkpt>
      <trkpt lat="48.70237" lon="1.74245">
        <ele>168.6</ele>
        <time>2015-07-11T11:21:25.000Z</time>
      </trkpt>
      <trkpt lat="48.70243" lon="1.74256">
        <ele>168.2</ele>
        <time>2015-07-11T11:21:31.000Z</time>
      </trkpt>
      <trkpt lat="48.70247" lon="1.74271">
        <ele>168.1</ele>
        <time>2015-07-11T11:21:37.000Z</time>
      </trkpt>
      <trkpt lat="48.70248" lon="1.74276">
        <ele>168.1</ele>
        <time>2015-07-11T11:21:39.000Z</time>
      </trkpt>
      <trkpt lat="48.70252" lon="1.74289">
        <ele>168</ele>
        <time>2015-07-11T11:21:45.000Z</time>
      </trkpt>
      <trkpt lat="48.70255" lon="1.74309">
        <ele>167.7</ele>
        <time>2015-07-11T11:21:53.000Z</time>
      </trkpt>
      <trkpt lat="48.70257" lon="1.74325">
        <ele>167.2</ele>
        <time>2015-07-11T11:22:00.000Z</time>
      </trkpt>
      <trkpt lat="48.7026" lon="1.74337">
        <ele>166.9</ele>
        <time>2015-07-11T11:22:06.000Z</time>
      </trkpt>
      <trkpt lat="48.70261" lon="1.7435">
        <ele>166.8</ele>
        <time>2015-07-11T11:22:12.000Z</time>
      </trkpt>
      <trkpt lat="48.70265" lon="1.74368">
        <ele>166.2</ele>
        <time>2015-07-11T11:22:19.000Z</time>
      </trkpt>
      <trkpt lat="48.70266" lon="1.74374">
        <ele>166</ele>
        <time>2015-07-11T11:22:21.000Z</time>
      </trkpt>
      <trkpt lat="48.70269" lon="1.74394">
        <ele>165.1</ele>
        <time>2015-07-11T11:22:29.000Z</time>
      </trkpt>
      <trkpt lat="48.70273" lon="1.74406">
        <ele>164.6</ele>
        <time>2015-07-11T11:22:34.000Z</time>
      </trkpt>
      <trkpt lat="48.70274" lon="1.74425">
        <ele>164.1</ele>
        <time>2015-07-11T11:22:41.000Z</time>
      </trkpt>
      <trkpt lat="48.70274" lon="1.74428">
        <ele>164.1</ele>
        <time>2015-07-11T11:22:43.000Z</time>
      </trkpt>
      <trkpt lat="48.70276" lon="1.7444">
        <ele>164.1</ele>
        <time>2015-07-11T11:22:48.000Z</time>
      </trkpt>
      <trkpt lat="48.70277" lon="1.74446">
        <ele>164</ele>
        <time>2015-07-11T11:22:50.000Z</time>
      </trkpt>
      <trkpt lat="48.70276" lon="1.74458">
        <ele>163.6</ele>
        <time>2015-07-11T11:22:55.000Z</time>
      </trkpt>
      <trkpt lat="48.70273" lon="1.74471">
        <ele>163.2</ele>
        <time>2015-07-11T11:23:00.000Z</time>
      </trkpt>
      <trkpt lat="48.70272" lon="1.7448">
        <ele>163.2</ele>
        <time>2015-07-11T11:23:04.000Z</time>
      </trkpt>
      <trkpt lat="48.70274" lon="1.74492">
        <ele>163</ele>
        <time>2015-07-11T11:23:10.000Z</time>
      </trkpt>
      <trkpt lat="48.70275" lon="1.74494">
        <ele>163</ele>
        <time>2015-07-11T11:23:11.000Z</time>
      </trkpt>
      <trkpt lat="48.70276" lon="1.745">
        <ele>163</ele>
        <time>2015-07-11T11:23:14.000Z</time>
      </trkpt>
      <trkpt lat="48.70279" lon="1.74516">
        <ele>162.4</ele>
        <time>2015-07-11T11:23:21.000Z</time>
      </trkpt>
      <trkpt lat="48.7028" lon="1.74526">
        <ele>162.1</ele>
        <time>2015-07-11T11:23:25.000Z</time>
      </trkpt>
      <trkpt lat="48.70284" lon="1.74543">
        <ele>162.2</ele>
        <time>2015-07-11T11:23:32.000Z</time>
      </trkpt>
      <trkpt lat="48.70286" lon="1.7455">
        <ele>162.3</ele>
        <time>2015-07-11T11:23:35.000Z</time>
      </trkpt>
      <trkpt lat="48.70289" lon="1.74563">
        <ele>162.2</ele>
        <time>2015-07-11T11:23:41.000Z</time>
      </trkpt>
      <trkpt lat="48.7029" lon="1.7457">
        <ele>162.2</ele>
        <time>2015-07-11T11:23:44.000Z</time>
      </trkpt>
      <trkpt lat="48.70296" lon="1.74584">
        <ele>162.3</ele>
        <time>2015-07-11T11:23:51.000Z</time>
      </trkpt>
      <trkpt lat="48.70297" lon="1.74588">
        <ele>162.4</ele>
        <time>2015-07-11T11:23:53.000Z</time>
      </trkpt>
      <trkpt lat="48.703" lon="1.74602">
        <ele>162.7</ele>
        <time>2015-07-11T11:23:58.000Z</time>
      </trkpt>
      <trkpt lat="48.70305" lon="1.74617">
        <ele>163</ele>
        <time>2015-07-11T11:24:06.000Z</time>
      </trkpt>
      <trkpt lat="48.70306" lon="1.7462">
        <ele>163</ele>
        <time>2015-07-11T11:24:08.000Z</time>
      </trkpt>
      <trkpt lat="48.70306" lon="1.74626">
        <ele>163</ele>
        <time>2015-07-11T11:24:11.000Z</time>
      </trkpt>
      <trkpt lat="48.70307" lon="1.74636">
        <ele>163.1</ele>
        <time>2015-07-11T11:24:16.000Z</time>
      </trkpt>
      <trkpt lat="48.70306" lon="1.74649">
        <ele>163.1</ele>
        <time>2015-07-11T11:24:23.000Z</time>
      </trkpt>
      <trkpt lat="48.70305" lon="1.74651">
        <ele>163</ele>
        <time>2015-07-11T11:24:25.000Z</time>
      </trkpt>
      <trkpt lat="48.70288" lon="1.74663">
        <ele>162.9</ele>
        <time>2015-07-11T11:24:35.000Z</time>
      </trkpt>
      <trkpt lat="48.70286" lon="1.74667">
        <ele>163</ele>
        <time>2015-07-11T11:24:38.000Z</time>
      </trkpt>
      <trkpt lat="48.70285" lon="1.74678">
        <ele>163</ele>
        <time>2015-07-11T11:24:43.000Z</time>
      </trkpt>
      <trkpt lat="48.70285" lon="1.74681">
        <ele>163</ele>
        <time>2015-07-11T11:24:44.000Z</time>
      </trkpt>
      <trkpt lat="48.70281" lon="1.74693">
        <ele>163</ele>
        <time>2015-07-11T11:24:49.000Z</time>
      </trkpt>
      <trkpt lat="48.70277" lon="1.7471">
        <ele>163</ele>
        <time>2015-07-11T11:24:56.000Z</time>
      </trkpt>
      <trkpt lat="48.70274" lon="1.74726">
        <ele>163.1</ele>
        <time>2015-07-11T11:25:03.000Z</time>
      </trkpt>
      <trkpt lat="48.70274" lon="1.7473">
        <ele>163.1</ele>
        <time>2015-07-11T11:25:05.000Z</time>
      </trkpt>
      <trkpt lat="48.70271" lon="1.74747">
        <ele>163.2</ele>
        <time>2015-07-11T11:25:13.000Z</time>
      </trkpt>
      <trkpt lat="48.70269" lon="1.74761">
        <ele>163.7</ele>
        <time>2015-07-11T11:25:19.000Z</time>
      </trkpt>
      <trkpt lat="48.70267" lon="1.74771">
        <ele>164.2</ele>
        <time>2015-07-11T11:25:24.000Z</time>
      </trkpt>
      <trkpt lat="48.70264" lon="1.74788">
        <ele>164.5</ele>
        <time>2015-07-11T11:25:32.000Z</time>
      </trkpt>
      <trkpt lat="48.70263" lon="1.74803">
        <ele>164.5</ele>
        <time>2015-07-11T11:25:37.000Z</time>
      </trkpt>
      <trkpt lat="48.7026" lon="1.74818">
        <ele>165.1</ele>
        <time>2015-07-11T11:25:43.000Z</time>
      </trkpt>
      <trkpt lat="48.7026" lon="1.74831">
        <ele>165.6</ele>
        <time>2015-07-11T11:25:49.000Z</time>
      </trkpt>
      <trkpt lat="48.70255" lon="1.74861">
        <ele>165.8</ele>
        <time>2015-07-11T11:26:01.000Z</time>
      </trkpt>
      <trkpt lat="48.70253" lon="1.74875">
        <ele>166.4</ele>
        <time>2015-07-11T11:26:08.000Z</time>
      </trkpt>
      <trkpt lat="48.7025" lon="1.74893">
        <ele>167.1</ele>
        <time>2015-07-11T11:26:16.000Z</time>
      </trkpt>
      <trkpt lat="48.70248" lon="1.74911">
        <ele>167.9</ele>
        <time>2015-07-11T11:26:25.000Z</time>
      </trkpt>
      <trkpt lat="48.70244" lon="1.74929">
        <ele>168.7</ele>
        <time>2015-07-11T11:26:34.000Z</time>
      </trkpt>
      <trkpt lat="48.70241" lon="1.74946">
        <ele>169.3</ele>
        <time>2015-07-11T11:26:42.000Z</time>
      </trkpt>
      <trkpt lat="48.70239" lon="1.74957">
        <ele>169.4</ele>
        <time>2015-07-11T11:26:48.000Z</time>
      </trkpt>
      <trkpt lat="48.70235" lon="1.74975">
        <ele>169.6</ele>
        <time>2015-07-11T11:26:55.000Z</time>
      </trkpt>
      <trkpt lat="48.70235" lon="1.74989">
        <ele>169.8</ele>
        <time>2015-07-11T11:27:01.000Z</time>
      </trkpt>
      <trkpt lat="48.70232" lon="1.75007">
        <ele>170</ele>
        <time>2015-07-11T11:27:09.000Z</time>
      </trkpt>
      <trkpt lat="48.70228" lon="1.75023">
        <ele>170</ele>
        <time>2015-07-11T11:27:16.000Z</time>
      </trkpt>
      <trkpt lat="48.70222" lon="1.75039">
        <ele>170</ele>
        <time>2015-07-11T11:27:22.000Z</time>
      </trkpt>
      <trkpt lat="48.70219" lon="1.75042">
        <ele>170</ele>
        <time>2015-07-11T11:27:23.000Z</time>
      </trkpt>
      <trkpt lat="48.70221" lon="1.75057">
        <ele>170</ele>
        <time>2015-07-11T11:27:30.000Z</time>
      </trkpt>
      <trkpt lat="48.70223" lon="1.75068">
        <ele>170</ele>
        <time>2015-07-11T11:27:38.000Z</time>
      </trkpt>
      <trkpt lat="48.70225" lon="1.75076">
        <ele>170</ele>
        <time>2015-07-11T11:27:42.000Z</time>
      </trkpt>
      <trkpt lat="48.70226" lon="1.75087">
        <ele>169.9</ele>
        <time>2015-07-11T11:27:48.000Z</time>
      </trkpt>
      <trkpt lat="48.70223" lon="1.75105">
        <ele>169.3</ele>
        <time>2015-07-11T11:27:56.000Z</time>
      </trkpt>
      <trkpt lat="48.70224" lon="1.75117">
        <ele>169.1</ele>
        <time>2015-07-11T11:28:03.000Z</time>
      </trkpt>
      <trkpt lat="48.70225" lon="1.75136">
        <ele>169</ele>
        <time>2015-07-11T11:28:10.000Z</time>
      </trkpt>
      <trkpt lat="48.70221" lon="1.75152">
        <ele>168.5</ele>
        <time>2015-07-11T11:28:17.000Z</time>
      </trkpt>
      <trkpt lat="48.70219" lon="1.75157">
        <ele>168.3</ele>
        <time>2015-07-11T11:28:20.000Z</time>
      </trkpt>
      <trkpt lat="48.70213" lon="1.75173">
        <ele>168</ele>
        <time>2015-07-11T11:28:28.000Z</time>
      </trkpt>
      <trkpt lat="48.70214" lon="1.75184">
        <ele>168</ele>
        <time>2015-07-11T11:28:32.000Z</time>
      </trkpt>
      <trkpt lat="48.70211" lon="1.75202">
        <ele>168.2</ele>
        <time>2015-07-11T11:28:40.000Z</time>
      </trkpt>
      <trkpt lat="48.70206" lon="1.75216">
        <ele>168.3</ele>
        <time>2015-07-11T11:28:48.000Z</time>
      </trkpt>
      <trkpt lat="48.70204" lon="1.75225">
        <ele>168.4</ele>
        <time>2015-07-11T11:28:53.000Z</time>
      </trkpt>
      <trkpt lat="48.70208" lon="1.7523">
        <ele>168.6</ele>
        <time>2015-07-11T11:28:59.000Z</time>
      </trkpt>
      <trkpt lat="48.70214" lon="1.75225">
        <ele>168.8</ele>
        <time>2015-07-11T11:29:06.000Z</time>
      </trkpt>
      <trkpt lat="48.70221" lon="1.75225">
        <ele>168.9</ele>
        <time>2015-07-11T11:29:12.000Z</time>
      </trkpt>
      <trkpt lat="48.70226" lon="1.75229">
        <ele>169</ele>
        <time>2015-07-11T11:29:17.000Z</time>
      </trkpt>
      <trkpt lat="48.70234" lon="1.75237">
        <ele>169</ele>
        <time>2015-07-11T11:29:23.000Z</time>
      </trkpt>
      <trkpt lat="48.70238" lon="1.75238">
        <ele>169</ele>
        <time>2015-07-11T11:29:26.000Z</time>
      </trkpt>
      <trkpt lat="48.70251" lon="1.75244">
        <ele>169</ele>
        <time>2015-07-11T11:29:35.000Z</time>
      </trkpt>
      <trkpt lat="48.70257" lon="1.75255">
        <ele>169.2</ele>
        <time>2015-07-11T11:29:42.000Z</time>
      </trkpt>
      <trkpt lat="48.70269" lon="1.75264">
        <ele>169.5</ele>
        <time>2015-07-11T11:29:50.000Z</time>
      </trkpt>
      <trkpt lat="48.70273" lon="1.75267">
        <ele>169.6</ele>
        <time>2015-07-11T11:29:53.000Z</time>
      </trkpt>
      <trkpt lat="48.70283" lon="1.75274">
        <ele>169.9</ele>
        <time>2015-07-11T11:29:59.000Z</time>
      </trkpt>
      <trkpt lat="48.70292" lon="1.7528">
        <ele>170</ele>
        <time>2015-07-11T11:30:06.000Z</time>
      </trkpt>
      <trkpt lat="48.70298" lon="1.75292">
        <ele>170</ele>
        <time>2015-07-11T11:30:13.000Z</time>
      </trkpt>
      <trkpt lat="48.70302" lon="1.75299">
        <ele>170</ele>
        <time>2015-07-11T11:30:18.000Z</time>
      </trkpt>
      <trkpt lat="48.70306" lon="1.75308">
        <ele>170.1</ele>
        <time>2015-07-11T11:30:25.000Z</time>
      </trkpt>
      <trkpt lat="48.7031" lon="1.75314">
        <ele>170.5</ele>
        <time>2015-07-11T11:30:30.000Z</time>
      </trkpt>
      <trkpt lat="48.70317" lon="1.75322">
        <ele>171</ele>
        <time>2015-07-11T11:30:36.000Z</time>
      </trkpt>
      <trkpt lat="48.70323" lon="1.75327">
        <ele>171.4</ele>
        <time>2015-07-11T11:30:41.000Z</time>
      </trkpt>
      <trkpt lat="48.70332" lon="1.75333">
        <ele>171.9</ele>
        <time>2015-07-11T11:30:47.000Z</time>
      </trkpt>
      <trkpt lat="48.70344" lon="1.75346">
        <ele>172.2</ele>
        <time>2015-07-11T11:30:56.000Z</time>
      </trkpt>
      <trkpt lat="48.70351" lon="1.7536">
        <ele>172.6</ele>
        <time>2015-07-11T11:31:02.000Z</time>
      </trkpt>
      <trkpt lat="48.70356" lon="1.7537">
        <ele>172.9</ele>
        <time>2015-07-11T11:31:09.000Z</time>
      </trkpt>
      <trkpt lat="48.70357" lon="1.7537">
        <ele>172.9</ele>
        <time>2015-07-11T11:31:10.000Z</time>
      </trkpt>
      <trkpt lat="48.70365" lon="1.75374">
        <ele>173</ele>
        <time>2015-07-11T11:31:17.000Z</time>
      </trkpt>
      <trkpt lat="48.70366" lon="1.75374">
        <ele>173</ele>
        <time>2015-07-11T11:31:18.000Z</time>
      </trkpt>
      <trkpt lat="48.70373" lon="1.75377">
        <ele>173</ele>
        <time>2015-07-11T11:31:25.000Z</time>
      </trkpt>
      <trkpt lat="48.70381" lon="1.75384">
        <ele>173</ele>
        <time>2015-07-11T11:31:33.000Z</time>
      </trkpt>
      <trkpt lat="48.70392" lon="1.75392">
        <ele>173</ele>
        <time>2015-07-11T11:31:41.000Z</time>
      </trkpt>
      <trkpt lat="48.70403" lon="1.754">
        <ele>173</ele>
        <time>2015-07-11T11:31:48.000Z</time>
      </trkpt>
      <trkpt lat="48.70409" lon="1.75403">
        <ele>173</ele>
        <time>2015-07-11T11:31:52.000Z</time>
      </trkpt>
      <trkpt lat="48.70418" lon="1.7541">
        <ele>173.1</ele>
        <time>2015-07-11T11:32:00.000Z</time>
      </trkpt>
      <trkpt lat="48.70425" lon="1.75415">
        <ele>173.3</ele>
        <time>2015-07-11T11:32:05.000Z</time>
      </trkpt>
      <trkpt lat="48.7043" lon="1.75418">
        <ele>173.5</ele>
        <time>2015-07-11T11:32:10.000Z</time>
      </trkpt>
      <trkpt lat="48.70443" lon="1.75429">
        <ele>173.5</ele>
        <time>2015-07-11T11:32:20.000Z</time>
      </trkpt>
      <trkpt lat="48.70454" lon="1.75431">
        <ele>173.7</ele>
        <time>2015-07-11T11:32:28.000Z</time>
      </trkpt>
      <trkpt lat="48.70463" lon="1.75442">
        <ele>173.7</ele>
        <time>2015-07-11T11:32:36.000Z</time>
      </trkpt>
      <trkpt lat="48.70466" lon="1.75444">
        <ele>173.8</ele>
        <time>2015-07-11T11:32:38.000Z</time>
      </trkpt>
      <trkpt lat="48.70474" lon="1.75457">
        <ele>174</ele>
        <time>2015-07-11T11:32:44.000Z</time>
      </trkpt>
      <trkpt lat="48.70476" lon="1.75464">
        <ele>174</ele>
        <time>2015-07-11T11:32:47.000Z</time>
      </trkpt>
      <trkpt lat="48.70482" lon="1.75477">
        <ele>173.8</ele>
        <time>2015-07-11T11:32:54.000Z</time>
      </trkpt>
      <trkpt lat="48.70485" lon="1.75481">
        <ele>173.7</ele>
        <time>2015-07-11T11:32:56.000Z</time>
      </trkpt>
      <trkpt lat="48.70491" lon="1.75487">
        <ele>173.5</ele>
        <time>2015-07-11T11:33:02.000Z</time>
      </trkpt>
      <trkpt lat="48.70493" lon="1.75488">
        <ele>173.4</ele>
        <time>2015-07-11T11:33:06.000Z</time>
      </trkpt>
      <trkpt lat="48.70496" lon="1.75489">
        <ele>173.4</ele>
        <time>2015-07-11T11:33:10.000Z</time>
      </trkpt>
      <trkpt lat="48.705" lon="1.75492">
        <ele>173.3</ele>
        <time>2015-07-11T11:33:14.000Z</time>
      </trkpt>
      <trkpt lat="48.7049" lon="1.75488">
        <ele>173.4</ele>
        <time>2015-07-11T11:33:40.000Z</time>
      </trkpt>
      <trkpt lat="48.7049" lon="1.75488">
        <ele>173.4</ele>
        <time>2015-07-11T11:33:41.000Z</time>
      </trkpt>
      <trkpt lat="48.70498" lon="1.75477">
        <ele>173.8</ele>
        <time>2015-07-11T11:34:26.000Z</time>
      </trkpt>
      <trkpt lat="48.70499" lon="1.75481">
        <ele>173.7</ele>
        <time>2015-07-11T11:34:32.000Z</time>
      </trkpt>
      <trkpt lat="48.70495" lon="1.75483">
        <ele>173.6</ele>
        <time>2015-07-11T11:34:39.000Z</time>
      </trkpt>
      <trkpt lat="48.70491" lon="1.75484">
        <ele>173.6</ele>
        <time>2015-07-11T11:34:48.000Z</time>
      </trkpt>
      <trkpt lat="48.70491" lon="1.75483">
        <ele>173.6</ele>
        <time>2015-07-11T11:34:51.000Z</time>
      </trkpt>
      <trkpt lat="48.70496" lon="1.75491">
        <ele>173.3</ele>
        <time>2015-07-11T11:35:00.000Z</time>
      </trkpt>
      <trkpt lat="48.70502" lon="1.75498">
        <ele>173.1</ele>
        <time>2015-07-11T11:35:05.000Z</time>
      </trkpt>
      <trkpt lat="48.70503" lon="1.75499">
        <ele>173</ele>
        <time>2015-07-11T11:35:06.000Z</time>
      </trkpt>
      <trkpt lat="48.70514" lon="1.75508">
        <ele>173</ele>
        <time>2015-07-11T11:35:13.000Z</time>
      </trkpt>
      <trkpt lat="48.70522" lon="1.75514">
        <ele>173</ele>
        <time>2015-07-11T11:35:18.000Z</time>
      </trkpt>
      <trkpt lat="48.70526" lon="1.75518">
        <ele>173</ele>
        <time>2015-07-11T11:35:22.000Z</time>
      </trkpt>
      <trkpt lat="48.7053" lon="1.75525">
        <ele>173</ele>
        <time>2015-07-11T11:35:26.000Z</time>
      </trkpt>
      <trkpt lat="48.7054" lon="1.75533">
        <ele>173</ele>
        <time>2015-07-11T11:35:33.000Z</time>
      </trkpt>
      <trkpt lat="48.70544" lon="1.75541">
        <ele>173</ele>
        <time>2015-07-11T11:35:39.000Z</time>
      </trkpt>
      <trkpt lat="48.70545" lon="1.75543">
        <ele>173</ele>
        <time>2015-07-11T11:35:41.000Z</time>
      </trkpt>
      <trkpt lat="48.7055" lon="1.75552">
        <ele>173</ele>
        <time>2015-07-11T11:35:48.000Z</time>
      </trkpt>
      <trkpt lat="48.70559" lon="1.75557">
        <ele>173</ele>
        <time>2015-07-11T11:35:52.000Z</time>
      </trkpt>
      <trkpt lat="48.70567" lon="1.75564">
        <ele>173</ele>
        <time>2015-07-11T11:36:00.000Z</time>
      </trkpt>
      <trkpt lat="48.70572" lon="1.75568">
        <ele>173</ele>
        <time>2015-07-11T11:36:04.000Z</time>
      </trkpt>
      <trkpt lat="48.70581" lon="1.75578">
        <ele>173</ele>
        <time>2015-07-11T11:36:12.000Z</time>
      </trkpt>
      <trkpt lat="48.70591" lon="1.75588">
        <ele>172.7</ele>
        <time>2015-07-11T11:36:19.000Z</time>
      </trkpt>
      <trkpt lat="48.70596" lon="1.75599">
        <ele>172.5</ele>
        <time>2015-07-11T11:36:28.000Z</time>
      </trkpt>
      <trkpt lat="48.70598" lon="1.75602">
        <ele>172.5</ele>
        <time>2015-07-11T11:36:30.000Z</time>
      </trkpt>
      <trkpt lat="48.70604" lon="1.75612">
        <ele>172.3</ele>
        <time>2015-07-11T11:36:37.000Z</time>
      </trkpt>
      <trkpt lat="48.70608" lon="1.75622">
        <ele>172.5</ele>
        <time>2015-07-11T11:36:44.000Z</time>
      </trkpt>
      <trkpt lat="48.70609" lon="1.75623">
        <ele>172.5</ele>
        <time>2015-07-11T11:36:45.000Z</time>
      </trkpt>
      <trkpt lat="48.70616" lon="1.75634">
        <ele>172.8</ele>
        <time>2015-07-11T11:36:52.000Z</time>
      </trkpt>
      <trkpt lat="48.70617" lon="1.75636">
        <ele>172.9</ele>
        <time>2015-07-11T11:36:53.000Z</time>
      </trkpt>
      <trkpt lat="48.70625" lon="1.75641">
        <ele>173</ele>
        <time>2015-07-11T11:37:01.000Z</time>
      </trkpt>
      <trkpt lat="48.70631" lon="1.75646">
        <ele>173</ele>
        <time>2015-07-11T11:37:12.000Z</time>
      </trkpt>
      <trkpt lat="48.7063" lon="1.75641">
        <ele>173</ele>
        <time>2015-07-11T11:37:19.000Z</time>
      </trkpt>
      <trkpt lat="48.7063" lon="1.75642">
        <ele>173</ele>
        <time>2015-07-11T11:37:21.000Z</time>
      </trkpt>
      <trkpt lat="48.7063" lon="1.75638">
        <ele>173</ele>
        <time>2015-07-11T11:38:01.000Z</time>
      </trkpt>
      <trkpt lat="48.70631" lon="1.75639">
        <ele>173</ele>
        <time>2015-07-11T11:38:02.000Z</time>
      </trkpt>
      <trkpt lat="48.70634" lon="1.75642">
        <ele>173</ele>
        <time>2015-07-11T11:38:05.000Z</time>
      </trkpt>
      <trkpt lat="48.70639" lon="1.75636">
        <ele>172.9</ele>
        <time>2015-07-11T11:38:12.000Z</time>
      </trkpt>
      <trkpt lat="48.70642" lon="1.75624">
        <ele>172.5</ele>
        <time>2015-07-11T11:38:19.000Z</time>
      </trkpt>
      <trkpt lat="48.70645" lon="1.75616">
        <ele>172.3</ele>
        <time>2015-07-11T11:38:24.000Z</time>
      </trkpt>
      <trkpt lat="48.70649" lon="1.75604">
        <ele>172.4</ele>
        <time>2015-07-11T11:38:31.000Z</time>
      </trkpt>
      <trkpt lat="48.70654" lon="1.75589">
        <ele>172.5</ele>
        <time>2015-07-11T11:38:39.000Z</time>
      </trkpt>
      <trkpt lat="48.70658" lon="1.75578">
        <ele>172.8</ele>
        <time>2015-07-11T11:38:46.000Z</time>
      </trkpt>
      <trkpt lat="48.70663" lon="1.75568">
        <ele>172.9</ele>
        <time>2015-07-11T11:38:53.000Z</time>
      </trkpt>
      <trkpt lat="48.70669" lon="1.75557">
        <ele>173</ele>
        <time>2015-07-11T11:39:00.000Z</time>
      </trkpt>
      <trkpt lat="48.70673" lon="1.75554">
        <ele>173</ele>
        <time>2015-07-11T11:39:03.000Z</time>
      </trkpt>
      <trkpt lat="48.7068" lon="1.75542">
        <ele>173</ele>
        <time>2015-07-11T11:39:12.000Z</time>
      </trkpt>
      <trkpt lat="48.70681" lon="1.7554">
        <ele>173</ele>
        <time>2015-07-11T11:39:13.000Z</time>
      </trkpt>
      <trkpt lat="48.70685" lon="1.75534">
        <ele>173</ele>
        <time>2015-07-11T11:39:18.000Z</time>
      </trkpt>
      <trkpt lat="48.70689" lon="1.75529">
        <ele>173</ele>
        <time>2015-07-11T11:39:22.000Z</time>
      </trkpt>
      <trkpt lat="48.70695" lon="1.75516">
        <ele>173</ele>
        <time>2015-07-11T11:39:30.000Z</time>
      </trkpt>
      <trkpt lat="48.70697" lon="1.75509">
        <ele>173</ele>
        <time>2015-07-11T11:39:37.000Z</time>
      </trkpt>
    </trkseg>
  </trk>
</gpx>